<?xml version="1.0" encoding="UTF-8" standalone="no" ?>
<gpx xmlns="http://www.topografix.com/GPX/1/1" xmlns:xsi="http://www.w3.org/2001/XMLSchema-instance" xsi:schemaLocation="http://www.topografix.com/GPX/1/1 http://www.topografix.com/GPX/1/1/gpx.xsd" version="1.1" creator="VisuGPX - https://www.visugpx.com">
  <metadata>
    <name>Vessy Course</name>
  </metadata>
  <trk>
    <name><![CDATA[Vessy Course]]></name>
    <trkseg>
      <trkpt lat="46.18518" lon="6.16608">
        <ele>390</ele>
        <time>2019-09-04T08:42:44Z</time>
      </trkpt>
      <trkpt lat="46.18517" lon="6.16606">
        <ele>390</ele>
        <time>2019-09-04T08:42:46Z</time>
      </trkpt>
      <trkpt lat="46.18517" lon="6.16604">
        <ele>390</ele>
        <time>2019-09-04T08:42:48Z</time>
      </trkpt>
      <trkpt lat="46.18516" lon="6.166">
        <ele>390</ele>
        <time>2019-09-04T08:42:50Z</time>
      </trkpt>
      <trkpt lat="46.18515" lon="6.16597">
        <ele>390</ele>
        <time>2019-09-04T08:42:52Z</time>
      </trkpt>
      <trkpt lat="46.18514" lon="6.16594">
        <ele>390</ele>
        <time>2019-09-04T08:42:54Z</time>
      </trkpt>
      <trkpt lat="46.18513" lon="6.1659">
        <ele>390</ele>
        <time>2019-09-04T08:42:56Z</time>
      </trkpt>
      <trkpt lat="46.18512" lon="6.16586">
        <ele>390</ele>
        <time>2019-09-04T08:42:58Z</time>
      </trkpt>
      <trkpt lat="46.18511" lon="6.16581">
        <ele>390</ele>
        <time>2019-09-04T08:43:00Z</time>
      </trkpt>
      <trkpt lat="46.1851" lon="6.16576">
        <ele>390</ele>
        <time>2019-09-04T08:43:02Z</time>
      </trkpt>
      <trkpt lat="46.1851" lon="6.16571">
        <ele>390</ele>
        <time>2019-09-04T08:43:04Z</time>
      </trkpt>
      <trkpt lat="46.18509" lon="6.16567">
        <ele>390</ele>
        <time>2019-09-04T08:43:06Z</time>
      </trkpt>
      <trkpt lat="46.18508" lon="6.16562">
        <ele>390</ele>
        <time>2019-09-04T08:43:08Z</time>
      </trkpt>
      <trkpt lat="46.18506" lon="6.16557">
        <ele>390</ele>
        <time>2019-09-04T08:43:10Z</time>
      </trkpt>
      <trkpt lat="46.18505" lon="6.16553">
        <ele>390</ele>
        <time>2019-09-04T08:43:12Z</time>
      </trkpt>
      <trkpt lat="46.18503" lon="6.16548">
        <ele>390</ele>
        <time>2019-09-04T08:43:14Z</time>
      </trkpt>
      <trkpt lat="46.18502" lon="6.16543">
        <ele>390</ele>
        <time>2019-09-04T08:43:16Z</time>
      </trkpt>
      <trkpt lat="46.185" lon="6.16539">
        <ele>390</ele>
        <time>2019-09-04T08:43:18Z</time>
      </trkpt>
      <trkpt lat="46.18498" lon="6.16534">
        <ele>390</ele>
        <time>2019-09-04T08:43:20Z</time>
      </trkpt>
      <trkpt lat="46.18497" lon="6.16529">
        <ele>389</ele>
        <time>2019-09-04T08:43:22Z</time>
      </trkpt>
      <trkpt lat="46.18495" lon="6.16525">
        <ele>389</ele>
        <time>2019-09-04T08:43:24Z</time>
      </trkpt>
      <trkpt lat="46.18494" lon="6.16519">
        <ele>389</ele>
        <time>2019-09-04T08:43:26Z</time>
      </trkpt>
      <trkpt lat="46.18492" lon="6.16514">
        <ele>389</ele>
        <time>2019-09-04T08:43:28Z</time>
      </trkpt>
      <trkpt lat="46.18491" lon="6.16509">
        <ele>389</ele>
        <time>2019-09-04T08:43:30Z</time>
      </trkpt>
      <trkpt lat="46.18489" lon="6.16504">
        <ele>389</ele>
        <time>2019-09-04T08:43:32Z</time>
      </trkpt>
      <trkpt lat="46.18488" lon="6.16499">
        <ele>389</ele>
        <time>2019-09-04T08:43:34Z</time>
      </trkpt>
      <trkpt lat="46.18486" lon="6.16495">
        <ele>389</ele>
        <time>2019-09-04T08:43:36Z</time>
      </trkpt>
      <trkpt lat="46.18485" lon="6.16491">
        <ele>389</ele>
        <time>2019-09-04T08:43:38Z</time>
      </trkpt>
      <trkpt lat="46.18484" lon="6.16487">
        <ele>389</ele>
        <time>2019-09-04T08:43:40Z</time>
      </trkpt>
      <trkpt lat="46.18482" lon="6.16484">
        <ele>389</ele>
        <time>2019-09-04T08:43:42Z</time>
      </trkpt>
      <trkpt lat="46.1848" lon="6.16481">
        <ele>389</ele>
        <time>2019-09-04T08:43:44Z</time>
      </trkpt>
      <trkpt lat="46.18477" lon="6.16477">
        <ele>389</ele>
        <time>2019-09-04T08:43:46Z</time>
      </trkpt>
      <trkpt lat="46.18475" lon="6.16473">
        <ele>389</ele>
        <time>2019-09-04T08:43:48Z</time>
      </trkpt>
      <trkpt lat="46.18473" lon="6.16468">
        <ele>389</ele>
        <time>2019-09-04T08:43:50Z</time>
      </trkpt>
      <trkpt lat="46.18472" lon="6.16462">
        <ele>390</ele>
        <time>2019-09-04T08:43:52Z</time>
      </trkpt>
      <trkpt lat="46.18471" lon="6.16456">
        <ele>390</ele>
        <time>2019-09-04T08:43:54Z</time>
      </trkpt>
      <trkpt lat="46.18472" lon="6.16451">
        <ele>390</ele>
        <time>2019-09-04T08:43:56Z</time>
      </trkpt>
      <trkpt lat="46.18473" lon="6.16445">
        <ele>390</ele>
        <time>2019-09-04T08:43:58Z</time>
      </trkpt>
      <trkpt lat="46.18473" lon="6.1644">
        <ele>390</ele>
        <time>2019-09-04T08:44:00Z</time>
      </trkpt>
      <trkpt lat="46.18473" lon="6.16436">
        <ele>389</ele>
        <time>2019-09-04T08:44:02Z</time>
      </trkpt>
      <trkpt lat="46.18473" lon="6.16431">
        <ele>389</ele>
        <time>2019-09-04T08:44:04Z</time>
      </trkpt>
      <trkpt lat="46.18473" lon="6.16427">
        <ele>389</ele>
        <time>2019-09-04T08:44:06Z</time>
      </trkpt>
      <trkpt lat="46.18474" lon="6.16422">
        <ele>389</ele>
        <time>2019-09-04T08:44:08Z</time>
      </trkpt>
      <trkpt lat="46.18474" lon="6.16416">
        <ele>389</ele>
        <time>2019-09-04T08:44:10Z</time>
      </trkpt>
      <trkpt lat="46.18475" lon="6.1641">
        <ele>389</ele>
        <time>2019-09-04T08:44:12Z</time>
      </trkpt>
      <trkpt lat="46.18475" lon="6.16406">
        <ele>389</ele>
        <time>2019-09-04T08:44:14Z</time>
      </trkpt>
      <trkpt lat="46.18475" lon="6.164">
        <ele>389</ele>
        <time>2019-09-04T08:44:16Z</time>
      </trkpt>
      <trkpt lat="46.18476" lon="6.16394">
        <ele>389</ele>
        <time>2019-09-04T08:44:18Z</time>
      </trkpt>
      <trkpt lat="46.18477" lon="6.16388">
        <ele>389</ele>
        <time>2019-09-04T08:44:20Z</time>
      </trkpt>
      <trkpt lat="46.18478" lon="6.16382">
        <ele>388</ele>
        <time>2019-09-04T08:44:22Z</time>
      </trkpt>
      <trkpt lat="46.18479" lon="6.16376">
        <ele>388</ele>
        <time>2019-09-04T08:44:24Z</time>
      </trkpt>
      <trkpt lat="46.18481" lon="6.1637">
        <ele>388</ele>
        <time>2019-09-04T08:44:26Z</time>
      </trkpt>
      <trkpt lat="46.18482" lon="6.16365">
        <ele>388</ele>
        <time>2019-09-04T08:44:28Z</time>
      </trkpt>
      <trkpt lat="46.18483" lon="6.1636">
        <ele>388</ele>
        <time>2019-09-04T08:44:30Z</time>
      </trkpt>
      <trkpt lat="46.18484" lon="6.16355">
        <ele>388</ele>
        <time>2019-09-04T08:44:32Z</time>
      </trkpt>
      <trkpt lat="46.18486" lon="6.16349">
        <ele>388</ele>
        <time>2019-09-04T08:44:34Z</time>
      </trkpt>
      <trkpt lat="46.18487" lon="6.16344">
        <ele>388</ele>
        <time>2019-09-04T08:44:36Z</time>
      </trkpt>
      <trkpt lat="46.18489" lon="6.16339">
        <ele>388</ele>
        <time>2019-09-04T08:44:38Z</time>
      </trkpt>
      <trkpt lat="46.1849" lon="6.16333">
        <ele>388</ele>
        <time>2019-09-04T08:44:40Z</time>
      </trkpt>
      <trkpt lat="46.18492" lon="6.16329">
        <ele>388</ele>
        <time>2019-09-04T08:44:42Z</time>
      </trkpt>
      <trkpt lat="46.18494" lon="6.16325">
        <ele>388</ele>
        <time>2019-09-04T08:44:44Z</time>
      </trkpt>
      <trkpt lat="46.18497" lon="6.16321">
        <ele>388</ele>
        <time>2019-09-04T08:44:46Z</time>
      </trkpt>
      <trkpt lat="46.18499" lon="6.16317">
        <ele>388</ele>
        <time>2019-09-04T08:44:48Z</time>
      </trkpt>
      <trkpt lat="46.18502" lon="6.16314">
        <ele>388</ele>
        <time>2019-09-04T08:44:50Z</time>
      </trkpt>
      <trkpt lat="46.18506" lon="6.16312">
        <ele>387</ele>
        <time>2019-09-04T08:44:52Z</time>
      </trkpt>
      <trkpt lat="46.18509" lon="6.16312">
        <ele>387</ele>
        <time>2019-09-04T08:44:54Z</time>
      </trkpt>
      <trkpt lat="46.18513" lon="6.16312">
        <ele>387</ele>
        <time>2019-09-04T08:44:56Z</time>
      </trkpt>
      <trkpt lat="46.18516" lon="6.16313">
        <ele>386</ele>
        <time>2019-09-04T08:44:58Z</time>
      </trkpt>
      <trkpt lat="46.1852" lon="6.16315">
        <ele>386</ele>
        <time>2019-09-04T08:45:00Z</time>
      </trkpt>
      <trkpt lat="46.18523" lon="6.16317">
        <ele>386</ele>
        <time>2019-09-04T08:45:02Z</time>
      </trkpt>
      <trkpt lat="46.18525" lon="6.16319">
        <ele>386</ele>
        <time>2019-09-04T08:45:04Z</time>
      </trkpt>
      <trkpt lat="46.18528" lon="6.16321">
        <ele>386</ele>
        <time>2019-09-04T08:45:06Z</time>
      </trkpt>
      <trkpt lat="46.18531" lon="6.16322">
        <ele>386</ele>
        <time>2019-09-04T08:45:08Z</time>
      </trkpt>
      <trkpt lat="46.18534" lon="6.16322">
        <ele>386</ele>
        <time>2019-09-04T08:45:10Z</time>
      </trkpt>
      <trkpt lat="46.18537" lon="6.16322">
        <ele>386</ele>
        <time>2019-09-04T08:45:12Z</time>
      </trkpt>
      <trkpt lat="46.18539" lon="6.16321">
        <ele>386</ele>
        <time>2019-09-04T08:45:14Z</time>
      </trkpt>
      <trkpt lat="46.18541" lon="6.1632">
        <ele>386</ele>
        <time>2019-09-04T08:45:16Z</time>
      </trkpt>
      <trkpt lat="46.18544" lon="6.16319">
        <ele>385</ele>
        <time>2019-09-04T08:45:18Z</time>
      </trkpt>
      <trkpt lat="46.18547" lon="6.16318">
        <ele>385</ele>
        <time>2019-09-04T08:45:20Z</time>
      </trkpt>
      <trkpt lat="46.1855" lon="6.16317">
        <ele>385</ele>
        <time>2019-09-04T08:45:22Z</time>
      </trkpt>
      <trkpt lat="46.18553" lon="6.16315">
        <ele>385</ele>
        <time>2019-09-04T08:45:24Z</time>
      </trkpt>
      <trkpt lat="46.18556" lon="6.16314">
        <ele>385</ele>
        <time>2019-09-04T08:45:26Z</time>
      </trkpt>
      <trkpt lat="46.1856" lon="6.16312">
        <ele>385</ele>
        <time>2019-09-04T08:45:28Z</time>
      </trkpt>
      <trkpt lat="46.18562" lon="6.16311">
        <ele>385</ele>
        <time>2019-09-04T08:45:30Z</time>
      </trkpt>
      <trkpt lat="46.18565" lon="6.1631">
        <ele>385</ele>
        <time>2019-09-04T08:45:32Z</time>
      </trkpt>
      <trkpt lat="46.18567" lon="6.16309">
        <ele>385</ele>
        <time>2019-09-04T08:45:34Z</time>
      </trkpt>
      <trkpt lat="46.1857" lon="6.16307">
        <ele>385</ele>
        <time>2019-09-04T08:45:36Z</time>
      </trkpt>
      <trkpt lat="46.18573" lon="6.16305">
        <ele>385</ele>
        <time>2019-09-04T08:45:38Z</time>
      </trkpt>
      <trkpt lat="46.18577" lon="6.16303">
        <ele>385</ele>
        <time>2019-09-04T08:45:40Z</time>
      </trkpt>
      <trkpt lat="46.1858" lon="6.16302">
        <ele>385</ele>
        <time>2019-09-04T08:45:42Z</time>
      </trkpt>
      <trkpt lat="46.18583" lon="6.163">
        <ele>385</ele>
        <time>2019-09-04T08:45:44Z</time>
      </trkpt>
      <trkpt lat="46.18586" lon="6.16299">
        <ele>385</ele>
        <time>2019-09-04T08:45:46Z</time>
      </trkpt>
      <trkpt lat="46.18589" lon="6.16297">
        <ele>385</ele>
        <time>2019-09-04T08:45:48Z</time>
      </trkpt>
      <trkpt lat="46.18593" lon="6.16296">
        <ele>385</ele>
        <time>2019-09-04T08:45:50Z</time>
      </trkpt>
      <trkpt lat="46.18597" lon="6.16295">
        <ele>385</ele>
        <time>2019-09-04T08:45:52Z</time>
      </trkpt>
      <trkpt lat="46.18601" lon="6.16293">
        <ele>385</ele>
        <time>2019-09-04T08:45:54Z</time>
      </trkpt>
      <trkpt lat="46.18605" lon="6.16292">
        <ele>385</ele>
        <time>2019-09-04T08:45:56Z</time>
      </trkpt>
      <trkpt lat="46.18609" lon="6.16292">
        <ele>385</ele>
        <time>2019-09-04T08:45:58Z</time>
      </trkpt>
      <trkpt lat="46.18613" lon="6.16292">
        <ele>385</ele>
        <time>2019-09-04T08:46:00Z</time>
      </trkpt>
      <trkpt lat="46.18618" lon="6.16291">
        <ele>385</ele>
        <time>2019-09-04T08:46:02Z</time>
      </trkpt>
      <trkpt lat="46.18622" lon="6.1629">
        <ele>385</ele>
        <time>2019-09-04T08:46:04Z</time>
      </trkpt>
      <trkpt lat="46.18625" lon="6.16289">
        <ele>385</ele>
        <time>2019-09-04T08:46:06Z</time>
      </trkpt>
      <trkpt lat="46.18629" lon="6.16288">
        <ele>384</ele>
        <time>2019-09-04T08:46:08Z</time>
      </trkpt>
      <trkpt lat="46.18633" lon="6.16288">
        <ele>384</ele>
        <time>2019-09-04T08:46:10Z</time>
      </trkpt>
      <trkpt lat="46.18636" lon="6.16288">
        <ele>384</ele>
        <time>2019-09-04T08:46:12Z</time>
      </trkpt>
      <trkpt lat="46.18639" lon="6.16289">
        <ele>384</ele>
        <time>2019-09-04T08:46:14Z</time>
      </trkpt>
      <trkpt lat="46.18642" lon="6.1629">
        <ele>385</ele>
        <time>2019-09-04T08:46:16Z</time>
      </trkpt>
      <trkpt lat="46.18645" lon="6.16291">
        <ele>385</ele>
        <time>2019-09-04T08:46:18Z</time>
      </trkpt>
      <trkpt lat="46.18648" lon="6.16293">
        <ele>385</ele>
        <time>2019-09-04T08:46:20Z</time>
      </trkpt>
      <trkpt lat="46.18652" lon="6.16296">
        <ele>384</ele>
        <time>2019-09-04T08:46:22Z</time>
      </trkpt>
      <trkpt lat="46.18655" lon="6.16299">
        <ele>384</ele>
        <time>2019-09-04T08:46:24Z</time>
      </trkpt>
      <trkpt lat="46.18659" lon="6.16301">
        <ele>384</ele>
        <time>2019-09-04T08:46:26Z</time>
      </trkpt>
      <trkpt lat="46.18663" lon="6.16302">
        <ele>384</ele>
        <time>2019-09-04T08:46:28Z</time>
      </trkpt>
      <trkpt lat="46.18666" lon="6.16303">
        <ele>384</ele>
        <time>2019-09-04T08:46:30Z</time>
      </trkpt>
      <trkpt lat="46.18669" lon="6.16303">
        <ele>384</ele>
        <time>2019-09-04T08:46:32Z</time>
      </trkpt>
      <trkpt lat="46.18672" lon="6.16304">
        <ele>384</ele>
        <time>2019-09-04T08:46:34Z</time>
      </trkpt>
      <trkpt lat="46.18675" lon="6.16306">
        <ele>384</ele>
        <time>2019-09-04T08:46:36Z</time>
      </trkpt>
      <trkpt lat="46.18678" lon="6.16306">
        <ele>384</ele>
        <time>2019-09-04T08:46:38Z</time>
      </trkpt>
      <trkpt lat="46.1868" lon="6.16307">
        <ele>384</ele>
        <time>2019-09-04T08:46:40Z</time>
      </trkpt>
      <trkpt lat="46.18683" lon="6.16308">
        <ele>384</ele>
        <time>2019-09-04T08:46:42Z</time>
      </trkpt>
      <trkpt lat="46.18686" lon="6.1631">
        <ele>384</ele>
        <time>2019-09-04T08:46:44Z</time>
      </trkpt>
      <trkpt lat="46.18689" lon="6.16312">
        <ele>384</ele>
        <time>2019-09-04T08:46:46Z</time>
      </trkpt>
      <trkpt lat="46.18691" lon="6.16315">
        <ele>384</ele>
        <time>2019-09-04T08:46:48Z</time>
      </trkpt>
      <trkpt lat="46.18694" lon="6.16318">
        <ele>384</ele>
        <time>2019-09-04T08:46:50Z</time>
      </trkpt>
      <trkpt lat="46.18696" lon="6.1632">
        <ele>384</ele>
        <time>2019-09-04T08:46:52Z</time>
      </trkpt>
      <trkpt lat="46.18697" lon="6.16323">
        <ele>384</ele>
        <time>2019-09-04T08:46:54Z</time>
      </trkpt>
      <trkpt lat="46.18699" lon="6.16326">
        <ele>384</ele>
        <time>2019-09-04T08:46:56Z</time>
      </trkpt>
      <trkpt lat="46.18702" lon="6.16329">
        <ele>384</ele>
        <time>2019-09-04T08:46:58Z</time>
      </trkpt>
      <trkpt lat="46.18704" lon="6.16331">
        <ele>384</ele>
        <time>2019-09-04T08:47:00Z</time>
      </trkpt>
      <trkpt lat="46.18707" lon="6.16334">
        <ele>384</ele>
        <time>2019-09-04T08:47:02Z</time>
      </trkpt>
      <trkpt lat="46.1871" lon="6.16336">
        <ele>384</ele>
        <time>2019-09-04T08:47:04Z</time>
      </trkpt>
      <trkpt lat="46.18713" lon="6.16338">
        <ele>385</ele>
        <time>2019-09-04T08:47:06Z</time>
      </trkpt>
      <trkpt lat="46.18716" lon="6.16341">
        <ele>385</ele>
        <time>2019-09-04T08:47:08Z</time>
      </trkpt>
      <trkpt lat="46.18719" lon="6.16343">
        <ele>385</ele>
        <time>2019-09-04T08:47:10Z</time>
      </trkpt>
      <trkpt lat="46.18722" lon="6.16345">
        <ele>385</ele>
        <time>2019-09-04T08:47:12Z</time>
      </trkpt>
      <trkpt lat="46.18726" lon="6.16347">
        <ele>385</ele>
        <time>2019-09-04T08:47:14Z</time>
      </trkpt>
      <trkpt lat="46.18729" lon="6.16349">
        <ele>385</ele>
        <time>2019-09-04T08:47:16Z</time>
      </trkpt>
      <trkpt lat="46.18732" lon="6.16351">
        <ele>385</ele>
        <time>2019-09-04T08:47:18Z</time>
      </trkpt>
      <trkpt lat="46.18736" lon="6.16353">
        <ele>385</ele>
        <time>2019-09-04T08:47:20Z</time>
      </trkpt>
      <trkpt lat="46.18739" lon="6.16356">
        <ele>385</ele>
        <time>2019-09-04T08:47:22Z</time>
      </trkpt>
      <trkpt lat="46.18742" lon="6.16361">
        <ele>385</ele>
        <time>2019-09-04T08:47:24Z</time>
      </trkpt>
      <trkpt lat="46.18744" lon="6.16365">
        <ele>385</ele>
        <time>2019-09-04T08:47:26Z</time>
      </trkpt>
      <trkpt lat="46.18745" lon="6.1637">
        <ele>385</ele>
        <time>2019-09-04T08:47:28Z</time>
      </trkpt>
      <trkpt lat="46.18746" lon="6.16374">
        <ele>385</ele>
        <time>2019-09-04T08:47:30Z</time>
      </trkpt>
      <trkpt lat="46.18747" lon="6.16379">
        <ele>385</ele>
        <time>2019-09-04T08:47:32Z</time>
      </trkpt>
      <trkpt lat="46.18749" lon="6.16384">
        <ele>385</ele>
        <time>2019-09-04T08:47:34Z</time>
      </trkpt>
      <trkpt lat="46.1875" lon="6.16389">
        <ele>385</ele>
        <time>2019-09-04T08:47:36Z</time>
      </trkpt>
      <trkpt lat="46.18751" lon="6.16394">
        <ele>385</ele>
        <time>2019-09-04T08:47:38Z</time>
      </trkpt>
      <trkpt lat="46.18752" lon="6.16398">
        <ele>385</ele>
        <time>2019-09-04T08:47:40Z</time>
      </trkpt>
      <trkpt lat="46.18754" lon="6.16403">
        <ele>385</ele>
        <time>2019-09-04T08:47:42Z</time>
      </trkpt>
      <trkpt lat="46.18756" lon="6.16408">
        <ele>385</ele>
        <time>2019-09-04T08:47:44Z</time>
      </trkpt>
      <trkpt lat="46.18758" lon="6.16412">
        <ele>385</ele>
        <time>2019-09-04T08:47:46Z</time>
      </trkpt>
      <trkpt lat="46.1876" lon="6.16416">
        <ele>385</ele>
        <time>2019-09-04T08:47:48Z</time>
      </trkpt>
      <trkpt lat="46.18762" lon="6.16421">
        <ele>385</ele>
        <time>2019-09-04T08:47:50Z</time>
      </trkpt>
      <trkpt lat="46.18765" lon="6.16426">
        <ele>385</ele>
        <time>2019-09-04T08:47:52Z</time>
      </trkpt>
      <trkpt lat="46.18768" lon="6.16432">
        <ele>385</ele>
        <time>2019-09-04T08:47:54Z</time>
      </trkpt>
      <trkpt lat="46.1877" lon="6.16438">
        <ele>385</ele>
        <time>2019-09-04T08:47:56Z</time>
      </trkpt>
      <trkpt lat="46.18771" lon="6.16443">
        <ele>385</ele>
        <time>2019-09-04T08:47:58Z</time>
      </trkpt>
      <trkpt lat="46.18772" lon="6.16448">
        <ele>385</ele>
        <time>2019-09-04T08:48:00Z</time>
      </trkpt>
      <trkpt lat="46.18772" lon="6.16453">
        <ele>385</ele>
        <time>2019-09-04T08:48:02Z</time>
      </trkpt>
      <trkpt lat="46.18772" lon="6.16457">
        <ele>385</ele>
        <time>2019-09-04T08:48:04Z</time>
      </trkpt>
      <trkpt lat="46.18773" lon="6.16461">
        <ele>385</ele>
        <time>2019-09-04T08:48:06Z</time>
      </trkpt>
      <trkpt lat="46.18774" lon="6.16467">
        <ele>385</ele>
        <time>2019-09-04T08:48:08Z</time>
      </trkpt>
      <trkpt lat="46.18776" lon="6.16473">
        <ele>385</ele>
        <time>2019-09-04T08:48:10Z</time>
      </trkpt>
      <trkpt lat="46.18777" lon="6.16479">
        <ele>385</ele>
        <time>2019-09-04T08:48:12Z</time>
      </trkpt>
      <trkpt lat="46.18778" lon="6.16485">
        <ele>385</ele>
        <time>2019-09-04T08:48:14Z</time>
      </trkpt>
      <trkpt lat="46.1878" lon="6.1649">
        <ele>385</ele>
        <time>2019-09-04T08:48:16Z</time>
      </trkpt>
      <trkpt lat="46.18781" lon="6.16496">
        <ele>385</ele>
        <time>2019-09-04T08:48:18Z</time>
      </trkpt>
      <trkpt lat="46.18782" lon="6.16501">
        <ele>385</ele>
        <time>2019-09-04T08:48:20Z</time>
      </trkpt>
      <trkpt lat="46.18784" lon="6.16505">
        <ele>385</ele>
        <time>2019-09-04T08:48:22Z</time>
      </trkpt>
      <trkpt lat="46.18785" lon="6.1651">
        <ele>385</ele>
        <time>2019-09-04T08:48:24Z</time>
      </trkpt>
      <trkpt lat="46.18785" lon="6.16515">
        <ele>385</ele>
        <time>2019-09-04T08:48:26Z</time>
      </trkpt>
      <trkpt lat="46.18785" lon="6.1652">
        <ele>385</ele>
        <time>2019-09-04T08:48:28Z</time>
      </trkpt>
      <trkpt lat="46.18786" lon="6.16525">
        <ele>385</ele>
        <time>2019-09-04T08:48:30Z</time>
      </trkpt>
      <trkpt lat="46.18786" lon="6.16529">
        <ele>385</ele>
        <time>2019-09-04T08:48:32Z</time>
      </trkpt>
      <trkpt lat="46.18786" lon="6.16534">
        <ele>385</ele>
        <time>2019-09-04T08:48:34Z</time>
      </trkpt>
      <trkpt lat="46.18786" lon="6.16538">
        <ele>385</ele>
        <time>2019-09-04T08:48:36Z</time>
      </trkpt>
      <trkpt lat="46.18785" lon="6.16542">
        <ele>385</ele>
        <time>2019-09-04T08:48:38Z</time>
      </trkpt>
      <trkpt lat="46.18783" lon="6.16546">
        <ele>385</ele>
        <time>2019-09-04T08:48:40Z</time>
      </trkpt>
      <trkpt lat="46.18781" lon="6.16551">
        <ele>385</ele>
        <time>2019-09-04T08:48:42Z</time>
      </trkpt>
      <trkpt lat="46.18779" lon="6.16556">
        <ele>385</ele>
        <time>2019-09-04T08:48:44Z</time>
      </trkpt>
      <trkpt lat="46.18778" lon="6.16561">
        <ele>385</ele>
        <time>2019-09-04T08:48:46Z</time>
      </trkpt>
      <trkpt lat="46.18777" lon="6.16565">
        <ele>385</ele>
        <time>2019-09-04T08:48:48Z</time>
      </trkpt>
      <trkpt lat="46.18776" lon="6.16569">
        <ele>385</ele>
        <time>2019-09-04T08:48:50Z</time>
      </trkpt>
      <trkpt lat="46.18774" lon="6.16573">
        <ele>385</ele>
        <time>2019-09-04T08:48:52Z</time>
      </trkpt>
      <trkpt lat="46.18772" lon="6.16578">
        <ele>385</ele>
        <time>2019-09-04T08:48:54Z</time>
      </trkpt>
      <trkpt lat="46.1877" lon="6.16582">
        <ele>385</ele>
        <time>2019-09-04T08:48:56Z</time>
      </trkpt>
      <trkpt lat="46.18767" lon="6.16587">
        <ele>385</ele>
        <time>2019-09-04T08:48:58Z</time>
      </trkpt>
      <trkpt lat="46.18765" lon="6.16592">
        <ele>385</ele>
        <time>2019-09-04T08:49:00Z</time>
      </trkpt>
      <trkpt lat="46.18764" lon="6.16598">
        <ele>385</ele>
        <time>2019-09-04T08:49:02Z</time>
      </trkpt>
      <trkpt lat="46.18762" lon="6.16603">
        <ele>385</ele>
        <time>2019-09-04T08:49:04Z</time>
      </trkpt>
      <trkpt lat="46.1876" lon="6.16607">
        <ele>385</ele>
        <time>2019-09-04T08:49:06Z</time>
      </trkpt>
      <trkpt lat="46.18758" lon="6.16611">
        <ele>385</ele>
        <time>2019-09-04T08:49:08Z</time>
      </trkpt>
      <trkpt lat="46.18756" lon="6.16616">
        <ele>385</ele>
        <time>2019-09-04T08:49:10Z</time>
      </trkpt>
      <trkpt lat="46.18755" lon="6.16621">
        <ele>385</ele>
        <time>2019-09-04T08:49:12Z</time>
      </trkpt>
      <trkpt lat="46.18753" lon="6.16626">
        <ele>385</ele>
        <time>2019-09-04T08:49:14Z</time>
      </trkpt>
      <trkpt lat="46.18751" lon="6.1663">
        <ele>385</ele>
        <time>2019-09-04T08:49:16Z</time>
      </trkpt>
      <trkpt lat="46.1875" lon="6.16635">
        <ele>385</ele>
        <time>2019-09-04T08:49:18Z</time>
      </trkpt>
      <trkpt lat="46.18747" lon="6.16639">
        <ele>385</ele>
        <time>2019-09-04T08:49:20Z</time>
      </trkpt>
      <trkpt lat="46.18745" lon="6.16644">
        <ele>385</ele>
        <time>2019-09-04T08:49:22Z</time>
      </trkpt>
      <trkpt lat="46.18743" lon="6.1665">
        <ele>385</ele>
        <time>2019-09-04T08:49:24Z</time>
      </trkpt>
      <trkpt lat="46.18742" lon="6.16655">
        <ele>385</ele>
        <time>2019-09-04T08:49:26Z</time>
      </trkpt>
      <trkpt lat="46.1874" lon="6.1666">
        <ele>385</ele>
        <time>2019-09-04T08:49:28Z</time>
      </trkpt>
      <trkpt lat="46.18739" lon="6.16664">
        <ele>385</ele>
        <time>2019-09-04T08:49:30Z</time>
      </trkpt>
      <trkpt lat="46.18737" lon="6.16668">
        <ele>385</ele>
        <time>2019-09-04T08:49:32Z</time>
      </trkpt>
      <trkpt lat="46.18735" lon="6.16672">
        <ele>385</ele>
        <time>2019-09-04T08:49:34Z</time>
      </trkpt>
      <trkpt lat="46.18733" lon="6.16676">
        <ele>385</ele>
        <time>2019-09-04T08:49:36Z</time>
      </trkpt>
      <trkpt lat="46.18731" lon="6.16681">
        <ele>385</ele>
        <time>2019-09-04T08:49:38Z</time>
      </trkpt>
      <trkpt lat="46.18729" lon="6.16686">
        <ele>385</ele>
        <time>2019-09-04T08:49:40Z</time>
      </trkpt>
      <trkpt lat="46.18727" lon="6.1669">
        <ele>385</ele>
        <time>2019-09-04T08:49:42Z</time>
      </trkpt>
      <trkpt lat="46.18725" lon="6.16695">
        <ele>385</ele>
        <time>2019-09-04T08:49:44Z</time>
      </trkpt>
      <trkpt lat="46.18722" lon="6.16699">
        <ele>385</ele>
        <time>2019-09-04T08:49:46Z</time>
      </trkpt>
      <trkpt lat="46.1872" lon="6.16703">
        <ele>385</ele>
        <time>2019-09-04T08:49:48Z</time>
      </trkpt>
      <trkpt lat="46.18719" lon="6.16708">
        <ele>385</ele>
        <time>2019-09-04T08:49:50Z</time>
      </trkpt>
      <trkpt lat="46.18717" lon="6.16713">
        <ele>385</ele>
        <time>2019-09-04T08:49:52Z</time>
      </trkpt>
      <trkpt lat="46.18715" lon="6.16717">
        <ele>385</ele>
        <time>2019-09-04T08:49:54Z</time>
      </trkpt>
      <trkpt lat="46.18713" lon="6.16722">
        <ele>385</ele>
        <time>2019-09-04T08:49:56Z</time>
      </trkpt>
      <trkpt lat="46.18711" lon="6.16726">
        <ele>385</ele>
        <time>2019-09-04T08:49:58Z</time>
      </trkpt>
      <trkpt lat="46.18709" lon="6.1673">
        <ele>385</ele>
        <time>2019-09-04T08:50:00Z</time>
      </trkpt>
      <trkpt lat="46.18707" lon="6.16735">
        <ele>385</ele>
        <time>2019-09-04T08:50:02Z</time>
      </trkpt>
      <trkpt lat="46.18704" lon="6.16739">
        <ele>385</ele>
        <time>2019-09-04T08:50:04Z</time>
      </trkpt>
      <trkpt lat="46.18701" lon="6.16742">
        <ele>385</ele>
        <time>2019-09-04T08:50:06Z</time>
      </trkpt>
      <trkpt lat="46.18699" lon="6.16745">
        <ele>385</ele>
        <time>2019-09-04T08:50:08Z</time>
      </trkpt>
      <trkpt lat="46.18696" lon="6.16749">
        <ele>385</ele>
        <time>2019-09-04T08:50:10Z</time>
      </trkpt>
      <trkpt lat="46.18694" lon="6.16752">
        <ele>385</ele>
        <time>2019-09-04T08:50:12Z</time>
      </trkpt>
      <trkpt lat="46.18691" lon="6.16756">
        <ele>385</ele>
        <time>2019-09-04T08:50:14Z</time>
      </trkpt>
      <trkpt lat="46.18689" lon="6.16759">
        <ele>386</ele>
        <time>2019-09-04T08:50:16Z</time>
      </trkpt>
      <trkpt lat="46.18686" lon="6.16762">
        <ele>386</ele>
        <time>2019-09-04T08:50:18Z</time>
      </trkpt>
      <trkpt lat="46.18684" lon="6.16765">
        <ele>386</ele>
        <time>2019-09-04T08:50:20Z</time>
      </trkpt>
      <trkpt lat="46.18681" lon="6.16768">
        <ele>386</ele>
        <time>2019-09-04T08:50:22Z</time>
      </trkpt>
      <trkpt lat="46.18678" lon="6.16771">
        <ele>386</ele>
        <time>2019-09-04T08:50:24Z</time>
      </trkpt>
      <trkpt lat="46.18675" lon="6.16773">
        <ele>386</ele>
        <time>2019-09-04T08:50:26Z</time>
      </trkpt>
      <trkpt lat="46.18673" lon="6.16775">
        <ele>386</ele>
        <time>2019-09-04T08:50:28Z</time>
      </trkpt>
      <trkpt lat="46.1867" lon="6.16778">
        <ele>386</ele>
        <time>2019-09-04T08:50:30Z</time>
      </trkpt>
      <trkpt lat="46.18668" lon="6.16781">
        <ele>386</ele>
        <time>2019-09-04T08:50:32Z</time>
      </trkpt>
      <trkpt lat="46.18666" lon="6.16785">
        <ele>386</ele>
        <time>2019-09-04T08:50:34Z</time>
      </trkpt>
      <trkpt lat="46.18663" lon="6.16788">
        <ele>387</ele>
        <time>2019-09-04T08:50:36Z</time>
      </trkpt>
      <trkpt lat="46.18661" lon="6.16792">
        <ele>387</ele>
        <time>2019-09-04T08:50:38Z</time>
      </trkpt>
      <trkpt lat="46.18659" lon="6.16796">
        <ele>387</ele>
        <time>2019-09-04T08:50:40Z</time>
      </trkpt>
      <trkpt lat="46.18657" lon="6.16799">
        <ele>387</ele>
        <time>2019-09-04T08:50:42Z</time>
      </trkpt>
      <trkpt lat="46.18655" lon="6.16803">
        <ele>387</ele>
        <time>2019-09-04T08:50:44Z</time>
      </trkpt>
      <trkpt lat="46.18653" lon="6.16807">
        <ele>387</ele>
        <time>2019-09-04T08:50:46Z</time>
      </trkpt>
      <trkpt lat="46.1865" lon="6.1681">
        <ele>387</ele>
        <time>2019-09-04T08:50:48Z</time>
      </trkpt>
      <trkpt lat="46.18648" lon="6.16814">
        <ele>387</ele>
        <time>2019-09-04T08:50:50Z</time>
      </trkpt>
      <trkpt lat="46.18646" lon="6.16818">
        <ele>387</ele>
        <time>2019-09-04T08:50:52Z</time>
      </trkpt>
      <trkpt lat="46.18643" lon="6.16822">
        <ele>387</ele>
        <time>2019-09-04T08:50:54Z</time>
      </trkpt>
      <trkpt lat="46.18641" lon="6.16826">
        <ele>387</ele>
        <time>2019-09-04T08:50:56Z</time>
      </trkpt>
      <trkpt lat="46.18637" lon="6.16829">
        <ele>387</ele>
        <time>2019-09-04T08:50:58Z</time>
      </trkpt>
      <trkpt lat="46.18634" lon="6.16832">
        <ele>387</ele>
        <time>2019-09-04T08:51:00Z</time>
      </trkpt>
      <trkpt lat="46.18631" lon="6.16834">
        <ele>387</ele>
        <time>2019-09-04T08:51:02Z</time>
      </trkpt>
      <trkpt lat="46.18628" lon="6.16837">
        <ele>387</ele>
        <time>2019-09-04T08:51:04Z</time>
      </trkpt>
      <trkpt lat="46.18625" lon="6.16839">
        <ele>387</ele>
        <time>2019-09-04T08:51:06Z</time>
      </trkpt>
      <trkpt lat="46.18622" lon="6.16842">
        <ele>387</ele>
        <time>2019-09-04T08:51:08Z</time>
      </trkpt>
      <trkpt lat="46.18619" lon="6.16844">
        <ele>387</ele>
        <time>2019-09-04T08:51:10Z</time>
      </trkpt>
      <trkpt lat="46.18615" lon="6.16846">
        <ele>387</ele>
        <time>2019-09-04T08:51:12Z</time>
      </trkpt>
      <trkpt lat="46.18612" lon="6.16848">
        <ele>387</ele>
        <time>2019-09-04T08:51:14Z</time>
      </trkpt>
      <trkpt lat="46.18608" lon="6.16852">
        <ele>387</ele>
        <time>2019-09-04T08:51:17Z</time>
      </trkpt>
      <trkpt lat="46.18605" lon="6.16855">
        <ele>387</ele>
        <time>2019-09-04T08:51:19Z</time>
      </trkpt>
      <trkpt lat="46.18602" lon="6.16856">
        <ele>387</ele>
        <time>2019-09-04T08:51:21Z</time>
      </trkpt>
      <trkpt lat="46.18599" lon="6.16858">
        <ele>387</ele>
        <time>2019-09-04T08:51:23Z</time>
      </trkpt>
      <trkpt lat="46.18596" lon="6.16861">
        <ele>387</ele>
        <time>2019-09-04T08:51:25Z</time>
      </trkpt>
      <trkpt lat="46.18593" lon="6.16865">
        <ele>387</ele>
        <time>2019-09-04T08:51:27Z</time>
      </trkpt>
      <trkpt lat="46.1859" lon="6.16869">
        <ele>387</ele>
        <time>2019-09-04T08:51:29Z</time>
      </trkpt>
      <trkpt lat="46.18588" lon="6.16873">
        <ele>387</ele>
        <time>2019-09-04T08:51:31Z</time>
      </trkpt>
      <trkpt lat="46.18585" lon="6.16876">
        <ele>387</ele>
        <time>2019-09-04T08:51:33Z</time>
      </trkpt>
      <trkpt lat="46.18583" lon="6.16879">
        <ele>387</ele>
        <time>2019-09-04T08:51:35Z</time>
      </trkpt>
      <trkpt lat="46.1858" lon="6.16882">
        <ele>388</ele>
        <time>2019-09-04T08:51:37Z</time>
      </trkpt>
      <trkpt lat="46.18577" lon="6.16885">
        <ele>388</ele>
        <time>2019-09-04T08:51:39Z</time>
      </trkpt>
      <trkpt lat="46.18574" lon="6.16888">
        <ele>388</ele>
        <time>2019-09-04T08:51:41Z</time>
      </trkpt>
      <trkpt lat="46.18571" lon="6.1689">
        <ele>388</ele>
        <time>2019-09-04T08:51:43Z</time>
      </trkpt>
      <trkpt lat="46.18568" lon="6.16893">
        <ele>388</ele>
        <time>2019-09-04T08:51:45Z</time>
      </trkpt>
      <trkpt lat="46.18565" lon="6.16895">
        <ele>388</ele>
        <time>2019-09-04T08:51:47Z</time>
      </trkpt>
      <trkpt lat="46.18562" lon="6.16898">
        <ele>388</ele>
        <time>2019-09-04T08:51:49Z</time>
      </trkpt>
      <trkpt lat="46.18559" lon="6.169">
        <ele>388</ele>
        <time>2019-09-04T08:51:51Z</time>
      </trkpt>
      <trkpt lat="46.18556" lon="6.16903">
        <ele>388</ele>
        <time>2019-09-04T08:51:53Z</time>
      </trkpt>
      <trkpt lat="46.18553" lon="6.16904">
        <ele>388</ele>
        <time>2019-09-04T08:51:55Z</time>
      </trkpt>
      <trkpt lat="46.18551" lon="6.16906">
        <ele>388</ele>
        <time>2019-09-04T08:51:57Z</time>
      </trkpt>
      <trkpt lat="46.18548" lon="6.16907">
        <ele>388</ele>
        <time>2019-09-04T08:51:59Z</time>
      </trkpt>
      <trkpt lat="46.18545" lon="6.16908">
        <ele>388</ele>
        <time>2019-09-04T08:52:01Z</time>
      </trkpt>
      <trkpt lat="46.18542" lon="6.1691">
        <ele>388</ele>
        <time>2019-09-04T08:52:03Z</time>
      </trkpt>
      <trkpt lat="46.18539" lon="6.16912">
        <ele>388</ele>
        <time>2019-09-04T08:52:05Z</time>
      </trkpt>
      <trkpt lat="46.18536" lon="6.16913">
        <ele>388</ele>
        <time>2019-09-04T08:52:07Z</time>
      </trkpt>
      <trkpt lat="46.18532" lon="6.16915">
        <ele>388</ele>
        <time>2019-09-04T08:52:09Z</time>
      </trkpt>
      <trkpt lat="46.18529" lon="6.16916">
        <ele>388</ele>
        <time>2019-09-04T08:52:11Z</time>
      </trkpt>
      <trkpt lat="46.18525" lon="6.16918">
        <ele>388</ele>
        <time>2019-09-04T08:52:13Z</time>
      </trkpt>
      <trkpt lat="46.18521" lon="6.1692">
        <ele>388</ele>
        <time>2019-09-04T08:52:15Z</time>
      </trkpt>
      <trkpt lat="46.18517" lon="6.16922">
        <ele>388</ele>
        <time>2019-09-04T08:52:17Z</time>
      </trkpt>
      <trkpt lat="46.18514" lon="6.16923">
        <ele>388</ele>
        <time>2019-09-04T08:52:19Z</time>
      </trkpt>
      <trkpt lat="46.18512" lon="6.16925">
        <ele>389</ele>
        <time>2019-09-04T08:52:21Z</time>
      </trkpt>
      <trkpt lat="46.1851" lon="6.16927">
        <ele>389</ele>
        <time>2019-09-04T08:52:23Z</time>
      </trkpt>
      <trkpt lat="46.18508" lon="6.16928">
        <ele>389</ele>
        <time>2019-09-04T08:52:25Z</time>
      </trkpt>
      <trkpt lat="46.18505" lon="6.1693">
        <ele>389</ele>
        <time>2019-09-04T08:52:27Z</time>
      </trkpt>
      <trkpt lat="46.18503" lon="6.1693">
        <ele>389</ele>
        <time>2019-09-04T08:52:29Z</time>
      </trkpt>
      <trkpt lat="46.18499" lon="6.16931">
        <ele>389</ele>
        <time>2019-09-04T08:52:31Z</time>
      </trkpt>
      <trkpt lat="46.18496" lon="6.16932">
        <ele>389</ele>
        <time>2019-09-04T08:52:33Z</time>
      </trkpt>
      <trkpt lat="46.18492" lon="6.16933">
        <ele>389</ele>
        <time>2019-09-04T08:52:35Z</time>
      </trkpt>
      <trkpt lat="46.18489" lon="6.16935">
        <ele>389</ele>
        <time>2019-09-04T08:52:37Z</time>
      </trkpt>
      <trkpt lat="46.18485" lon="6.16937">
        <ele>389</ele>
        <time>2019-09-04T08:52:39Z</time>
      </trkpt>
      <trkpt lat="46.18482" lon="6.16939">
        <ele>389</ele>
        <time>2019-09-04T08:52:41Z</time>
      </trkpt>
      <trkpt lat="46.18478" lon="6.16941">
        <ele>389</ele>
        <time>2019-09-04T08:52:43Z</time>
      </trkpt>
      <trkpt lat="46.18475" lon="6.16942">
        <ele>389</ele>
        <time>2019-09-04T08:52:45Z</time>
      </trkpt>
      <trkpt lat="46.18473" lon="6.16944">
        <ele>389</ele>
        <time>2019-09-04T08:52:47Z</time>
      </trkpt>
      <trkpt lat="46.1847" lon="6.16945">
        <ele>389</ele>
        <time>2019-09-04T08:52:49Z</time>
      </trkpt>
      <trkpt lat="46.18467" lon="6.16945">
        <ele>389</ele>
        <time>2019-09-04T08:52:51Z</time>
      </trkpt>
      <trkpt lat="46.18464" lon="6.16947">
        <ele>389</ele>
        <time>2019-09-04T08:52:53Z</time>
      </trkpt>
      <trkpt lat="46.18461" lon="6.16948">
        <ele>389</ele>
        <time>2019-09-04T08:52:55Z</time>
      </trkpt>
      <trkpt lat="46.18458" lon="6.1695">
        <ele>390</ele>
        <time>2019-09-04T08:52:57Z</time>
      </trkpt>
      <trkpt lat="46.18455" lon="6.16951">
        <ele>390</ele>
        <time>2019-09-04T08:52:59Z</time>
      </trkpt>
      <trkpt lat="46.18451" lon="6.16952">
        <ele>390</ele>
        <time>2019-09-04T08:53:01Z</time>
      </trkpt>
      <trkpt lat="46.18448" lon="6.16954">
        <ele>390</ele>
        <time>2019-09-04T08:53:03Z</time>
      </trkpt>
      <trkpt lat="46.18443" lon="6.16955">
        <ele>390</ele>
        <time>2019-09-04T08:53:05Z</time>
      </trkpt>
      <trkpt lat="46.18439" lon="6.16957">
        <ele>390</ele>
        <time>2019-09-04T08:53:07Z</time>
      </trkpt>
      <trkpt lat="46.18436" lon="6.16958">
        <ele>390</ele>
        <time>2019-09-04T08:53:09Z</time>
      </trkpt>
      <trkpt lat="46.18432" lon="6.1696">
        <ele>390</ele>
        <time>2019-09-04T08:53:11Z</time>
      </trkpt>
      <trkpt lat="46.18429" lon="6.16961">
        <ele>390</ele>
        <time>2019-09-04T08:53:13Z</time>
      </trkpt>
      <trkpt lat="46.18426" lon="6.16963">
        <ele>390</ele>
        <time>2019-09-04T08:53:15Z</time>
      </trkpt>
      <trkpt lat="46.18422" lon="6.16963">
        <ele>390</ele>
        <time>2019-09-04T08:53:17Z</time>
      </trkpt>
      <trkpt lat="46.18418" lon="6.16964">
        <ele>390</ele>
        <time>2019-09-04T08:53:19Z</time>
      </trkpt>
      <trkpt lat="46.18415" lon="6.16965">
        <ele>390</ele>
        <time>2019-09-04T08:53:21Z</time>
      </trkpt>
      <trkpt lat="46.18411" lon="6.16966">
        <ele>390</ele>
        <time>2019-09-04T08:53:23Z</time>
      </trkpt>
      <trkpt lat="46.18407" lon="6.16967">
        <ele>390</ele>
        <time>2019-09-04T08:53:25Z</time>
      </trkpt>
      <trkpt lat="46.18404" lon="6.16968">
        <ele>390</ele>
        <time>2019-09-04T08:53:27Z</time>
      </trkpt>
      <trkpt lat="46.184" lon="6.16969">
        <ele>390</ele>
        <time>2019-09-04T08:53:29Z</time>
      </trkpt>
      <trkpt lat="46.18397" lon="6.1697">
        <ele>390</ele>
        <time>2019-09-04T08:53:31Z</time>
      </trkpt>
      <trkpt lat="46.18394" lon="6.1697">
        <ele>390</ele>
        <time>2019-09-04T08:53:33Z</time>
      </trkpt>
      <trkpt lat="46.1839" lon="6.16971">
        <ele>390</ele>
        <time>2019-09-04T08:53:35Z</time>
      </trkpt>
      <trkpt lat="46.18387" lon="6.16973">
        <ele>390</ele>
        <time>2019-09-04T08:53:37Z</time>
      </trkpt>
      <trkpt lat="46.18384" lon="6.16975">
        <ele>390</ele>
        <time>2019-09-04T08:53:39Z</time>
      </trkpt>
      <trkpt lat="46.18381" lon="6.16977">
        <ele>390</ele>
        <time>2019-09-04T08:53:41Z</time>
      </trkpt>
      <trkpt lat="46.18379" lon="6.16981">
        <ele>389</ele>
        <time>2019-09-04T08:53:43Z</time>
      </trkpt>
      <trkpt lat="46.18377" lon="6.16986">
        <ele>389</ele>
        <time>2019-09-04T08:53:45Z</time>
      </trkpt>
      <trkpt lat="46.18374" lon="6.16991">
        <ele>389</ele>
        <time>2019-09-04T08:53:47Z</time>
      </trkpt>
      <trkpt lat="46.1837" lon="6.16996">
        <ele>389</ele>
        <time>2019-09-04T08:53:49Z</time>
      </trkpt>
      <trkpt lat="46.18366" lon="6.17">
        <ele>389</ele>
        <time>2019-09-04T08:53:51Z</time>
      </trkpt>
      <trkpt lat="46.18363" lon="6.17004">
        <ele>389</ele>
        <time>2019-09-04T08:53:53Z</time>
      </trkpt>
      <trkpt lat="46.18359" lon="6.17007">
        <ele>389</ele>
        <time>2019-09-04T08:53:55Z</time>
      </trkpt>
      <trkpt lat="46.18355" lon="6.1701">
        <ele>388</ele>
        <time>2019-09-04T08:53:57Z</time>
      </trkpt>
      <trkpt lat="46.18352" lon="6.17013">
        <ele>388</ele>
        <time>2019-09-04T08:53:59Z</time>
      </trkpt>
      <trkpt lat="46.18349" lon="6.17016">
        <ele>388</ele>
        <time>2019-09-04T08:54:01Z</time>
      </trkpt>
      <trkpt lat="46.18346" lon="6.17017">
        <ele>388</ele>
        <time>2019-09-04T08:54:03Z</time>
      </trkpt>
      <trkpt lat="46.18343" lon="6.17019">
        <ele>388</ele>
        <time>2019-09-04T08:54:05Z</time>
      </trkpt>
      <trkpt lat="46.1834" lon="6.1702">
        <ele>387</ele>
        <time>2019-09-04T08:54:07Z</time>
      </trkpt>
      <trkpt lat="46.18337" lon="6.17021">
        <ele>387</ele>
        <time>2019-09-04T08:54:09Z</time>
      </trkpt>
      <trkpt lat="46.18334" lon="6.17023">
        <ele>387</ele>
        <time>2019-09-04T08:54:11Z</time>
      </trkpt>
      <trkpt lat="46.18331" lon="6.17024">
        <ele>387</ele>
        <time>2019-09-04T08:54:13Z</time>
      </trkpt>
      <trkpt lat="46.18328" lon="6.17025">
        <ele>387</ele>
        <time>2019-09-04T08:54:15Z</time>
      </trkpt>
      <trkpt lat="46.18324" lon="6.17026">
        <ele>387</ele>
        <time>2019-09-04T08:54:17Z</time>
      </trkpt>
      <trkpt lat="46.1832" lon="6.17027">
        <ele>387</ele>
        <time>2019-09-04T08:54:19Z</time>
      </trkpt>
      <trkpt lat="46.18317" lon="6.17029">
        <ele>387</ele>
        <time>2019-09-04T08:54:21Z</time>
      </trkpt>
      <trkpt lat="46.18313" lon="6.17031">
        <ele>387</ele>
        <time>2019-09-04T08:54:23Z</time>
      </trkpt>
      <trkpt lat="46.18309" lon="6.17034">
        <ele>387</ele>
        <time>2019-09-04T08:54:25Z</time>
      </trkpt>
      <trkpt lat="46.18306" lon="6.17036">
        <ele>387</ele>
        <time>2019-09-04T08:54:27Z</time>
      </trkpt>
      <trkpt lat="46.18302" lon="6.17038">
        <ele>387</ele>
        <time>2019-09-04T08:54:29Z</time>
      </trkpt>
      <trkpt lat="46.18299" lon="6.17039">
        <ele>388</ele>
        <time>2019-09-04T08:54:31Z</time>
      </trkpt>
      <trkpt lat="46.18295" lon="6.17039">
        <ele>388</ele>
        <time>2019-09-04T08:54:33Z</time>
      </trkpt>
      <trkpt lat="46.18292" lon="6.1704">
        <ele>388</ele>
        <time>2019-09-04T08:54:35Z</time>
      </trkpt>
      <trkpt lat="46.1829" lon="6.17041">
        <ele>388</ele>
        <time>2019-09-04T08:54:37Z</time>
      </trkpt>
      <trkpt lat="46.18287" lon="6.17041">
        <ele>388</ele>
        <time>2019-09-04T08:54:39Z</time>
      </trkpt>
      <trkpt lat="46.18283" lon="6.17041">
        <ele>388</ele>
        <time>2019-09-04T08:54:41Z</time>
      </trkpt>
      <trkpt lat="46.1828" lon="6.17042">
        <ele>388</ele>
        <time>2019-09-04T08:54:43Z</time>
      </trkpt>
      <trkpt lat="46.18276" lon="6.17043">
        <ele>388</ele>
        <time>2019-09-04T08:54:45Z</time>
      </trkpt>
      <trkpt lat="46.18272" lon="6.17044">
        <ele>388</ele>
        <time>2019-09-04T08:54:47Z</time>
      </trkpt>
      <trkpt lat="46.18268" lon="6.17044">
        <ele>388</ele>
        <time>2019-09-04T08:54:49Z</time>
      </trkpt>
      <trkpt lat="46.18263" lon="6.17045">
        <ele>388</ele>
        <time>2019-09-04T08:54:51Z</time>
      </trkpt>
      <trkpt lat="46.18259" lon="6.17046">
        <ele>388</ele>
        <time>2019-09-04T08:54:53Z</time>
      </trkpt>
      <trkpt lat="46.18256" lon="6.17047">
        <ele>388</ele>
        <time>2019-09-04T08:54:55Z</time>
      </trkpt>
      <trkpt lat="46.18252" lon="6.17049">
        <ele>388</ele>
        <time>2019-09-04T08:54:57Z</time>
      </trkpt>
      <trkpt lat="46.18249" lon="6.17051">
        <ele>388</ele>
        <time>2019-09-04T08:54:59Z</time>
      </trkpt>
      <trkpt lat="46.18246" lon="6.17053">
        <ele>388</ele>
        <time>2019-09-04T08:55:01Z</time>
      </trkpt>
      <trkpt lat="46.18243" lon="6.17056">
        <ele>388</ele>
        <time>2019-09-04T08:55:03Z</time>
      </trkpt>
      <trkpt lat="46.1824" lon="6.17058">
        <ele>388</ele>
        <time>2019-09-04T08:55:05Z</time>
      </trkpt>
      <trkpt lat="46.18237" lon="6.1706">
        <ele>388</ele>
        <time>2019-09-04T08:55:07Z</time>
      </trkpt>
      <trkpt lat="46.18234" lon="6.17061">
        <ele>388</ele>
        <time>2019-09-04T08:55:09Z</time>
      </trkpt>
      <trkpt lat="46.18231" lon="6.17062">
        <ele>388</ele>
        <time>2019-09-04T08:55:11Z</time>
      </trkpt>
      <trkpt lat="46.18228" lon="6.17064">
        <ele>388</ele>
        <time>2019-09-04T08:55:13Z</time>
      </trkpt>
      <trkpt lat="46.18225" lon="6.17065">
        <ele>388</ele>
        <time>2019-09-04T08:55:15Z</time>
      </trkpt>
      <trkpt lat="46.18222" lon="6.17066">
        <ele>388</ele>
        <time>2019-09-04T08:55:17Z</time>
      </trkpt>
      <trkpt lat="46.18218" lon="6.17068">
        <ele>388</ele>
        <time>2019-09-04T08:55:19Z</time>
      </trkpt>
      <trkpt lat="46.18214" lon="6.17069">
        <ele>388</ele>
        <time>2019-09-04T08:55:21Z</time>
      </trkpt>
      <trkpt lat="46.18211" lon="6.17071">
        <ele>388</ele>
        <time>2019-09-04T08:55:23Z</time>
      </trkpt>
      <trkpt lat="46.18207" lon="6.17073">
        <ele>388</ele>
        <time>2019-09-04T08:55:25Z</time>
      </trkpt>
      <trkpt lat="46.18203" lon="6.17075">
        <ele>389</ele>
        <time>2019-09-04T08:55:27Z</time>
      </trkpt>
      <trkpt lat="46.182" lon="6.17076">
        <ele>389</ele>
        <time>2019-09-04T08:55:29Z</time>
      </trkpt>
      <trkpt lat="46.18196" lon="6.17077">
        <ele>389</ele>
        <time>2019-09-04T08:55:31Z</time>
      </trkpt>
      <trkpt lat="46.18193" lon="6.17077">
        <ele>389</ele>
        <time>2019-09-04T08:55:33Z</time>
      </trkpt>
      <trkpt lat="46.1819" lon="6.17077">
        <ele>389</ele>
        <time>2019-09-04T08:55:35Z</time>
      </trkpt>
      <trkpt lat="46.18187" lon="6.17077">
        <ele>389</ele>
        <time>2019-09-04T08:55:37Z</time>
      </trkpt>
      <trkpt lat="46.18183" lon="6.17078">
        <ele>389</ele>
        <time>2019-09-04T08:55:39Z</time>
      </trkpt>
      <trkpt lat="46.18179" lon="6.17078">
        <ele>389</ele>
        <time>2019-09-04T08:55:41Z</time>
      </trkpt>
      <trkpt lat="46.18175" lon="6.17079">
        <ele>389</ele>
        <time>2019-09-04T08:55:43Z</time>
      </trkpt>
      <trkpt lat="46.18172" lon="6.17081">
        <ele>389</ele>
        <time>2019-09-04T08:55:45Z</time>
      </trkpt>
      <trkpt lat="46.18168" lon="6.17082">
        <ele>389</ele>
        <time>2019-09-04T08:55:47Z</time>
      </trkpt>
      <trkpt lat="46.18165" lon="6.17084">
        <ele>389</ele>
        <time>2019-09-04T08:55:49Z</time>
      </trkpt>
      <trkpt lat="46.18161" lon="6.17086">
        <ele>389</ele>
        <time>2019-09-04T08:55:51Z</time>
      </trkpt>
      <trkpt lat="46.18157" lon="6.17088">
        <ele>388</ele>
        <time>2019-09-04T08:55:53Z</time>
      </trkpt>
      <trkpt lat="46.18153" lon="6.1709">
        <ele>388</ele>
        <time>2019-09-04T08:55:55Z</time>
      </trkpt>
      <trkpt lat="46.18149" lon="6.17092">
        <ele>388</ele>
        <time>2019-09-04T08:55:57Z</time>
      </trkpt>
      <trkpt lat="46.18145" lon="6.17094">
        <ele>388</ele>
        <time>2019-09-04T08:55:59Z</time>
      </trkpt>
      <trkpt lat="46.18141" lon="6.17096">
        <ele>388</ele>
        <time>2019-09-04T08:56:01Z</time>
      </trkpt>
      <trkpt lat="46.18138" lon="6.17097">
        <ele>388</ele>
        <time>2019-09-04T08:56:03Z</time>
      </trkpt>
      <trkpt lat="46.18134" lon="6.17097">
        <ele>388</ele>
        <time>2019-09-04T08:56:05Z</time>
      </trkpt>
      <trkpt lat="46.1813" lon="6.17097">
        <ele>388</ele>
        <time>2019-09-04T08:56:07Z</time>
      </trkpt>
      <trkpt lat="46.18126" lon="6.17098">
        <ele>388</ele>
        <time>2019-09-04T08:56:09Z</time>
      </trkpt>
      <trkpt lat="46.18122" lon="6.17098">
        <ele>388</ele>
        <time>2019-09-04T08:56:11Z</time>
      </trkpt>
      <trkpt lat="46.18119" lon="6.17097">
        <ele>388</ele>
        <time>2019-09-04T08:56:13Z</time>
      </trkpt>
      <trkpt lat="46.18115" lon="6.17096">
        <ele>388</ele>
        <time>2019-09-04T08:56:15Z</time>
      </trkpt>
      <trkpt lat="46.18111" lon="6.17095">
        <ele>389</ele>
        <time>2019-09-04T08:56:17Z</time>
      </trkpt>
      <trkpt lat="46.18106" lon="6.17095">
        <ele>389</ele>
        <time>2019-09-04T08:56:19Z</time>
      </trkpt>
      <trkpt lat="46.18102" lon="6.17095">
        <ele>389</ele>
        <time>2019-09-04T08:56:21Z</time>
      </trkpt>
      <trkpt lat="46.18097" lon="6.17094">
        <ele>389</ele>
        <time>2019-09-04T08:56:23Z</time>
      </trkpt>
      <trkpt lat="46.18093" lon="6.17094">
        <ele>389</ele>
        <time>2019-09-04T08:56:25Z</time>
      </trkpt>
      <trkpt lat="46.18088" lon="6.17093">
        <ele>389</ele>
        <time>2019-09-04T08:56:27Z</time>
      </trkpt>
      <trkpt lat="46.18084" lon="6.17092">
        <ele>389</ele>
        <time>2019-09-04T08:56:29Z</time>
      </trkpt>
      <trkpt lat="46.1808" lon="6.17092">
        <ele>389</ele>
        <time>2019-09-04T08:56:31Z</time>
      </trkpt>
      <trkpt lat="46.18076" lon="6.17091">
        <ele>389</ele>
        <time>2019-09-04T08:56:33Z</time>
      </trkpt>
      <trkpt lat="46.18073" lon="6.1709">
        <ele>389</ele>
        <time>2019-09-04T08:56:35Z</time>
      </trkpt>
      <trkpt lat="46.18069" lon="6.1709">
        <ele>389</ele>
        <time>2019-09-04T08:56:37Z</time>
      </trkpt>
      <trkpt lat="46.18066" lon="6.1709">
        <ele>389</ele>
        <time>2019-09-04T08:56:39Z</time>
      </trkpt>
      <trkpt lat="46.18062" lon="6.1709">
        <ele>389</ele>
        <time>2019-09-04T08:56:41Z</time>
      </trkpt>
      <trkpt lat="46.18058" lon="6.1709">
        <ele>389</ele>
        <time>2019-09-04T08:56:43Z</time>
      </trkpt>
      <trkpt lat="46.18055" lon="6.1709">
        <ele>389</ele>
        <time>2019-09-04T08:56:45Z</time>
      </trkpt>
      <trkpt lat="46.18051" lon="6.1709">
        <ele>389</ele>
        <time>2019-09-04T08:56:47Z</time>
      </trkpt>
      <trkpt lat="46.18047" lon="6.17089">
        <ele>389</ele>
        <time>2019-09-04T08:56:49Z</time>
      </trkpt>
      <trkpt lat="46.18044" lon="6.17089">
        <ele>389</ele>
        <time>2019-09-04T08:56:51Z</time>
      </trkpt>
      <trkpt lat="46.18041" lon="6.17088">
        <ele>389</ele>
        <time>2019-09-04T08:56:53Z</time>
      </trkpt>
      <trkpt lat="46.18038" lon="6.17087">
        <ele>389</ele>
        <time>2019-09-04T08:56:55Z</time>
      </trkpt>
      <trkpt lat="46.18034" lon="6.17086">
        <ele>389</ele>
        <time>2019-09-04T08:56:57Z</time>
      </trkpt>
      <trkpt lat="46.18031" lon="6.17085">
        <ele>389</ele>
        <time>2019-09-04T08:56:59Z</time>
      </trkpt>
      <trkpt lat="46.18027" lon="6.17086">
        <ele>389</ele>
        <time>2019-09-04T08:57:01Z</time>
      </trkpt>
      <trkpt lat="46.18024" lon="6.17086">
        <ele>389</ele>
        <time>2019-09-04T08:57:03Z</time>
      </trkpt>
      <trkpt lat="46.1802" lon="6.17086">
        <ele>389</ele>
        <time>2019-09-04T08:57:05Z</time>
      </trkpt>
      <trkpt lat="46.18016" lon="6.17085">
        <ele>389</ele>
        <time>2019-09-04T08:57:07Z</time>
      </trkpt>
      <trkpt lat="46.18011" lon="6.17084">
        <ele>389</ele>
        <time>2019-09-04T08:57:09Z</time>
      </trkpt>
      <trkpt lat="46.18007" lon="6.17084">
        <ele>389</ele>
        <time>2019-09-04T08:57:11Z</time>
      </trkpt>
      <trkpt lat="46.18003" lon="6.17084">
        <ele>388</ele>
        <time>2019-09-04T08:57:13Z</time>
      </trkpt>
      <trkpt lat="46.17999" lon="6.17082">
        <ele>388</ele>
        <time>2019-09-04T08:57:15Z</time>
      </trkpt>
      <trkpt lat="46.17996" lon="6.17078">
        <ele>388</ele>
        <time>2019-09-04T08:57:17Z</time>
      </trkpt>
      <trkpt lat="46.17993" lon="6.17073">
        <ele>388</ele>
        <time>2019-09-04T08:57:19Z</time>
      </trkpt>
      <trkpt lat="46.1799" lon="6.17067">
        <ele>388</ele>
        <time>2019-09-04T08:57:21Z</time>
      </trkpt>
      <trkpt lat="46.17987" lon="6.17062">
        <ele>388</ele>
        <time>2019-09-04T08:57:23Z</time>
      </trkpt>
      <trkpt lat="46.17984" lon="6.17058">
        <ele>388</ele>
        <time>2019-09-04T08:57:25Z</time>
      </trkpt>
      <trkpt lat="46.17981" lon="6.17054">
        <ele>388</ele>
        <time>2019-09-04T08:57:27Z</time>
      </trkpt>
      <trkpt lat="46.17978" lon="6.17051">
        <ele>388</ele>
        <time>2019-09-04T08:57:29Z</time>
      </trkpt>
      <trkpt lat="46.17974" lon="6.17048">
        <ele>389</ele>
        <time>2019-09-04T08:57:31Z</time>
      </trkpt>
      <trkpt lat="46.17971" lon="6.17045">
        <ele>389</ele>
        <time>2019-09-04T08:57:33Z</time>
      </trkpt>
      <trkpt lat="46.17969" lon="6.17042">
        <ele>389</ele>
        <time>2019-09-04T08:57:35Z</time>
      </trkpt>
      <trkpt lat="46.17966" lon="6.17039">
        <ele>389</ele>
        <time>2019-09-04T08:57:37Z</time>
      </trkpt>
      <trkpt lat="46.17963" lon="6.17036">
        <ele>389</ele>
        <time>2019-09-04T08:57:39Z</time>
      </trkpt>
      <trkpt lat="46.17959" lon="6.17034">
        <ele>389</ele>
        <time>2019-09-04T08:57:41Z</time>
      </trkpt>
      <trkpt lat="46.17956" lon="6.17032">
        <ele>389</ele>
        <time>2019-09-04T08:57:43Z</time>
      </trkpt>
      <trkpt lat="46.17953" lon="6.17029">
        <ele>389</ele>
        <time>2019-09-04T08:57:45Z</time>
      </trkpt>
      <trkpt lat="46.17951" lon="6.17026">
        <ele>389</ele>
        <time>2019-09-04T08:57:47Z</time>
      </trkpt>
      <trkpt lat="46.17949" lon="6.17024">
        <ele>389</ele>
        <time>2019-09-04T08:57:49Z</time>
      </trkpt>
      <trkpt lat="46.17947" lon="6.17022">
        <ele>389</ele>
        <time>2019-09-04T08:57:51Z</time>
      </trkpt>
      <trkpt lat="46.17945" lon="6.1702">
        <ele>389</ele>
        <time>2019-09-04T08:57:53Z</time>
      </trkpt>
      <trkpt lat="46.17943" lon="6.17018">
        <ele>389</ele>
        <time>2019-09-04T08:57:55Z</time>
      </trkpt>
      <trkpt lat="46.1794" lon="6.17016">
        <ele>389</ele>
        <time>2019-09-04T08:57:57Z</time>
      </trkpt>
      <trkpt lat="46.17938" lon="6.17015">
        <ele>389</ele>
        <time>2019-09-04T08:57:59Z</time>
      </trkpt>
      <trkpt lat="46.17936" lon="6.17013">
        <ele>389</ele>
        <time>2019-09-04T08:58:01Z</time>
      </trkpt>
      <trkpt lat="46.17934" lon="6.17011">
        <ele>389</ele>
        <time>2019-09-04T08:58:03Z</time>
      </trkpt>
      <trkpt lat="46.17932" lon="6.17009">
        <ele>389</ele>
        <time>2019-09-04T08:58:05Z</time>
      </trkpt>
      <trkpt lat="46.1793" lon="6.17008">
        <ele>389</ele>
        <time>2019-09-04T08:58:07Z</time>
      </trkpt>
      <trkpt lat="46.17927" lon="6.17006">
        <ele>389</ele>
        <time>2019-09-04T08:58:09Z</time>
      </trkpt>
      <trkpt lat="46.17924" lon="6.17004">
        <ele>389</ele>
        <time>2019-09-04T08:58:11Z</time>
      </trkpt>
      <trkpt lat="46.17922" lon="6.17003">
        <ele>389</ele>
        <time>2019-09-04T08:58:13Z</time>
      </trkpt>
      <trkpt lat="46.1792" lon="6.17">
        <ele>389</ele>
        <time>2019-09-04T08:58:15Z</time>
      </trkpt>
      <trkpt lat="46.17918" lon="6.16998">
        <ele>389</ele>
        <time>2019-09-04T08:58:17Z</time>
      </trkpt>
      <trkpt lat="46.17917" lon="6.16997">
        <ele>389</ele>
        <time>2019-09-04T08:58:19Z</time>
      </trkpt>
      <trkpt lat="46.17915" lon="6.16996">
        <ele>390</ele>
        <time>2019-09-04T08:58:21Z</time>
      </trkpt>
      <trkpt lat="46.17913" lon="6.16996">
        <ele>390</ele>
        <time>2019-09-04T08:58:23Z</time>
      </trkpt>
      <trkpt lat="46.17912" lon="6.16995">
        <ele>390</ele>
        <time>2019-09-04T08:58:25Z</time>
      </trkpt>
      <trkpt lat="46.1791" lon="6.16993">
        <ele>390</ele>
        <time>2019-09-04T08:58:27Z</time>
      </trkpt>
      <trkpt lat="46.17908" lon="6.16992">
        <ele>390</ele>
        <time>2019-09-04T08:58:29Z</time>
      </trkpt>
      <trkpt lat="46.17907" lon="6.16992">
        <ele>390</ele>
        <time>2019-09-04T08:58:31Z</time>
      </trkpt>
      <trkpt lat="46.17905" lon="6.16992">
        <ele>390</ele>
        <time>2019-09-04T08:58:41Z</time>
      </trkpt>
      <trkpt lat="46.17903" lon="6.16992">
        <ele>390</ele>
        <time>2019-09-04T08:58:43Z</time>
      </trkpt>
      <trkpt lat="46.17902" lon="6.16992">
        <ele>390</ele>
        <time>2019-09-04T08:58:45Z</time>
      </trkpt>
      <trkpt lat="46.17901" lon="6.16992">
        <ele>390</ele>
        <time>2019-09-04T08:58:47Z</time>
      </trkpt>
      <trkpt lat="46.17899" lon="6.16993">
        <ele>390</ele>
        <time>2019-09-04T08:58:50Z</time>
      </trkpt>
      <trkpt lat="46.17897" lon="6.16993">
        <ele>390</ele>
        <time>2019-09-04T08:58:52Z</time>
      </trkpt>
      <trkpt lat="46.17896" lon="6.16994">
        <ele>390</ele>
        <time>2019-09-04T08:58:54Z</time>
      </trkpt>
      <trkpt lat="46.17894" lon="6.16994">
        <ele>390</ele>
        <time>2019-09-04T08:58:56Z</time>
      </trkpt>
      <trkpt lat="46.17892" lon="6.16994">
        <ele>390</ele>
        <time>2019-09-04T08:58:58Z</time>
      </trkpt>
      <trkpt lat="46.1789" lon="6.16995">
        <ele>390</ele>
        <time>2019-09-04T08:59:00Z</time>
      </trkpt>
      <trkpt lat="46.17888" lon="6.16996">
        <ele>390</ele>
        <time>2019-09-04T08:59:02Z</time>
      </trkpt>
      <trkpt lat="46.17886" lon="6.16998">
        <ele>390</ele>
        <time>2019-09-04T08:59:04Z</time>
      </trkpt>
      <trkpt lat="46.17884" lon="6.17001">
        <ele>390</ele>
        <time>2019-09-04T08:59:06Z</time>
      </trkpt>
      <trkpt lat="46.17882" lon="6.17005">
        <ele>390</ele>
        <time>2019-09-04T08:59:08Z</time>
      </trkpt>
      <trkpt lat="46.17881" lon="6.17009">
        <ele>390</ele>
        <time>2019-09-04T08:59:10Z</time>
      </trkpt>
      <trkpt lat="46.17879" lon="6.17013">
        <ele>390</ele>
        <time>2019-09-04T08:59:12Z</time>
      </trkpt>
      <trkpt lat="46.17879" lon="6.17018">
        <ele>390</ele>
        <time>2019-09-04T08:59:14Z</time>
      </trkpt>
      <trkpt lat="46.1788" lon="6.17024">
        <ele>390</ele>
        <time>2019-09-04T08:59:16Z</time>
      </trkpt>
      <trkpt lat="46.17881" lon="6.17029">
        <ele>390</ele>
        <time>2019-09-04T08:59:18Z</time>
      </trkpt>
      <trkpt lat="46.17883" lon="6.17035">
        <ele>390</ele>
        <time>2019-09-04T08:59:20Z</time>
      </trkpt>
      <trkpt lat="46.17885" lon="6.1704">
        <ele>390</ele>
        <time>2019-09-04T08:59:22Z</time>
      </trkpt>
      <trkpt lat="46.17886" lon="6.17045">
        <ele>390</ele>
        <time>2019-09-04T08:59:24Z</time>
      </trkpt>
      <trkpt lat="46.17886" lon="6.1705">
        <ele>390</ele>
        <time>2019-09-04T08:59:26Z</time>
      </trkpt>
      <trkpt lat="46.17885" lon="6.17055">
        <ele>390</ele>
        <time>2019-09-04T08:59:28Z</time>
      </trkpt>
      <trkpt lat="46.17884" lon="6.17061">
        <ele>390</ele>
        <time>2019-09-04T08:59:30Z</time>
      </trkpt>
      <trkpt lat="46.17882" lon="6.17066">
        <ele>390</ele>
        <time>2019-09-04T08:59:32Z</time>
      </trkpt>
      <trkpt lat="46.17881" lon="6.17071">
        <ele>390</ele>
        <time>2019-09-04T08:59:34Z</time>
      </trkpt>
      <trkpt lat="46.1788" lon="6.17075">
        <ele>391</ele>
        <time>2019-09-04T08:59:36Z</time>
      </trkpt>
      <trkpt lat="46.17879" lon="6.1708">
        <ele>391</ele>
        <time>2019-09-04T08:59:38Z</time>
      </trkpt>
      <trkpt lat="46.17877" lon="6.17085">
        <ele>391</ele>
        <time>2019-09-04T08:59:40Z</time>
      </trkpt>
      <trkpt lat="46.17876" lon="6.1709">
        <ele>391</ele>
        <time>2019-09-04T08:59:42Z</time>
      </trkpt>
      <trkpt lat="46.17874" lon="6.17095">
        <ele>391</ele>
        <time>2019-09-04T08:59:44Z</time>
      </trkpt>
      <trkpt lat="46.17872" lon="6.17099">
        <ele>391</ele>
        <time>2019-09-04T08:59:46Z</time>
      </trkpt>
      <trkpt lat="46.1787" lon="6.17104">
        <ele>391</ele>
        <time>2019-09-04T08:59:48Z</time>
      </trkpt>
      <trkpt lat="46.17868" lon="6.17109">
        <ele>391</ele>
        <time>2019-09-04T08:59:50Z</time>
      </trkpt>
      <trkpt lat="46.17866" lon="6.17114">
        <ele>391</ele>
        <time>2019-09-04T08:59:52Z</time>
      </trkpt>
      <trkpt lat="46.17864" lon="6.17119">
        <ele>391</ele>
        <time>2019-09-04T08:59:54Z</time>
      </trkpt>
      <trkpt lat="46.17862" lon="6.17124">
        <ele>391</ele>
        <time>2019-09-04T08:59:56Z</time>
      </trkpt>
      <trkpt lat="46.1786" lon="6.17127">
        <ele>391</ele>
        <time>2019-09-04T08:59:58Z</time>
      </trkpt>
      <trkpt lat="46.17858" lon="6.17131">
        <ele>391</ele>
        <time>2019-09-04T09:00:00Z</time>
      </trkpt>
      <trkpt lat="46.17856" lon="6.17135">
        <ele>391</ele>
        <time>2019-09-04T09:00:02Z</time>
      </trkpt>
      <trkpt lat="46.17854" lon="6.17139">
        <ele>391</ele>
        <time>2019-09-04T09:00:04Z</time>
      </trkpt>
      <trkpt lat="46.17852" lon="6.17141">
        <ele>391</ele>
        <time>2019-09-04T09:00:06Z</time>
      </trkpt>
      <trkpt lat="46.1785" lon="6.17144">
        <ele>390</ele>
        <time>2019-09-04T09:00:08Z</time>
      </trkpt>
      <trkpt lat="46.17847" lon="6.17148">
        <ele>390</ele>
        <time>2019-09-04T09:00:10Z</time>
      </trkpt>
      <trkpt lat="46.17844" lon="6.17149">
        <ele>390</ele>
        <time>2019-09-04T09:00:12Z</time>
      </trkpt>
      <trkpt lat="46.1784" lon="6.1715">
        <ele>390</ele>
        <time>2019-09-04T09:00:14Z</time>
      </trkpt>
      <trkpt lat="46.17836" lon="6.17149">
        <ele>390</ele>
        <time>2019-09-04T09:00:16Z</time>
      </trkpt>
      <trkpt lat="46.17833" lon="6.17148">
        <ele>390</ele>
        <time>2019-09-04T09:00:18Z</time>
      </trkpt>
      <trkpt lat="46.17829" lon="6.17145">
        <ele>390</ele>
        <time>2019-09-04T09:00:20Z</time>
      </trkpt>
      <trkpt lat="46.17825" lon="6.17143">
        <ele>390</ele>
        <time>2019-09-04T09:00:22Z</time>
      </trkpt>
      <trkpt lat="46.17821" lon="6.17139">
        <ele>390</ele>
        <time>2019-09-04T09:00:24Z</time>
      </trkpt>
      <trkpt lat="46.17818" lon="6.17136">
        <ele>390</ele>
        <time>2019-09-04T09:00:26Z</time>
      </trkpt>
      <trkpt lat="46.17814" lon="6.17133">
        <ele>390</ele>
        <time>2019-09-04T09:00:28Z</time>
      </trkpt>
      <trkpt lat="46.17811" lon="6.17129">
        <ele>390</ele>
        <time>2019-09-04T09:00:30Z</time>
      </trkpt>
      <trkpt lat="46.17808" lon="6.17127">
        <ele>390</ele>
        <time>2019-09-04T09:00:32Z</time>
      </trkpt>
      <trkpt lat="46.17805" lon="6.17124">
        <ele>390</ele>
        <time>2019-09-04T09:00:34Z</time>
      </trkpt>
      <trkpt lat="46.17802" lon="6.17121">
        <ele>390</ele>
        <time>2019-09-04T09:00:36Z</time>
      </trkpt>
      <trkpt lat="46.17798" lon="6.17118">
        <ele>390</ele>
        <time>2019-09-04T09:00:38Z</time>
      </trkpt>
      <trkpt lat="46.17795" lon="6.17114">
        <ele>390</ele>
        <time>2019-09-04T09:00:40Z</time>
      </trkpt>
      <trkpt lat="46.17793" lon="6.1711">
        <ele>390</ele>
        <time>2019-09-04T09:00:42Z</time>
      </trkpt>
      <trkpt lat="46.1779" lon="6.17106">
        <ele>390</ele>
        <time>2019-09-04T09:00:44Z</time>
      </trkpt>
      <trkpt lat="46.17787" lon="6.17102">
        <ele>391</ele>
        <time>2019-09-04T09:00:46Z</time>
      </trkpt>
      <trkpt lat="46.17784" lon="6.17098">
        <ele>391</ele>
        <time>2019-09-04T09:00:48Z</time>
      </trkpt>
      <trkpt lat="46.17781" lon="6.17094">
        <ele>391</ele>
        <time>2019-09-04T09:00:50Z</time>
      </trkpt>
      <trkpt lat="46.17779" lon="6.17091">
        <ele>391</ele>
        <time>2019-09-04T09:00:52Z</time>
      </trkpt>
      <trkpt lat="46.17776" lon="6.17088">
        <ele>391</ele>
        <time>2019-09-04T09:00:54Z</time>
      </trkpt>
      <trkpt lat="46.17773" lon="6.17085">
        <ele>391</ele>
        <time>2019-09-04T09:00:56Z</time>
      </trkpt>
      <trkpt lat="46.17771" lon="6.17081">
        <ele>391</ele>
        <time>2019-09-04T09:00:58Z</time>
      </trkpt>
      <trkpt lat="46.17768" lon="6.17077">
        <ele>391</ele>
        <time>2019-09-04T09:01:00Z</time>
      </trkpt>
      <trkpt lat="46.17765" lon="6.17072">
        <ele>391</ele>
        <time>2019-09-04T09:01:02Z</time>
      </trkpt>
      <trkpt lat="46.17762" lon="6.17068">
        <ele>391</ele>
        <time>2019-09-04T09:01:04Z</time>
      </trkpt>
      <trkpt lat="46.17759" lon="6.17064">
        <ele>391</ele>
        <time>2019-09-04T09:01:06Z</time>
      </trkpt>
      <trkpt lat="46.17755" lon="6.17061">
        <ele>391</ele>
        <time>2019-09-04T09:01:08Z</time>
      </trkpt>
      <trkpt lat="46.17752" lon="6.17058">
        <ele>391</ele>
        <time>2019-09-04T09:01:10Z</time>
      </trkpt>
      <trkpt lat="46.17747" lon="6.17052">
        <ele>391</ele>
        <time>2019-09-04T09:01:13Z</time>
      </trkpt>
      <trkpt lat="46.17744" lon="6.17048">
        <ele>391</ele>
        <time>2019-09-04T09:01:15Z</time>
      </trkpt>
      <trkpt lat="46.17742" lon="6.17045">
        <ele>391</ele>
        <time>2019-09-04T09:01:17Z</time>
      </trkpt>
      <trkpt lat="46.17739" lon="6.17043">
        <ele>391</ele>
        <time>2019-09-04T09:01:19Z</time>
      </trkpt>
      <trkpt lat="46.17736" lon="6.1704">
        <ele>392</ele>
        <time>2019-09-04T09:01:21Z</time>
      </trkpt>
      <trkpt lat="46.17733" lon="6.17038">
        <ele>392</ele>
        <time>2019-09-04T09:01:23Z</time>
      </trkpt>
      <trkpt lat="46.1773" lon="6.17036">
        <ele>392</ele>
        <time>2019-09-04T09:01:25Z</time>
      </trkpt>
      <trkpt lat="46.17728" lon="6.17034">
        <ele>392</ele>
        <time>2019-09-04T09:01:27Z</time>
      </trkpt>
      <trkpt lat="46.17725" lon="6.17032">
        <ele>392</ele>
        <time>2019-09-04T09:01:29Z</time>
      </trkpt>
      <trkpt lat="46.17722" lon="6.1703">
        <ele>392</ele>
        <time>2019-09-04T09:01:31Z</time>
      </trkpt>
      <trkpt lat="46.17719" lon="6.17028">
        <ele>392</ele>
        <time>2019-09-04T09:01:33Z</time>
      </trkpt>
      <trkpt lat="46.17717" lon="6.17025">
        <ele>392</ele>
        <time>2019-09-04T09:01:35Z</time>
      </trkpt>
      <trkpt lat="46.17714" lon="6.17022">
        <ele>391</ele>
        <time>2019-09-04T09:01:37Z</time>
      </trkpt>
      <trkpt lat="46.17712" lon="6.17019">
        <ele>391</ele>
        <time>2019-09-04T09:01:39Z</time>
      </trkpt>
      <trkpt lat="46.1771" lon="6.17016">
        <ele>391</ele>
        <time>2019-09-04T09:01:41Z</time>
      </trkpt>
      <trkpt lat="46.17707" lon="6.17014">
        <ele>391</ele>
        <time>2019-09-04T09:01:43Z</time>
      </trkpt>
      <trkpt lat="46.17703" lon="6.17013">
        <ele>391</ele>
        <time>2019-09-04T09:01:45Z</time>
      </trkpt>
      <trkpt lat="46.177" lon="6.17013">
        <ele>392</ele>
        <time>2019-09-04T09:01:47Z</time>
      </trkpt>
      <trkpt lat="46.17697" lon="6.17013">
        <ele>392</ele>
        <time>2019-09-04T09:01:49Z</time>
      </trkpt>
      <trkpt lat="46.17694" lon="6.17014">
        <ele>392</ele>
        <time>2019-09-04T09:01:51Z</time>
      </trkpt>
      <trkpt lat="46.1769" lon="6.17015">
        <ele>392</ele>
        <time>2019-09-04T09:01:53Z</time>
      </trkpt>
      <trkpt lat="46.17686" lon="6.17015">
        <ele>392</ele>
        <time>2019-09-04T09:01:55Z</time>
      </trkpt>
      <trkpt lat="46.17683" lon="6.17016">
        <ele>392</ele>
        <time>2019-09-04T09:01:57Z</time>
      </trkpt>
      <trkpt lat="46.1768" lon="6.17018">
        <ele>392</ele>
        <time>2019-09-04T09:01:59Z</time>
      </trkpt>
      <trkpt lat="46.17678" lon="6.1702">
        <ele>392</ele>
        <time>2019-09-04T09:02:01Z</time>
      </trkpt>
      <trkpt lat="46.17676" lon="6.17022">
        <ele>392</ele>
        <time>2019-09-04T09:02:03Z</time>
      </trkpt>
      <trkpt lat="46.17674" lon="6.17026">
        <ele>392</ele>
        <time>2019-09-04T09:02:05Z</time>
      </trkpt>
      <trkpt lat="46.17672" lon="6.17029">
        <ele>392</ele>
        <time>2019-09-04T09:02:07Z</time>
      </trkpt>
      <trkpt lat="46.1767" lon="6.17033">
        <ele>392</ele>
        <time>2019-09-04T09:02:09Z</time>
      </trkpt>
      <trkpt lat="46.17665" lon="6.17035">
        <ele>392</ele>
        <time>2019-09-04T09:02:11Z</time>
      </trkpt>
      <trkpt lat="46.17661" lon="6.17036">
        <ele>392</ele>
        <time>2019-09-04T09:02:13Z</time>
      </trkpt>
      <trkpt lat="46.17655" lon="6.17034">
        <ele>392</ele>
        <time>2019-09-04T09:02:15Z</time>
      </trkpt>
      <trkpt lat="46.1765" lon="6.17033">
        <ele>392</ele>
        <time>2019-09-04T09:02:17Z</time>
      </trkpt>
      <trkpt lat="46.17646" lon="6.17032">
        <ele>392</ele>
        <time>2019-09-04T09:02:19Z</time>
      </trkpt>
      <trkpt lat="46.17643" lon="6.17033">
        <ele>392</ele>
        <time>2019-09-04T09:02:21Z</time>
      </trkpt>
      <trkpt lat="46.17641" lon="6.17036">
        <ele>392</ele>
        <time>2019-09-04T09:02:23Z</time>
      </trkpt>
      <trkpt lat="46.17638" lon="6.1704">
        <ele>392</ele>
        <time>2019-09-04T09:02:25Z</time>
      </trkpt>
      <trkpt lat="46.17635" lon="6.17043">
        <ele>392</ele>
        <time>2019-09-04T09:02:27Z</time>
      </trkpt>
      <trkpt lat="46.17633" lon="6.17047">
        <ele>392</ele>
        <time>2019-09-04T09:02:29Z</time>
      </trkpt>
      <trkpt lat="46.17631" lon="6.1705">
        <ele>392</ele>
        <time>2019-09-04T09:02:31Z</time>
      </trkpt>
      <trkpt lat="46.17631" lon="6.17054">
        <ele>392</ele>
        <time>2019-09-04T09:02:33Z</time>
      </trkpt>
      <trkpt lat="46.17631" lon="6.17059">
        <ele>392</ele>
        <time>2019-09-04T09:02:35Z</time>
      </trkpt>
      <trkpt lat="46.17632" lon="6.17063">
        <ele>392</ele>
        <time>2019-09-04T09:02:37Z</time>
      </trkpt>
      <trkpt lat="46.17632" lon="6.17068">
        <ele>392</ele>
        <time>2019-09-04T09:02:39Z</time>
      </trkpt>
      <trkpt lat="46.1763" lon="6.17073">
        <ele>392</ele>
        <time>2019-09-04T09:02:41Z</time>
      </trkpt>
      <trkpt lat="46.17629" lon="6.17078">
        <ele>392</ele>
        <time>2019-09-04T09:02:43Z</time>
      </trkpt>
      <trkpt lat="46.17626" lon="6.17083">
        <ele>392</ele>
        <time>2019-09-04T09:02:45Z</time>
      </trkpt>
      <trkpt lat="46.17623" lon="6.17087">
        <ele>392</ele>
        <time>2019-09-04T09:02:47Z</time>
      </trkpt>
      <trkpt lat="46.17621" lon="6.17092">
        <ele>392</ele>
        <time>2019-09-04T09:02:49Z</time>
      </trkpt>
      <trkpt lat="46.17621" lon="6.17097">
        <ele>393</ele>
        <time>2019-09-04T09:02:51Z</time>
      </trkpt>
      <trkpt lat="46.1762" lon="6.17102">
        <ele>393</ele>
        <time>2019-09-04T09:02:53Z</time>
      </trkpt>
      <trkpt lat="46.17619" lon="6.17107">
        <ele>393</ele>
        <time>2019-09-04T09:02:55Z</time>
      </trkpt>
      <trkpt lat="46.17619" lon="6.17111">
        <ele>393</ele>
        <time>2019-09-04T09:02:57Z</time>
      </trkpt>
      <trkpt lat="46.17619" lon="6.17116">
        <ele>393</ele>
        <time>2019-09-04T09:02:59Z</time>
      </trkpt>
      <trkpt lat="46.17618" lon="6.1712">
        <ele>393</ele>
        <time>2019-09-04T09:03:01Z</time>
      </trkpt>
      <trkpt lat="46.17618" lon="6.17125">
        <ele>393</ele>
        <time>2019-09-04T09:03:03Z</time>
      </trkpt>
      <trkpt lat="46.17619" lon="6.1713">
        <ele>393</ele>
        <time>2019-09-04T09:03:05Z</time>
      </trkpt>
      <trkpt lat="46.1762" lon="6.17134">
        <ele>393</ele>
        <time>2019-09-04T09:03:07Z</time>
      </trkpt>
      <trkpt lat="46.1762" lon="6.17139">
        <ele>393</ele>
        <time>2019-09-04T09:03:09Z</time>
      </trkpt>
      <trkpt lat="46.1762" lon="6.17143">
        <ele>394</ele>
        <time>2019-09-04T09:03:11Z</time>
      </trkpt>
      <trkpt lat="46.17619" lon="6.17147">
        <ele>394</ele>
        <time>2019-09-04T09:03:13Z</time>
      </trkpt>
      <trkpt lat="46.17617" lon="6.17152">
        <ele>394</ele>
        <time>2019-09-04T09:03:15Z</time>
      </trkpt>
      <trkpt lat="46.17616" lon="6.17158">
        <ele>394</ele>
        <time>2019-09-04T09:03:17Z</time>
      </trkpt>
      <trkpt lat="46.17616" lon="6.17163">
        <ele>394</ele>
        <time>2019-09-04T09:03:19Z</time>
      </trkpt>
      <trkpt lat="46.17617" lon="6.17169">
        <ele>394</ele>
        <time>2019-09-04T09:03:21Z</time>
      </trkpt>
      <trkpt lat="46.17618" lon="6.17174">
        <ele>394</ele>
        <time>2019-09-04T09:03:23Z</time>
      </trkpt>
      <trkpt lat="46.17619" lon="6.17178">
        <ele>394</ele>
        <time>2019-09-04T09:03:25Z</time>
      </trkpt>
      <trkpt lat="46.1762" lon="6.17184">
        <ele>394</ele>
        <time>2019-09-04T09:03:27Z</time>
      </trkpt>
      <trkpt lat="46.1762" lon="6.1719">
        <ele>394</ele>
        <time>2019-09-04T09:03:29Z</time>
      </trkpt>
      <trkpt lat="46.1762" lon="6.17195">
        <ele>394</ele>
        <time>2019-09-04T09:03:31Z</time>
      </trkpt>
      <trkpt lat="46.1762" lon="6.17201">
        <ele>394</ele>
        <time>2019-09-04T09:03:33Z</time>
      </trkpt>
      <trkpt lat="46.17621" lon="6.17206">
        <ele>394</ele>
        <time>2019-09-04T09:03:35Z</time>
      </trkpt>
      <trkpt lat="46.17622" lon="6.1721">
        <ele>394</ele>
        <time>2019-09-04T09:03:37Z</time>
      </trkpt>
      <trkpt lat="46.17623" lon="6.17213">
        <ele>394</ele>
        <time>2019-09-04T09:03:39Z</time>
      </trkpt>
      <trkpt lat="46.17625" lon="6.17216">
        <ele>394</ele>
        <time>2019-09-04T09:03:41Z</time>
      </trkpt>
      <trkpt lat="46.17628" lon="6.17221">
        <ele>394</ele>
        <time>2019-09-04T09:03:43Z</time>
      </trkpt>
      <trkpt lat="46.1763" lon="6.17226">
        <ele>394</ele>
        <time>2019-09-04T09:03:45Z</time>
      </trkpt>
      <trkpt lat="46.17631" lon="6.17231">
        <ele>394</ele>
        <time>2019-09-04T09:03:47Z</time>
      </trkpt>
      <trkpt lat="46.17633" lon="6.17237">
        <ele>394</ele>
        <time>2019-09-04T09:03:49Z</time>
      </trkpt>
      <trkpt lat="46.17635" lon="6.17243">
        <ele>394</ele>
        <time>2019-09-04T09:03:51Z</time>
      </trkpt>
      <trkpt lat="46.17636" lon="6.1725">
        <ele>394</ele>
        <time>2019-09-04T09:03:53Z</time>
      </trkpt>
      <trkpt lat="46.17636" lon="6.17256">
        <ele>394</ele>
        <time>2019-09-04T09:03:55Z</time>
      </trkpt>
      <trkpt lat="46.17637" lon="6.17261">
        <ele>394</ele>
        <time>2019-09-04T09:03:57Z</time>
      </trkpt>
      <trkpt lat="46.17639" lon="6.17266">
        <ele>394</ele>
        <time>2019-09-04T09:03:59Z</time>
      </trkpt>
      <trkpt lat="46.17641" lon="6.17268">
        <ele>395</ele>
        <time>2019-09-04T09:04:01Z</time>
      </trkpt>
      <trkpt lat="46.17643" lon="6.1727">
        <ele>395</ele>
        <time>2019-09-04T09:04:03Z</time>
      </trkpt>
      <trkpt lat="46.17646" lon="6.17269">
        <ele>395</ele>
        <time>2019-09-04T09:04:05Z</time>
      </trkpt>
      <trkpt lat="46.17649" lon="6.17268">
        <ele>395</ele>
        <time>2019-09-04T09:04:07Z</time>
      </trkpt>
      <trkpt lat="46.17652" lon="6.17267">
        <ele>395</ele>
        <time>2019-09-04T09:04:09Z</time>
      </trkpt>
      <trkpt lat="46.17656" lon="6.17267">
        <ele>395</ele>
        <time>2019-09-04T09:04:11Z</time>
      </trkpt>
      <trkpt lat="46.1766" lon="6.17267">
        <ele>395</ele>
        <time>2019-09-04T09:04:13Z</time>
      </trkpt>
      <trkpt lat="46.17664" lon="6.17267">
        <ele>395</ele>
        <time>2019-09-04T09:04:15Z</time>
      </trkpt>
      <trkpt lat="46.17668" lon="6.17267">
        <ele>395</ele>
        <time>2019-09-04T09:04:17Z</time>
      </trkpt>
      <trkpt lat="46.17672" lon="6.17267">
        <ele>395</ele>
        <time>2019-09-04T09:04:19Z</time>
      </trkpt>
      <trkpt lat="46.17677" lon="6.17268">
        <ele>395</ele>
        <time>2019-09-04T09:04:21Z</time>
      </trkpt>
      <trkpt lat="46.17681" lon="6.17268">
        <ele>395</ele>
        <time>2019-09-04T09:04:23Z</time>
      </trkpt>
      <trkpt lat="46.17686" lon="6.17268">
        <ele>395</ele>
        <time>2019-09-04T09:04:25Z</time>
      </trkpt>
      <trkpt lat="46.17689" lon="6.17268">
        <ele>395</ele>
        <time>2019-09-04T09:04:27Z</time>
      </trkpt>
      <trkpt lat="46.17693" lon="6.17267">
        <ele>395</ele>
        <time>2019-09-04T09:04:29Z</time>
      </trkpt>
      <trkpt lat="46.17696" lon="6.17267">
        <ele>395</ele>
        <time>2019-09-04T09:04:31Z</time>
      </trkpt>
      <trkpt lat="46.177" lon="6.17266">
        <ele>395</ele>
        <time>2019-09-04T09:04:33Z</time>
      </trkpt>
      <trkpt lat="46.17704" lon="6.17266">
        <ele>395</ele>
        <time>2019-09-04T09:04:35Z</time>
      </trkpt>
      <trkpt lat="46.17708" lon="6.17266">
        <ele>396</ele>
        <time>2019-09-04T09:04:37Z</time>
      </trkpt>
      <trkpt lat="46.17712" lon="6.17265">
        <ele>396</ele>
        <time>2019-09-04T09:04:39Z</time>
      </trkpt>
      <trkpt lat="46.17715" lon="6.17263">
        <ele>396</ele>
        <time>2019-09-04T09:04:41Z</time>
      </trkpt>
      <trkpt lat="46.17717" lon="6.17259">
        <ele>396</ele>
        <time>2019-09-04T09:04:43Z</time>
      </trkpt>
      <trkpt lat="46.17719" lon="6.17255">
        <ele>396</ele>
        <time>2019-09-04T09:04:45Z</time>
      </trkpt>
      <trkpt lat="46.17721" lon="6.1725">
        <ele>396</ele>
        <time>2019-09-04T09:04:47Z</time>
      </trkpt>
      <trkpt lat="46.17722" lon="6.17245">
        <ele>396</ele>
        <time>2019-09-04T09:04:49Z</time>
      </trkpt>
      <trkpt lat="46.17724" lon="6.17239">
        <ele>396</ele>
        <time>2019-09-04T09:04:51Z</time>
      </trkpt>
      <trkpt lat="46.17725" lon="6.17234">
        <ele>396</ele>
        <time>2019-09-04T09:04:53Z</time>
      </trkpt>
      <trkpt lat="46.17727" lon="6.17229">
        <ele>396</ele>
        <time>2019-09-04T09:04:55Z</time>
      </trkpt>
      <trkpt lat="46.17728" lon="6.17224">
        <ele>396</ele>
        <time>2019-09-04T09:04:57Z</time>
      </trkpt>
      <trkpt lat="46.1773" lon="6.17218">
        <ele>396</ele>
        <time>2019-09-04T09:04:59Z</time>
      </trkpt>
      <trkpt lat="46.17732" lon="6.17213">
        <ele>396</ele>
        <time>2019-09-04T09:05:01Z</time>
      </trkpt>
      <trkpt lat="46.17734" lon="6.17209">
        <ele>396</ele>
        <time>2019-09-04T09:05:03Z</time>
      </trkpt>
      <trkpt lat="46.17737" lon="6.17205">
        <ele>396</ele>
        <time>2019-09-04T09:05:05Z</time>
      </trkpt>
      <trkpt lat="46.1774" lon="6.17204">
        <ele>396</ele>
        <time>2019-09-04T09:05:07Z</time>
      </trkpt>
      <trkpt lat="46.17743" lon="6.17203">
        <ele>396</ele>
        <time>2019-09-04T09:05:09Z</time>
      </trkpt>
      <trkpt lat="46.17746" lon="6.17203">
        <ele>396</ele>
        <time>2019-09-04T09:05:11Z</time>
      </trkpt>
      <trkpt lat="46.1775" lon="6.17204">
        <ele>396</ele>
        <time>2019-09-04T09:05:13Z</time>
      </trkpt>
      <trkpt lat="46.17753" lon="6.17205">
        <ele>396</ele>
        <time>2019-09-04T09:05:15Z</time>
      </trkpt>
      <trkpt lat="46.17757" lon="6.17206">
        <ele>397</ele>
        <time>2019-09-04T09:05:17Z</time>
      </trkpt>
      <trkpt lat="46.1776" lon="6.17208">
        <ele>397</ele>
        <time>2019-09-04T09:05:19Z</time>
      </trkpt>
      <trkpt lat="46.17764" lon="6.1721">
        <ele>397</ele>
        <time>2019-09-04T09:05:21Z</time>
      </trkpt>
      <trkpt lat="46.17767" lon="6.17212">
        <ele>397</ele>
        <time>2019-09-04T09:05:23Z</time>
      </trkpt>
      <trkpt lat="46.1777" lon="6.17214">
        <ele>397</ele>
        <time>2019-09-04T09:05:25Z</time>
      </trkpt>
      <trkpt lat="46.17774" lon="6.17216">
        <ele>398</ele>
        <time>2019-09-04T09:05:27Z</time>
      </trkpt>
      <trkpt lat="46.17777" lon="6.17218">
        <ele>398</ele>
        <time>2019-09-04T09:05:29Z</time>
      </trkpt>
      <trkpt lat="46.17779" lon="6.17221">
        <ele>398</ele>
        <time>2019-09-04T09:05:31Z</time>
      </trkpt>
      <trkpt lat="46.17782" lon="6.17225">
        <ele>398</ele>
        <time>2019-09-04T09:05:33Z</time>
      </trkpt>
      <trkpt lat="46.17784" lon="6.1723">
        <ele>398</ele>
        <time>2019-09-04T09:05:35Z</time>
      </trkpt>
      <trkpt lat="46.17786" lon="6.17235">
        <ele>399</ele>
        <time>2019-09-04T09:05:37Z</time>
      </trkpt>
      <trkpt lat="46.17786" lon="6.1724">
        <ele>399</ele>
        <time>2019-09-04T09:05:39Z</time>
      </trkpt>
      <trkpt lat="46.17788" lon="6.17245">
        <ele>399</ele>
        <time>2019-09-04T09:05:41Z</time>
      </trkpt>
      <trkpt lat="46.1779" lon="6.1725">
        <ele>399</ele>
        <time>2019-09-04T09:05:43Z</time>
      </trkpt>
      <trkpt lat="46.17791" lon="6.17255">
        <ele>399</ele>
        <time>2019-09-04T09:05:45Z</time>
      </trkpt>
      <trkpt lat="46.17793" lon="6.1726">
        <ele>400</ele>
        <time>2019-09-04T09:05:47Z</time>
      </trkpt>
      <trkpt lat="46.17795" lon="6.17264">
        <ele>400</ele>
        <time>2019-09-04T09:05:49Z</time>
      </trkpt>
      <trkpt lat="46.17797" lon="6.17268">
        <ele>401</ele>
        <time>2019-09-04T09:05:51Z</time>
      </trkpt>
      <trkpt lat="46.17799" lon="6.17271">
        <ele>401</ele>
        <time>2019-09-04T09:05:53Z</time>
      </trkpt>
      <trkpt lat="46.17802" lon="6.17273">
        <ele>401</ele>
        <time>2019-09-04T09:05:55Z</time>
      </trkpt>
      <trkpt lat="46.17804" lon="6.17275">
        <ele>401</ele>
        <time>2019-09-04T09:05:57Z</time>
      </trkpt>
      <trkpt lat="46.17807" lon="6.17277">
        <ele>401</ele>
        <time>2019-09-04T09:05:59Z</time>
      </trkpt>
      <trkpt lat="46.1781" lon="6.1728">
        <ele>402</ele>
        <time>2019-09-04T09:06:01Z</time>
      </trkpt>
      <trkpt lat="46.17814" lon="6.17283">
        <ele>402</ele>
        <time>2019-09-04T09:06:03Z</time>
      </trkpt>
      <trkpt lat="46.17817" lon="6.17286">
        <ele>402</ele>
        <time>2019-09-04T09:06:05Z</time>
      </trkpt>
      <trkpt lat="46.17819" lon="6.1729">
        <ele>402</ele>
        <time>2019-09-04T09:06:07Z</time>
      </trkpt>
      <trkpt lat="46.17819" lon="6.17294">
        <ele>402</ele>
        <time>2019-09-04T09:06:09Z</time>
      </trkpt>
      <trkpt lat="46.17817" lon="6.17296">
        <ele>403</ele>
        <time>2019-09-04T09:06:11Z</time>
      </trkpt>
      <trkpt lat="46.17815" lon="6.17297">
        <ele>403</ele>
        <time>2019-09-04T09:06:13Z</time>
      </trkpt>
      <trkpt lat="46.17812" lon="6.17298">
        <ele>403</ele>
        <time>2019-09-04T09:06:15Z</time>
      </trkpt>
      <trkpt lat="46.17809" lon="6.17298">
        <ele>404</ele>
        <time>2019-09-04T09:06:17Z</time>
      </trkpt>
      <trkpt lat="46.17806" lon="6.17299">
        <ele>404</ele>
        <time>2019-09-04T09:06:19Z</time>
      </trkpt>
      <trkpt lat="46.17802" lon="6.17301">
        <ele>404</ele>
        <time>2019-09-04T09:06:21Z</time>
      </trkpt>
      <trkpt lat="46.17799" lon="6.17303">
        <ele>404</ele>
        <time>2019-09-04T09:06:23Z</time>
      </trkpt>
      <trkpt lat="46.17796" lon="6.17305">
        <ele>404</ele>
        <time>2019-09-04T09:06:25Z</time>
      </trkpt>
      <trkpt lat="46.17792" lon="6.17307">
        <ele>405</ele>
        <time>2019-09-04T09:06:27Z</time>
      </trkpt>
      <trkpt lat="46.1779" lon="6.1731">
        <ele>405</ele>
        <time>2019-09-04T09:06:29Z</time>
      </trkpt>
      <trkpt lat="46.17787" lon="6.17314">
        <ele>405</ele>
        <time>2019-09-04T09:06:31Z</time>
      </trkpt>
      <trkpt lat="46.17784" lon="6.17318">
        <ele>405</ele>
        <time>2019-09-04T09:06:33Z</time>
      </trkpt>
      <trkpt lat="46.17781" lon="6.17322">
        <ele>405</ele>
        <time>2019-09-04T09:06:35Z</time>
      </trkpt>
      <trkpt lat="46.17779" lon="6.17326">
        <ele>406</ele>
        <time>2019-09-04T09:06:37Z</time>
      </trkpt>
      <trkpt lat="46.17777" lon="6.17331">
        <ele>406</ele>
        <time>2019-09-04T09:06:39Z</time>
      </trkpt>
      <trkpt lat="46.17775" lon="6.17335">
        <ele>406</ele>
        <time>2019-09-04T09:06:41Z</time>
      </trkpt>
      <trkpt lat="46.17773" lon="6.1734">
        <ele>406</ele>
        <time>2019-09-04T09:06:43Z</time>
      </trkpt>
      <trkpt lat="46.17771" lon="6.17344">
        <ele>406</ele>
        <time>2019-09-04T09:06:45Z</time>
      </trkpt>
      <trkpt lat="46.1777" lon="6.17348">
        <ele>406</ele>
        <time>2019-09-04T09:06:47Z</time>
      </trkpt>
      <trkpt lat="46.17769" lon="6.17353">
        <ele>406</ele>
        <time>2019-09-04T09:06:49Z</time>
      </trkpt>
      <trkpt lat="46.17768" lon="6.17358">
        <ele>407</ele>
        <time>2019-09-04T09:06:51Z</time>
      </trkpt>
      <trkpt lat="46.17768" lon="6.17363">
        <ele>407</ele>
        <time>2019-09-04T09:06:53Z</time>
      </trkpt>
      <trkpt lat="46.17768" lon="6.17368">
        <ele>407</ele>
        <time>2019-09-04T09:06:55Z</time>
      </trkpt>
      <trkpt lat="46.17768" lon="6.17373">
        <ele>407</ele>
        <time>2019-09-04T09:06:57Z</time>
      </trkpt>
      <trkpt lat="46.17768" lon="6.17378">
        <ele>407</ele>
        <time>2019-09-04T09:06:59Z</time>
      </trkpt>
      <trkpt lat="46.17769" lon="6.17382">
        <ele>408</ele>
        <time>2019-09-04T09:07:01Z</time>
      </trkpt>
      <trkpt lat="46.1777" lon="6.17387">
        <ele>408</ele>
        <time>2019-09-04T09:07:03Z</time>
      </trkpt>
      <trkpt lat="46.17771" lon="6.17392">
        <ele>408</ele>
        <time>2019-09-04T09:07:05Z</time>
      </trkpt>
      <trkpt lat="46.17773" lon="6.17396">
        <ele>409</ele>
        <time>2019-09-04T09:07:07Z</time>
      </trkpt>
      <trkpt lat="46.17774" lon="6.174">
        <ele>409</ele>
        <time>2019-09-04T09:07:09Z</time>
      </trkpt>
      <trkpt lat="46.17776" lon="6.17405">
        <ele>409</ele>
        <time>2019-09-04T09:07:11Z</time>
      </trkpt>
      <trkpt lat="46.17777" lon="6.17409">
        <ele>409</ele>
        <time>2019-09-04T09:07:13Z</time>
      </trkpt>
      <trkpt lat="46.17778" lon="6.17414">
        <ele>409</ele>
        <time>2019-09-04T09:07:15Z</time>
      </trkpt>
      <trkpt lat="46.17779" lon="6.17418">
        <ele>410</ele>
        <time>2019-09-04T09:07:17Z</time>
      </trkpt>
      <trkpt lat="46.17781" lon="6.17422">
        <ele>410</ele>
        <time>2019-09-04T09:07:19Z</time>
      </trkpt>
      <trkpt lat="46.17782" lon="6.17426">
        <ele>410</ele>
        <time>2019-09-04T09:07:21Z</time>
      </trkpt>
      <trkpt lat="46.17784" lon="6.1743">
        <ele>410</ele>
        <time>2019-09-04T09:07:23Z</time>
      </trkpt>
      <trkpt lat="46.17786" lon="6.17433">
        <ele>410</ele>
        <time>2019-09-04T09:07:25Z</time>
      </trkpt>
      <trkpt lat="46.17788" lon="6.17436">
        <ele>411</ele>
        <time>2019-09-04T09:07:27Z</time>
      </trkpt>
      <trkpt lat="46.1779" lon="6.17438">
        <ele>411</ele>
        <time>2019-09-04T09:07:29Z</time>
      </trkpt>
      <trkpt lat="46.17792" lon="6.1744">
        <ele>412</ele>
        <time>2019-09-04T09:07:31Z</time>
      </trkpt>
      <trkpt lat="46.17794" lon="6.17443">
        <ele>412</ele>
        <time>2019-09-04T09:07:33Z</time>
      </trkpt>
      <trkpt lat="46.17795" lon="6.17446">
        <ele>412</ele>
        <time>2019-09-04T09:07:35Z</time>
      </trkpt>
      <trkpt lat="46.17797" lon="6.1745">
        <ele>412</ele>
        <time>2019-09-04T09:07:37Z</time>
      </trkpt>
      <trkpt lat="46.17798" lon="6.17452">
        <ele>412</ele>
        <time>2019-09-04T09:07:39Z</time>
      </trkpt>
      <trkpt lat="46.178" lon="6.17456">
        <ele>413</ele>
        <time>2019-09-04T09:07:41Z</time>
      </trkpt>
      <trkpt lat="46.17801" lon="6.1746">
        <ele>413</ele>
        <time>2019-09-04T09:07:43Z</time>
      </trkpt>
      <trkpt lat="46.17803" lon="6.17464">
        <ele>413</ele>
        <time>2019-09-04T09:07:45Z</time>
      </trkpt>
      <trkpt lat="46.17805" lon="6.17468">
        <ele>413</ele>
        <time>2019-09-04T09:07:47Z</time>
      </trkpt>
      <trkpt lat="46.17807" lon="6.17471">
        <ele>413</ele>
        <time>2019-09-04T09:07:49Z</time>
      </trkpt>
      <trkpt lat="46.17809" lon="6.17475">
        <ele>413</ele>
        <time>2019-09-04T09:07:51Z</time>
      </trkpt>
      <trkpt lat="46.1781" lon="6.17479">
        <ele>413</ele>
        <time>2019-09-04T09:07:53Z</time>
      </trkpt>
      <trkpt lat="46.17812" lon="6.17483">
        <ele>413</ele>
        <time>2019-09-04T09:07:55Z</time>
      </trkpt>
      <trkpt lat="46.17813" lon="6.17487">
        <ele>414</ele>
        <time>2019-09-04T09:07:57Z</time>
      </trkpt>
      <trkpt lat="46.17814" lon="6.1749">
        <ele>414</ele>
        <time>2019-09-04T09:07:59Z</time>
      </trkpt>
      <trkpt lat="46.17814" lon="6.17494">
        <ele>414</ele>
        <time>2019-09-04T09:08:01Z</time>
      </trkpt>
      <trkpt lat="46.17815" lon="6.17498">
        <ele>414</ele>
        <time>2019-09-04T09:08:03Z</time>
      </trkpt>
      <trkpt lat="46.17816" lon="6.17502">
        <ele>414</ele>
        <time>2019-09-04T09:08:05Z</time>
      </trkpt>
      <trkpt lat="46.17816" lon="6.17506">
        <ele>414</ele>
        <time>2019-09-04T09:08:07Z</time>
      </trkpt>
      <trkpt lat="46.17817" lon="6.1751">
        <ele>414</ele>
        <time>2019-09-04T09:08:09Z</time>
      </trkpt>
      <trkpt lat="46.17818" lon="6.17514">
        <ele>414</ele>
        <time>2019-09-04T09:08:11Z</time>
      </trkpt>
      <trkpt lat="46.17819" lon="6.17517">
        <ele>414</ele>
        <time>2019-09-04T09:08:13Z</time>
      </trkpt>
      <trkpt lat="46.17819" lon="6.1752">
        <ele>414</ele>
        <time>2019-09-04T09:08:15Z</time>
      </trkpt>
      <trkpt lat="46.1782" lon="6.17523">
        <ele>414</ele>
        <time>2019-09-04T09:08:17Z</time>
      </trkpt>
      <trkpt lat="46.1782" lon="6.17526">
        <ele>414</ele>
        <time>2019-09-04T09:08:19Z</time>
      </trkpt>
      <trkpt lat="46.17821" lon="6.1753">
        <ele>414</ele>
        <time>2019-09-04T09:08:21Z</time>
      </trkpt>
      <trkpt lat="46.17822" lon="6.17533">
        <ele>414</ele>
        <time>2019-09-04T09:08:23Z</time>
      </trkpt>
      <trkpt lat="46.17823" lon="6.17537">
        <ele>414</ele>
        <time>2019-09-04T09:08:25Z</time>
      </trkpt>
      <trkpt lat="46.17824" lon="6.1754">
        <ele>414</ele>
        <time>2019-09-04T09:08:27Z</time>
      </trkpt>
      <trkpt lat="46.17825" lon="6.17544">
        <ele>414</ele>
        <time>2019-09-04T09:08:29Z</time>
      </trkpt>
      <trkpt lat="46.17826" lon="6.17547">
        <ele>414</ele>
        <time>2019-09-04T09:08:31Z</time>
      </trkpt>
      <trkpt lat="46.17827" lon="6.17551">
        <ele>414</ele>
        <time>2019-09-04T09:08:33Z</time>
      </trkpt>
      <trkpt lat="46.17828" lon="6.17555">
        <ele>414</ele>
        <time>2019-09-04T09:08:35Z</time>
      </trkpt>
      <trkpt lat="46.17829" lon="6.17559">
        <ele>414</ele>
        <time>2019-09-04T09:08:37Z</time>
      </trkpt>
      <trkpt lat="46.17831" lon="6.17563">
        <ele>414</ele>
        <time>2019-09-04T09:08:39Z</time>
      </trkpt>
      <trkpt lat="46.17832" lon="6.17567">
        <ele>414</ele>
        <time>2019-09-04T09:08:41Z</time>
      </trkpt>
      <trkpt lat="46.17834" lon="6.17571">
        <ele>414</ele>
        <time>2019-09-04T09:08:43Z</time>
      </trkpt>
      <trkpt lat="46.17836" lon="6.17575">
        <ele>414</ele>
        <time>2019-09-04T09:08:45Z</time>
      </trkpt>
      <trkpt lat="46.17838" lon="6.17579">
        <ele>414</ele>
        <time>2019-09-04T09:08:47Z</time>
      </trkpt>
      <trkpt lat="46.1784" lon="6.17583">
        <ele>414</ele>
        <time>2019-09-04T09:08:49Z</time>
      </trkpt>
      <trkpt lat="46.17842" lon="6.17587">
        <ele>414</ele>
        <time>2019-09-04T09:08:51Z</time>
      </trkpt>
      <trkpt lat="46.17844" lon="6.17591">
        <ele>414</ele>
        <time>2019-09-04T09:08:53Z</time>
      </trkpt>
      <trkpt lat="46.17846" lon="6.17595">
        <ele>414</ele>
        <time>2019-09-04T09:08:55Z</time>
      </trkpt>
      <trkpt lat="46.17847" lon="6.17597">
        <ele>414</ele>
        <time>2019-09-04T09:08:57Z</time>
      </trkpt>
      <trkpt lat="46.17849" lon="6.176">
        <ele>414</ele>
        <time>2019-09-04T09:08:59Z</time>
      </trkpt>
      <trkpt lat="46.1785" lon="6.17602">
        <ele>414</ele>
        <time>2019-09-04T09:09:01Z</time>
      </trkpt>
      <trkpt lat="46.17852" lon="6.17604">
        <ele>413</ele>
        <time>2019-09-04T09:09:03Z</time>
      </trkpt>
      <trkpt lat="46.17853" lon="6.17606">
        <ele>413</ele>
        <time>2019-09-04T09:09:05Z</time>
      </trkpt>
      <trkpt lat="46.17855" lon="6.17609">
        <ele>413</ele>
        <time>2019-09-04T09:09:07Z</time>
      </trkpt>
      <trkpt lat="46.17857" lon="6.17612">
        <ele>413</ele>
        <time>2019-09-04T09:09:09Z</time>
      </trkpt>
      <trkpt lat="46.17858" lon="6.17614">
        <ele>413</ele>
        <time>2019-09-04T09:09:11Z</time>
      </trkpt>
      <trkpt lat="46.1786" lon="6.17616">
        <ele>413</ele>
        <time>2019-09-04T09:09:13Z</time>
      </trkpt>
      <trkpt lat="46.17862" lon="6.17619">
        <ele>413</ele>
        <time>2019-09-04T09:09:15Z</time>
      </trkpt>
      <trkpt lat="46.17865" lon="6.17623">
        <ele>412</ele>
        <time>2019-09-04T09:09:17Z</time>
      </trkpt>
      <trkpt lat="46.17867" lon="6.17626">
        <ele>412</ele>
        <time>2019-09-04T09:09:19Z</time>
      </trkpt>
      <trkpt lat="46.1787" lon="6.17629">
        <ele>412</ele>
        <time>2019-09-04T09:09:21Z</time>
      </trkpt>
      <trkpt lat="46.17873" lon="6.17633">
        <ele>412</ele>
        <time>2019-09-04T09:09:23Z</time>
      </trkpt>
      <trkpt lat="46.17876" lon="6.17637">
        <ele>412</ele>
        <time>2019-09-04T09:09:25Z</time>
      </trkpt>
      <trkpt lat="46.1788" lon="6.17641">
        <ele>412</ele>
        <time>2019-09-04T09:09:27Z</time>
      </trkpt>
      <trkpt lat="46.17884" lon="6.17645">
        <ele>412</ele>
        <time>2019-09-04T09:09:29Z</time>
      </trkpt>
      <trkpt lat="46.17887" lon="6.1765">
        <ele>412</ele>
        <time>2019-09-04T09:09:31Z</time>
      </trkpt>
      <trkpt lat="46.17891" lon="6.17653">
        <ele>412</ele>
        <time>2019-09-04T09:09:33Z</time>
      </trkpt>
      <trkpt lat="46.17895" lon="6.17656">
        <ele>412</ele>
        <time>2019-09-04T09:09:35Z</time>
      </trkpt>
      <trkpt lat="46.17898" lon="6.17657">
        <ele>412</ele>
        <time>2019-09-04T09:09:37Z</time>
      </trkpt>
      <trkpt lat="46.17901" lon="6.17657">
        <ele>412</ele>
        <time>2019-09-04T09:09:39Z</time>
      </trkpt>
      <trkpt lat="46.17904" lon="6.17655">
        <ele>412</ele>
        <time>2019-09-04T09:09:41Z</time>
      </trkpt>
      <trkpt lat="46.17906" lon="6.17653">
        <ele>412</ele>
        <time>2019-09-04T09:09:43Z</time>
      </trkpt>
      <trkpt lat="46.17909" lon="6.1765">
        <ele>412</ele>
        <time>2019-09-04T09:09:45Z</time>
      </trkpt>
      <trkpt lat="46.17912" lon="6.17647">
        <ele>413</ele>
        <time>2019-09-04T09:09:47Z</time>
      </trkpt>
      <trkpt lat="46.17915" lon="6.17644">
        <ele>413</ele>
        <time>2019-09-04T09:09:49Z</time>
      </trkpt>
      <trkpt lat="46.17918" lon="6.1764">
        <ele>413</ele>
        <time>2019-09-04T09:09:51Z</time>
      </trkpt>
      <trkpt lat="46.17921" lon="6.17637">
        <ele>413</ele>
        <time>2019-09-04T09:09:53Z</time>
      </trkpt>
      <trkpt lat="46.17925" lon="6.17634">
        <ele>413</ele>
        <time>2019-09-04T09:09:55Z</time>
      </trkpt>
      <trkpt lat="46.17928" lon="6.1763">
        <ele>413</ele>
        <time>2019-09-04T09:09:57Z</time>
      </trkpt>
      <trkpt lat="46.17932" lon="6.17628">
        <ele>413</ele>
        <time>2019-09-04T09:09:59Z</time>
      </trkpt>
      <trkpt lat="46.17935" lon="6.17625">
        <ele>414</ele>
        <time>2019-09-04T09:10:01Z</time>
      </trkpt>
      <trkpt lat="46.17937" lon="6.17622">
        <ele>414</ele>
        <time>2019-09-04T09:10:03Z</time>
      </trkpt>
      <trkpt lat="46.17939" lon="6.1762">
        <ele>414</ele>
        <time>2019-09-04T09:10:05Z</time>
      </trkpt>
      <trkpt lat="46.17942" lon="6.17617">
        <ele>414</ele>
        <time>2019-09-04T09:10:07Z</time>
      </trkpt>
      <trkpt lat="46.17944" lon="6.17614">
        <ele>414</ele>
        <time>2019-09-04T09:10:09Z</time>
      </trkpt>
      <trkpt lat="46.17946" lon="6.17611">
        <ele>414</ele>
        <time>2019-09-04T09:10:11Z</time>
      </trkpt>
      <trkpt lat="46.17949" lon="6.17608">
        <ele>414</ele>
        <time>2019-09-04T09:10:13Z</time>
      </trkpt>
      <trkpt lat="46.17951" lon="6.17606">
        <ele>414</ele>
        <time>2019-09-04T09:10:15Z</time>
      </trkpt>
      <trkpt lat="46.17954" lon="6.17603">
        <ele>414</ele>
        <time>2019-09-04T09:10:17Z</time>
      </trkpt>
      <trkpt lat="46.17956" lon="6.17601">
        <ele>414</ele>
        <time>2019-09-04T09:10:19Z</time>
      </trkpt>
      <trkpt lat="46.17958" lon="6.17598">
        <ele>414</ele>
        <time>2019-09-04T09:10:21Z</time>
      </trkpt>
      <trkpt lat="46.1796" lon="6.17596">
        <ele>414</ele>
        <time>2019-09-04T09:10:23Z</time>
      </trkpt>
      <trkpt lat="46.17962" lon="6.17593">
        <ele>414</ele>
        <time>2019-09-04T09:10:25Z</time>
      </trkpt>
      <trkpt lat="46.17965" lon="6.1759">
        <ele>414</ele>
        <time>2019-09-04T09:10:27Z</time>
      </trkpt>
      <trkpt lat="46.17967" lon="6.17587">
        <ele>414</ele>
        <time>2019-09-04T09:10:29Z</time>
      </trkpt>
      <trkpt lat="46.1797" lon="6.17584">
        <ele>415</ele>
        <time>2019-09-04T09:10:31Z</time>
      </trkpt>
      <trkpt lat="46.17974" lon="6.17581">
        <ele>415</ele>
        <time>2019-09-04T09:10:33Z</time>
      </trkpt>
      <trkpt lat="46.17977" lon="6.17578">
        <ele>415</ele>
        <time>2019-09-04T09:10:35Z</time>
      </trkpt>
      <trkpt lat="46.17981" lon="6.17575">
        <ele>415</ele>
        <time>2019-09-04T09:10:37Z</time>
      </trkpt>
      <trkpt lat="46.17984" lon="6.17571">
        <ele>415</ele>
        <time>2019-09-04T09:10:39Z</time>
      </trkpt>
      <trkpt lat="46.17987" lon="6.17568">
        <ele>415</ele>
        <time>2019-09-04T09:10:41Z</time>
      </trkpt>
      <trkpt lat="46.17991" lon="6.17565">
        <ele>415</ele>
        <time>2019-09-04T09:10:43Z</time>
      </trkpt>
      <trkpt lat="46.17994" lon="6.17563">
        <ele>415</ele>
        <time>2019-09-04T09:10:45Z</time>
      </trkpt>
      <trkpt lat="46.17997" lon="6.17561">
        <ele>415</ele>
        <time>2019-09-04T09:10:47Z</time>
      </trkpt>
      <trkpt lat="46.18" lon="6.17558">
        <ele>415</ele>
        <time>2019-09-04T09:10:49Z</time>
      </trkpt>
      <trkpt lat="46.18002" lon="6.17554">
        <ele>415</ele>
        <time>2019-09-04T09:10:51Z</time>
      </trkpt>
      <trkpt lat="46.18004" lon="6.17551">
        <ele>415</ele>
        <time>2019-09-04T09:10:53Z</time>
      </trkpt>
      <trkpt lat="46.18005" lon="6.17547">
        <ele>415</ele>
        <time>2019-09-04T09:10:55Z</time>
      </trkpt>
      <trkpt lat="46.18007" lon="6.17542">
        <ele>415</ele>
        <time>2019-09-04T09:10:57Z</time>
      </trkpt>
      <trkpt lat="46.18008" lon="6.17539">
        <ele>415</ele>
        <time>2019-09-04T09:10:59Z</time>
      </trkpt>
      <trkpt lat="46.1801" lon="6.17538">
        <ele>415</ele>
        <time>2019-09-04T09:11:01Z</time>
      </trkpt>
      <trkpt lat="46.1801" lon="6.17539">
        <ele>415</ele>
        <time>2019-09-04T09:11:03Z</time>
      </trkpt>
      <trkpt lat="46.1801" lon="6.17541">
        <ele>415</ele>
        <time>2019-09-04T09:11:05Z</time>
      </trkpt>
      <trkpt lat="46.18011" lon="6.17544">
        <ele>415</ele>
        <time>2019-09-04T09:11:07Z</time>
      </trkpt>
      <trkpt lat="46.18012" lon="6.17546">
        <ele>415</ele>
        <time>2019-09-04T09:11:09Z</time>
      </trkpt>
      <trkpt lat="46.18014" lon="6.17548">
        <ele>416</ele>
        <time>2019-09-04T09:11:11Z</time>
      </trkpt>
      <trkpt lat="46.18016" lon="6.17549">
        <ele>416</ele>
        <time>2019-09-04T09:11:13Z</time>
      </trkpt>
      <trkpt lat="46.18019" lon="6.1755">
        <ele>416</ele>
        <time>2019-09-04T09:11:15Z</time>
      </trkpt>
      <trkpt lat="46.18022" lon="6.17551">
        <ele>416</ele>
        <time>2019-09-04T09:11:17Z</time>
      </trkpt>
      <trkpt lat="46.18025" lon="6.17551">
        <ele>416</ele>
        <time>2019-09-04T09:11:19Z</time>
      </trkpt>
      <trkpt lat="46.18028" lon="6.17552">
        <ele>416</ele>
        <time>2019-09-04T09:11:21Z</time>
      </trkpt>
      <trkpt lat="46.18032" lon="6.17554">
        <ele>416</ele>
        <time>2019-09-04T09:11:23Z</time>
      </trkpt>
      <trkpt lat="46.18035" lon="6.17557">
        <ele>416</ele>
        <time>2019-09-04T09:11:25Z</time>
      </trkpt>
      <trkpt lat="46.18039" lon="6.17561">
        <ele>417</ele>
        <time>2019-09-04T09:11:27Z</time>
      </trkpt>
      <trkpt lat="46.18042" lon="6.17564">
        <ele>417</ele>
        <time>2019-09-04T09:11:29Z</time>
      </trkpt>
      <trkpt lat="46.18045" lon="6.17566">
        <ele>417</ele>
        <time>2019-09-04T09:11:31Z</time>
      </trkpt>
      <trkpt lat="46.18048" lon="6.1757">
        <ele>417</ele>
        <time>2019-09-04T09:11:33Z</time>
      </trkpt>
      <trkpt lat="46.18051" lon="6.17573">
        <ele>417</ele>
        <time>2019-09-04T09:11:35Z</time>
      </trkpt>
      <trkpt lat="46.18054" lon="6.17577">
        <ele>417</ele>
        <time>2019-09-04T09:11:37Z</time>
      </trkpt>
      <trkpt lat="46.18057" lon="6.17581">
        <ele>417</ele>
        <time>2019-09-04T09:11:39Z</time>
      </trkpt>
      <trkpt lat="46.1806" lon="6.17586">
        <ele>417</ele>
        <time>2019-09-04T09:11:41Z</time>
      </trkpt>
      <trkpt lat="46.18062" lon="6.17591">
        <ele>417</ele>
        <time>2019-09-04T09:11:43Z</time>
      </trkpt>
      <trkpt lat="46.18064" lon="6.17595">
        <ele>417</ele>
        <time>2019-09-04T09:11:45Z</time>
      </trkpt>
      <trkpt lat="46.18067" lon="6.176">
        <ele>418</ele>
        <time>2019-09-04T09:11:47Z</time>
      </trkpt>
      <trkpt lat="46.1807" lon="6.17605">
        <ele>418</ele>
        <time>2019-09-04T09:11:49Z</time>
      </trkpt>
      <trkpt lat="46.18073" lon="6.17611">
        <ele>418</ele>
        <time>2019-09-04T09:11:51Z</time>
      </trkpt>
      <trkpt lat="46.18075" lon="6.17616">
        <ele>418</ele>
        <time>2019-09-04T09:11:53Z</time>
      </trkpt>
      <trkpt lat="46.18079" lon="6.17621">
        <ele>418</ele>
        <time>2019-09-04T09:11:55Z</time>
      </trkpt>
      <trkpt lat="46.18082" lon="6.17625">
        <ele>418</ele>
        <time>2019-09-04T09:11:57Z</time>
      </trkpt>
      <trkpt lat="46.18085" lon="6.17629">
        <ele>418</ele>
        <time>2019-09-04T09:11:59Z</time>
      </trkpt>
      <trkpt lat="46.18088" lon="6.17633">
        <ele>418</ele>
        <time>2019-09-04T09:12:01Z</time>
      </trkpt>
      <trkpt lat="46.18091" lon="6.17637">
        <ele>418</ele>
        <time>2019-09-04T09:12:03Z</time>
      </trkpt>
      <trkpt lat="46.18093" lon="6.17641">
        <ele>418</ele>
        <time>2019-09-04T09:12:05Z</time>
      </trkpt>
      <trkpt lat="46.18095" lon="6.17645">
        <ele>418</ele>
        <time>2019-09-04T09:12:07Z</time>
      </trkpt>
      <trkpt lat="46.18097" lon="6.17649">
        <ele>418</ele>
        <time>2019-09-04T09:12:09Z</time>
      </trkpt>
      <trkpt lat="46.18099" lon="6.17653">
        <ele>419</ele>
        <time>2019-09-04T09:12:11Z</time>
      </trkpt>
      <trkpt lat="46.18102" lon="6.17658">
        <ele>419</ele>
        <time>2019-09-04T09:12:13Z</time>
      </trkpt>
      <trkpt lat="46.18105" lon="6.17663">
        <ele>419</ele>
        <time>2019-09-04T09:12:15Z</time>
      </trkpt>
      <trkpt lat="46.18108" lon="6.17668">
        <ele>419</ele>
        <time>2019-09-04T09:12:17Z</time>
      </trkpt>
      <trkpt lat="46.18111" lon="6.17672">
        <ele>419</ele>
        <time>2019-09-04T09:12:19Z</time>
      </trkpt>
      <trkpt lat="46.18115" lon="6.17676">
        <ele>419</ele>
        <time>2019-09-04T09:12:21Z</time>
      </trkpt>
      <trkpt lat="46.18119" lon="6.17681">
        <ele>419</ele>
        <time>2019-09-04T09:12:23Z</time>
      </trkpt>
      <trkpt lat="46.18123" lon="6.17685">
        <ele>419</ele>
        <time>2019-09-04T09:12:25Z</time>
      </trkpt>
      <trkpt lat="46.18127" lon="6.1769">
        <ele>419</ele>
        <time>2019-09-04T09:12:27Z</time>
      </trkpt>
      <trkpt lat="46.1813" lon="6.17694">
        <ele>419</ele>
        <time>2019-09-04T09:12:29Z</time>
      </trkpt>
      <trkpt lat="46.18133" lon="6.17697">
        <ele>419</ele>
        <time>2019-09-04T09:12:31Z</time>
      </trkpt>
      <trkpt lat="46.18136" lon="6.17701">
        <ele>419</ele>
        <time>2019-09-04T09:12:33Z</time>
      </trkpt>
      <trkpt lat="46.1814" lon="6.17704">
        <ele>419</ele>
        <time>2019-09-04T09:12:35Z</time>
      </trkpt>
      <trkpt lat="46.18143" lon="6.17708">
        <ele>419</ele>
        <time>2019-09-04T09:12:37Z</time>
      </trkpt>
      <trkpt lat="46.18146" lon="6.17712">
        <ele>419</ele>
        <time>2019-09-04T09:12:39Z</time>
      </trkpt>
      <trkpt lat="46.1815" lon="6.17714">
        <ele>419</ele>
        <time>2019-09-04T09:12:41Z</time>
      </trkpt>
      <trkpt lat="46.18153" lon="6.17717">
        <ele>419</ele>
        <time>2019-09-04T09:12:43Z</time>
      </trkpt>
      <trkpt lat="46.18156" lon="6.17718">
        <ele>419</ele>
        <time>2019-09-04T09:12:45Z</time>
      </trkpt>
      <trkpt lat="46.1816" lon="6.1772">
        <ele>419</ele>
        <time>2019-09-04T09:12:47Z</time>
      </trkpt>
      <trkpt lat="46.18163" lon="6.17722">
        <ele>419</ele>
        <time>2019-09-04T09:12:49Z</time>
      </trkpt>
      <trkpt lat="46.18167" lon="6.17724">
        <ele>419</ele>
        <time>2019-09-04T09:12:51Z</time>
      </trkpt>
      <trkpt lat="46.1817" lon="6.17727">
        <ele>419</ele>
        <time>2019-09-04T09:12:53Z</time>
      </trkpt>
      <trkpt lat="46.18174" lon="6.1773">
        <ele>419</ele>
        <time>2019-09-04T09:12:55Z</time>
      </trkpt>
      <trkpt lat="46.18179" lon="6.17733">
        <ele>419</ele>
        <time>2019-09-04T09:12:57Z</time>
      </trkpt>
      <trkpt lat="46.18183" lon="6.17736">
        <ele>419</ele>
        <time>2019-09-04T09:12:59Z</time>
      </trkpt>
      <trkpt lat="46.18187" lon="6.17738">
        <ele>420</ele>
        <time>2019-09-04T09:13:01Z</time>
      </trkpt>
      <trkpt lat="46.18191" lon="6.17741">
        <ele>420</ele>
        <time>2019-09-04T09:13:03Z</time>
      </trkpt>
      <trkpt lat="46.18195" lon="6.17743">
        <ele>420</ele>
        <time>2019-09-04T09:13:05Z</time>
      </trkpt>
      <trkpt lat="46.18198" lon="6.17746">
        <ele>420</ele>
        <time>2019-09-04T09:13:07Z</time>
      </trkpt>
      <trkpt lat="46.18202" lon="6.17748">
        <ele>420</ele>
        <time>2019-09-04T09:13:09Z</time>
      </trkpt>
      <trkpt lat="46.18205" lon="6.1775">
        <ele>420</ele>
        <time>2019-09-04T09:13:11Z</time>
      </trkpt>
      <trkpt lat="46.18209" lon="6.17753">
        <ele>420</ele>
        <time>2019-09-04T09:13:13Z</time>
      </trkpt>
      <trkpt lat="46.18213" lon="6.17756">
        <ele>420</ele>
        <time>2019-09-04T09:13:15Z</time>
      </trkpt>
      <trkpt lat="46.18217" lon="6.17759">
        <ele>420</ele>
        <time>2019-09-04T09:13:17Z</time>
      </trkpt>
      <trkpt lat="46.1822" lon="6.17762">
        <ele>420</ele>
        <time>2019-09-04T09:13:19Z</time>
      </trkpt>
      <trkpt lat="46.18223" lon="6.17765">
        <ele>420</ele>
        <time>2019-09-04T09:13:21Z</time>
      </trkpt>
      <trkpt lat="46.18227" lon="6.17769">
        <ele>420</ele>
        <time>2019-09-04T09:13:23Z</time>
      </trkpt>
      <trkpt lat="46.1823" lon="6.17772">
        <ele>420</ele>
        <time>2019-09-04T09:13:25Z</time>
      </trkpt>
      <trkpt lat="46.18234" lon="6.17776">
        <ele>420</ele>
        <time>2019-09-04T09:13:27Z</time>
      </trkpt>
      <trkpt lat="46.18237" lon="6.17779">
        <ele>420</ele>
        <time>2019-09-04T09:13:29Z</time>
      </trkpt>
      <trkpt lat="46.18241" lon="6.17782">
        <ele>420</ele>
        <time>2019-09-04T09:13:31Z</time>
      </trkpt>
      <trkpt lat="46.18244" lon="6.17786">
        <ele>419</ele>
        <time>2019-09-04T09:13:33Z</time>
      </trkpt>
      <trkpt lat="46.18247" lon="6.17789">
        <ele>419</ele>
        <time>2019-09-04T09:13:35Z</time>
      </trkpt>
      <trkpt lat="46.1825" lon="6.17792">
        <ele>419</ele>
        <time>2019-09-04T09:13:37Z</time>
      </trkpt>
      <trkpt lat="46.18254" lon="6.17795">
        <ele>419</ele>
        <time>2019-09-04T09:13:39Z</time>
      </trkpt>
      <trkpt lat="46.18258" lon="6.17799">
        <ele>419</ele>
        <time>2019-09-04T09:13:41Z</time>
      </trkpt>
      <trkpt lat="46.18261" lon="6.17802">
        <ele>419</ele>
        <time>2019-09-04T09:13:43Z</time>
      </trkpt>
      <trkpt lat="46.18264" lon="6.17806">
        <ele>419</ele>
        <time>2019-09-04T09:13:45Z</time>
      </trkpt>
      <trkpt lat="46.18267" lon="6.17809">
        <ele>418</ele>
        <time>2019-09-04T09:13:47Z</time>
      </trkpt>
      <trkpt lat="46.1827" lon="6.17812">
        <ele>418</ele>
        <time>2019-09-04T09:13:49Z</time>
      </trkpt>
      <trkpt lat="46.18273" lon="6.17815">
        <ele>418</ele>
        <time>2019-09-04T09:13:51Z</time>
      </trkpt>
      <trkpt lat="46.18276" lon="6.17817">
        <ele>418</ele>
        <time>2019-09-04T09:13:53Z</time>
      </trkpt>
      <trkpt lat="46.18278" lon="6.17819">
        <ele>418</ele>
        <time>2019-09-04T09:13:55Z</time>
      </trkpt>
      <trkpt lat="46.18281" lon="6.17819">
        <ele>418</ele>
        <time>2019-09-04T09:13:57Z</time>
      </trkpt>
      <trkpt lat="46.18283" lon="6.17816">
        <ele>418</ele>
        <time>2019-09-04T09:13:59Z</time>
      </trkpt>
      <trkpt lat="46.18285" lon="6.17812">
        <ele>418</ele>
        <time>2019-09-04T09:14:01Z</time>
      </trkpt>
      <trkpt lat="46.18286" lon="6.17807">
        <ele>418</ele>
        <time>2019-09-04T09:14:03Z</time>
      </trkpt>
      <trkpt lat="46.18288" lon="6.17801">
        <ele>418</ele>
        <time>2019-09-04T09:14:05Z</time>
      </trkpt>
      <trkpt lat="46.1829" lon="6.17795">
        <ele>418</ele>
        <time>2019-09-04T09:14:07Z</time>
      </trkpt>
      <trkpt lat="46.18292" lon="6.17789">
        <ele>418</ele>
        <time>2019-09-04T09:14:09Z</time>
      </trkpt>
      <trkpt lat="46.18294" lon="6.17784">
        <ele>418</ele>
        <time>2019-09-04T09:14:11Z</time>
      </trkpt>
      <trkpt lat="46.18296" lon="6.17778">
        <ele>418</ele>
        <time>2019-09-04T09:14:13Z</time>
      </trkpt>
      <trkpt lat="46.18297" lon="6.17773">
        <ele>418</ele>
        <time>2019-09-04T09:14:15Z</time>
      </trkpt>
      <trkpt lat="46.18299" lon="6.17768">
        <ele>418</ele>
        <time>2019-09-04T09:14:17Z</time>
      </trkpt>
      <trkpt lat="46.183" lon="6.17762">
        <ele>418</ele>
        <time>2019-09-04T09:14:19Z</time>
      </trkpt>
      <trkpt lat="46.18301" lon="6.17757">
        <ele>419</ele>
        <time>2019-09-04T09:14:21Z</time>
      </trkpt>
      <trkpt lat="46.18302" lon="6.17751">
        <ele>419</ele>
        <time>2019-09-04T09:14:23Z</time>
      </trkpt>
      <trkpt lat="46.18303" lon="6.17745">
        <ele>419</ele>
        <time>2019-09-04T09:14:25Z</time>
      </trkpt>
      <trkpt lat="46.18304" lon="6.17739">
        <ele>419</ele>
        <time>2019-09-04T09:14:27Z</time>
      </trkpt>
      <trkpt lat="46.18306" lon="6.17733">
        <ele>419</ele>
        <time>2019-09-04T09:14:29Z</time>
      </trkpt>
      <trkpt lat="46.18307" lon="6.17727">
        <ele>419</ele>
        <time>2019-09-04T09:14:31Z</time>
      </trkpt>
      <trkpt lat="46.18308" lon="6.17722">
        <ele>419</ele>
        <time>2019-09-04T09:14:33Z</time>
      </trkpt>
      <trkpt lat="46.18309" lon="6.17717">
        <ele>419</ele>
        <time>2019-09-04T09:14:35Z</time>
      </trkpt>
      <trkpt lat="46.1831" lon="6.17712">
        <ele>419</ele>
        <time>2019-09-04T09:14:37Z</time>
      </trkpt>
      <trkpt lat="46.18311" lon="6.17706">
        <ele>419</ele>
        <time>2019-09-04T09:14:39Z</time>
      </trkpt>
      <trkpt lat="46.18312" lon="6.17701">
        <ele>419</ele>
        <time>2019-09-04T09:14:41Z</time>
      </trkpt>
      <trkpt lat="46.18313" lon="6.17695">
        <ele>419</ele>
        <time>2019-09-04T09:14:43Z</time>
      </trkpt>
      <trkpt lat="46.18315" lon="6.1769">
        <ele>419</ele>
        <time>2019-09-04T09:14:45Z</time>
      </trkpt>
      <trkpt lat="46.18316" lon="6.17684">
        <ele>419</ele>
        <time>2019-09-04T09:14:47Z</time>
      </trkpt>
      <trkpt lat="46.18317" lon="6.17678">
        <ele>419</ele>
        <time>2019-09-04T09:14:49Z</time>
      </trkpt>
      <trkpt lat="46.18318" lon="6.17672">
        <ele>419</ele>
        <time>2019-09-04T09:14:51Z</time>
      </trkpt>
      <trkpt lat="46.18318" lon="6.17667">
        <ele>418</ele>
        <time>2019-09-04T09:14:53Z</time>
      </trkpt>
      <trkpt lat="46.18319" lon="6.17663">
        <ele>418</ele>
        <time>2019-09-04T09:14:55Z</time>
      </trkpt>
      <trkpt lat="46.1832" lon="6.17659">
        <ele>418</ele>
        <time>2019-09-04T09:14:57Z</time>
      </trkpt>
      <trkpt lat="46.18321" lon="6.17654">
        <ele>418</ele>
        <time>2019-09-04T09:14:59Z</time>
      </trkpt>
      <trkpt lat="46.18323" lon="6.17649">
        <ele>418</ele>
        <time>2019-09-04T09:15:01Z</time>
      </trkpt>
      <trkpt lat="46.18324" lon="6.17643">
        <ele>418</ele>
        <time>2019-09-04T09:15:03Z</time>
      </trkpt>
      <trkpt lat="46.18325" lon="6.17637">
        <ele>418</ele>
        <time>2019-09-04T09:15:05Z</time>
      </trkpt>
      <trkpt lat="46.18326" lon="6.17632">
        <ele>418</ele>
        <time>2019-09-04T09:15:07Z</time>
      </trkpt>
      <trkpt lat="46.18328" lon="6.17625">
        <ele>418</ele>
        <time>2019-09-04T09:15:09Z</time>
      </trkpt>
      <trkpt lat="46.1833" lon="6.1762">
        <ele>418</ele>
        <time>2019-09-04T09:15:11Z</time>
      </trkpt>
      <trkpt lat="46.18332" lon="6.17614">
        <ele>417</ele>
        <time>2019-09-04T09:15:13Z</time>
      </trkpt>
      <trkpt lat="46.18334" lon="6.17609">
        <ele>417</ele>
        <time>2019-09-04T09:15:15Z</time>
      </trkpt>
      <trkpt lat="46.18337" lon="6.17605">
        <ele>417</ele>
        <time>2019-09-04T09:15:17Z</time>
      </trkpt>
      <trkpt lat="46.18339" lon="6.176">
        <ele>417</ele>
        <time>2019-09-04T09:15:19Z</time>
      </trkpt>
      <trkpt lat="46.18341" lon="6.17596">
        <ele>417</ele>
        <time>2019-09-04T09:15:21Z</time>
      </trkpt>
      <trkpt lat="46.18343" lon="6.17592">
        <ele>417</ele>
        <time>2019-09-04T09:15:23Z</time>
      </trkpt>
      <trkpt lat="46.18345" lon="6.17587">
        <ele>417</ele>
        <time>2019-09-04T09:15:25Z</time>
      </trkpt>
      <trkpt lat="46.18347" lon="6.17582">
        <ele>417</ele>
        <time>2019-09-04T09:15:27Z</time>
      </trkpt>
      <trkpt lat="46.18349" lon="6.17577">
        <ele>417</ele>
        <time>2019-09-04T09:15:29Z</time>
      </trkpt>
      <trkpt lat="46.18351" lon="6.17572">
        <ele>417</ele>
        <time>2019-09-04T09:15:31Z</time>
      </trkpt>
      <trkpt lat="46.18353" lon="6.17568">
        <ele>416</ele>
        <time>2019-09-04T09:15:33Z</time>
      </trkpt>
      <trkpt lat="46.18355" lon="6.17564">
        <ele>416</ele>
        <time>2019-09-04T09:15:35Z</time>
      </trkpt>
      <trkpt lat="46.18357" lon="6.17559">
        <ele>416</ele>
        <time>2019-09-04T09:15:37Z</time>
      </trkpt>
      <trkpt lat="46.18359" lon="6.17555">
        <ele>416</ele>
        <time>2019-09-04T09:15:39Z</time>
      </trkpt>
      <trkpt lat="46.18361" lon="6.1755">
        <ele>416</ele>
        <time>2019-09-04T09:15:41Z</time>
      </trkpt>
      <trkpt lat="46.18364" lon="6.17544">
        <ele>416</ele>
        <time>2019-09-04T09:15:43Z</time>
      </trkpt>
      <trkpt lat="46.18366" lon="6.17537">
        <ele>416</ele>
        <time>2019-09-04T09:15:45Z</time>
      </trkpt>
      <trkpt lat="46.18368" lon="6.17532">
        <ele>416</ele>
        <time>2019-09-04T09:15:47Z</time>
      </trkpt>
      <trkpt lat="46.18371" lon="6.17527">
        <ele>416</ele>
        <time>2019-09-04T09:15:49Z</time>
      </trkpt>
      <trkpt lat="46.18373" lon="6.17523">
        <ele>416</ele>
        <time>2019-09-04T09:15:51Z</time>
      </trkpt>
      <trkpt lat="46.18375" lon="6.17518">
        <ele>416</ele>
        <time>2019-09-04T09:15:53Z</time>
      </trkpt>
      <trkpt lat="46.18377" lon="6.17513">
        <ele>416</ele>
        <time>2019-09-04T09:15:55Z</time>
      </trkpt>
      <trkpt lat="46.18379" lon="6.17507">
        <ele>416</ele>
        <time>2019-09-04T09:15:57Z</time>
      </trkpt>
      <trkpt lat="46.18381" lon="6.17502">
        <ele>416</ele>
        <time>2019-09-04T09:15:59Z</time>
      </trkpt>
      <trkpt lat="46.18384" lon="6.17496">
        <ele>416</ele>
        <time>2019-09-04T09:16:01Z</time>
      </trkpt>
      <trkpt lat="46.18386" lon="6.17491">
        <ele>415</ele>
        <time>2019-09-04T09:16:03Z</time>
      </trkpt>
      <trkpt lat="46.18389" lon="6.17485">
        <ele>415</ele>
        <time>2019-09-04T09:16:05Z</time>
      </trkpt>
      <trkpt lat="46.18392" lon="6.1748">
        <ele>415</ele>
        <time>2019-09-04T09:16:07Z</time>
      </trkpt>
      <trkpt lat="46.18394" lon="6.17475">
        <ele>415</ele>
        <time>2019-09-04T09:16:09Z</time>
      </trkpt>
      <trkpt lat="46.18397" lon="6.1747">
        <ele>415</ele>
        <time>2019-09-04T09:16:11Z</time>
      </trkpt>
      <trkpt lat="46.18399" lon="6.17465">
        <ele>415</ele>
        <time>2019-09-04T09:16:13Z</time>
      </trkpt>
      <trkpt lat="46.18401" lon="6.1746">
        <ele>415</ele>
        <time>2019-09-04T09:16:15Z</time>
      </trkpt>
      <trkpt lat="46.18404" lon="6.17455">
        <ele>414</ele>
        <time>2019-09-04T09:16:17Z</time>
      </trkpt>
      <trkpt lat="46.18407" lon="6.17451">
        <ele>414</ele>
        <time>2019-09-04T09:16:19Z</time>
      </trkpt>
      <trkpt lat="46.18409" lon="6.17446">
        <ele>414</ele>
        <time>2019-09-04T09:16:21Z</time>
      </trkpt>
      <trkpt lat="46.18412" lon="6.17442">
        <ele>414</ele>
        <time>2019-09-04T09:16:23Z</time>
      </trkpt>
      <trkpt lat="46.18415" lon="6.17438">
        <ele>414</ele>
        <time>2019-09-04T09:16:25Z</time>
      </trkpt>
      <trkpt lat="46.18418" lon="6.17433">
        <ele>413</ele>
        <time>2019-09-04T09:16:27Z</time>
      </trkpt>
      <trkpt lat="46.18421" lon="6.17428">
        <ele>413</ele>
        <time>2019-09-04T09:16:29Z</time>
      </trkpt>
      <trkpt lat="46.18424" lon="6.17423">
        <ele>413</ele>
        <time>2019-09-04T09:16:31Z</time>
      </trkpt>
      <trkpt lat="46.18427" lon="6.17418">
        <ele>413</ele>
        <time>2019-09-04T09:16:33Z</time>
      </trkpt>
      <trkpt lat="46.1843" lon="6.17413">
        <ele>413</ele>
        <time>2019-09-04T09:16:35Z</time>
      </trkpt>
      <trkpt lat="46.18433" lon="6.17409">
        <ele>413</ele>
        <time>2019-09-04T09:16:37Z</time>
      </trkpt>
      <trkpt lat="46.18436" lon="6.17404">
        <ele>413</ele>
        <time>2019-09-04T09:16:39Z</time>
      </trkpt>
      <trkpt lat="46.1844" lon="6.17398">
        <ele>413</ele>
        <time>2019-09-04T09:16:41Z</time>
      </trkpt>
      <trkpt lat="46.18442" lon="6.17393">
        <ele>412</ele>
        <time>2019-09-04T09:16:43Z</time>
      </trkpt>
      <trkpt lat="46.18445" lon="6.17389">
        <ele>412</ele>
        <time>2019-09-04T09:16:45Z</time>
      </trkpt>
      <trkpt lat="46.18446" lon="6.17384">
        <ele>412</ele>
        <time>2019-09-04T09:16:47Z</time>
      </trkpt>
      <trkpt lat="46.18447" lon="6.17379">
        <ele>412</ele>
        <time>2019-09-04T09:16:49Z</time>
      </trkpt>
      <trkpt lat="46.18447" lon="6.17374">
        <ele>412</ele>
        <time>2019-09-04T09:16:51Z</time>
      </trkpt>
      <trkpt lat="46.18445" lon="6.17371">
        <ele>412</ele>
        <time>2019-09-04T09:16:53Z</time>
      </trkpt>
      <trkpt lat="46.18441" lon="6.17368">
        <ele>412</ele>
        <time>2019-09-04T09:16:55Z</time>
      </trkpt>
      <trkpt lat="46.18437" lon="6.17365">
        <ele>412</ele>
        <time>2019-09-04T09:16:57Z</time>
      </trkpt>
      <trkpt lat="46.18433" lon="6.17362">
        <ele>412</ele>
        <time>2019-09-04T09:16:59Z</time>
      </trkpt>
      <trkpt lat="46.18428" lon="6.17361">
        <ele>412</ele>
        <time>2019-09-04T09:17:01Z</time>
      </trkpt>
      <trkpt lat="46.18424" lon="6.17359">
        <ele>411</ele>
        <time>2019-09-04T09:17:03Z</time>
      </trkpt>
      <trkpt lat="46.18419" lon="6.17358">
        <ele>411</ele>
        <time>2019-09-04T09:17:05Z</time>
      </trkpt>
      <trkpt lat="46.18415" lon="6.17357">
        <ele>411</ele>
        <time>2019-09-04T09:17:07Z</time>
      </trkpt>
      <trkpt lat="46.18411" lon="6.17356">
        <ele>411</ele>
        <time>2019-09-04T09:17:09Z</time>
      </trkpt>
      <trkpt lat="46.18408" lon="6.17355">
        <ele>411</ele>
        <time>2019-09-04T09:17:11Z</time>
      </trkpt>
      <trkpt lat="46.18404" lon="6.17354">
        <ele>411</ele>
        <time>2019-09-04T09:17:13Z</time>
      </trkpt>
      <trkpt lat="46.184" lon="6.17353">
        <ele>411</ele>
        <time>2019-09-04T09:17:15Z</time>
      </trkpt>
      <trkpt lat="46.18396" lon="6.17351">
        <ele>411</ele>
        <time>2019-09-04T09:17:17Z</time>
      </trkpt>
      <trkpt lat="46.18393" lon="6.1735">
        <ele>411</ele>
        <time>2019-09-04T09:17:19Z</time>
      </trkpt>
      <trkpt lat="46.1839" lon="6.17349">
        <ele>411</ele>
        <time>2019-09-04T09:17:21Z</time>
      </trkpt>
      <trkpt lat="46.18386" lon="6.17348">
        <ele>411</ele>
        <time>2019-09-04T09:17:23Z</time>
      </trkpt>
      <trkpt lat="46.18382" lon="6.17347">
        <ele>411</ele>
        <time>2019-09-04T09:17:25Z</time>
      </trkpt>
      <trkpt lat="46.18378" lon="6.17346">
        <ele>411</ele>
        <time>2019-09-04T09:17:27Z</time>
      </trkpt>
      <trkpt lat="46.18375" lon="6.17345">
        <ele>411</ele>
        <time>2019-09-04T09:17:29Z</time>
      </trkpt>
      <trkpt lat="46.18371" lon="6.17344">
        <ele>412</ele>
        <time>2019-09-04T09:17:31Z</time>
      </trkpt>
      <trkpt lat="46.18368" lon="6.17343">
        <ele>412</ele>
        <time>2019-09-04T09:17:33Z</time>
      </trkpt>
      <trkpt lat="46.18364" lon="6.17342">
        <ele>412</ele>
        <time>2019-09-04T09:17:35Z</time>
      </trkpt>
      <trkpt lat="46.1836" lon="6.17341">
        <ele>412</ele>
        <time>2019-09-04T09:17:37Z</time>
      </trkpt>
      <trkpt lat="46.18356" lon="6.17339">
        <ele>412</ele>
        <time>2019-09-04T09:17:39Z</time>
      </trkpt>
      <trkpt lat="46.18353" lon="6.17338">
        <ele>412</ele>
        <time>2019-09-04T09:17:41Z</time>
      </trkpt>
      <trkpt lat="46.18349" lon="6.17337">
        <ele>412</ele>
        <time>2019-09-04T09:17:43Z</time>
      </trkpt>
      <trkpt lat="46.18345" lon="6.17335">
        <ele>412</ele>
        <time>2019-09-04T09:17:45Z</time>
      </trkpt>
      <trkpt lat="46.18341" lon="6.17334">
        <ele>413</ele>
        <time>2019-09-04T09:17:47Z</time>
      </trkpt>
      <trkpt lat="46.18337" lon="6.17333">
        <ele>413</ele>
        <time>2019-09-04T09:17:49Z</time>
      </trkpt>
      <trkpt lat="46.18333" lon="6.17332">
        <ele>413</ele>
        <time>2019-09-04T09:17:51Z</time>
      </trkpt>
      <trkpt lat="46.1833" lon="6.17331">
        <ele>413</ele>
        <time>2019-09-04T09:17:53Z</time>
      </trkpt>
      <trkpt lat="46.18327" lon="6.1733">
        <ele>413</ele>
        <time>2019-09-04T09:17:55Z</time>
      </trkpt>
      <trkpt lat="46.18323" lon="6.17329">
        <ele>414</ele>
        <time>2019-09-04T09:17:57Z</time>
      </trkpt>
      <trkpt lat="46.1832" lon="6.17327">
        <ele>414</ele>
        <time>2019-09-04T09:17:59Z</time>
      </trkpt>
      <trkpt lat="46.18316" lon="6.17325">
        <ele>414</ele>
        <time>2019-09-04T09:18:01Z</time>
      </trkpt>
      <trkpt lat="46.18312" lon="6.17324">
        <ele>414</ele>
        <time>2019-09-04T09:18:03Z</time>
      </trkpt>
      <trkpt lat="46.18307" lon="6.17323">
        <ele>414</ele>
        <time>2019-09-04T09:18:05Z</time>
      </trkpt>
      <trkpt lat="46.18302" lon="6.17322">
        <ele>414</ele>
        <time>2019-09-04T09:18:07Z</time>
      </trkpt>
      <trkpt lat="46.18296" lon="6.17321">
        <ele>414</ele>
        <time>2019-09-04T09:18:09Z</time>
      </trkpt>
      <trkpt lat="46.18291" lon="6.1732">
        <ele>414</ele>
        <time>2019-09-04T09:18:11Z</time>
      </trkpt>
      <trkpt lat="46.18287" lon="6.1732">
        <ele>414</ele>
        <time>2019-09-04T09:18:13Z</time>
      </trkpt>
      <trkpt lat="46.18282" lon="6.1732">
        <ele>414</ele>
        <time>2019-09-04T09:18:15Z</time>
      </trkpt>
      <trkpt lat="46.18278" lon="6.1732">
        <ele>414</ele>
        <time>2019-09-04T09:18:17Z</time>
      </trkpt>
      <trkpt lat="46.18275" lon="6.1732">
        <ele>414</ele>
        <time>2019-09-04T09:18:19Z</time>
      </trkpt>
      <trkpt lat="46.18271" lon="6.17319">
        <ele>414</ele>
        <time>2019-09-04T09:18:21Z</time>
      </trkpt>
      <trkpt lat="46.18267" lon="6.17319">
        <ele>414</ele>
        <time>2019-09-04T09:18:23Z</time>
      </trkpt>
      <trkpt lat="46.18263" lon="6.1732">
        <ele>414</ele>
        <time>2019-09-04T09:18:25Z</time>
      </trkpt>
      <trkpt lat="46.18259" lon="6.1732">
        <ele>415</ele>
        <time>2019-09-04T09:18:27Z</time>
      </trkpt>
      <trkpt lat="46.18254" lon="6.1732">
        <ele>415</ele>
        <time>2019-09-04T09:18:29Z</time>
      </trkpt>
      <trkpt lat="46.1825" lon="6.17321">
        <ele>415</ele>
        <time>2019-09-04T09:18:31Z</time>
      </trkpt>
      <trkpt lat="46.18247" lon="6.17321">
        <ele>415</ele>
        <time>2019-09-04T09:18:33Z</time>
      </trkpt>
      <trkpt lat="46.18243" lon="6.17322">
        <ele>415</ele>
        <time>2019-09-04T09:18:35Z</time>
      </trkpt>
      <trkpt lat="46.18239" lon="6.17323">
        <ele>415</ele>
        <time>2019-09-04T09:18:37Z</time>
      </trkpt>
      <trkpt lat="46.18236" lon="6.17323">
        <ele>415</ele>
        <time>2019-09-04T09:18:39Z</time>
      </trkpt>
      <trkpt lat="46.18232" lon="6.17323">
        <ele>415</ele>
        <time>2019-09-04T09:18:41Z</time>
      </trkpt>
      <trkpt lat="46.18228" lon="6.17324">
        <ele>415</ele>
        <time>2019-09-04T09:18:43Z</time>
      </trkpt>
      <trkpt lat="46.18224" lon="6.17324">
        <ele>415</ele>
        <time>2019-09-04T09:18:45Z</time>
      </trkpt>
      <trkpt lat="46.1822" lon="6.17325">
        <ele>416</ele>
        <time>2019-09-04T09:18:47Z</time>
      </trkpt>
      <trkpt lat="46.18217" lon="6.17327">
        <ele>416</ele>
        <time>2019-09-04T09:18:49Z</time>
      </trkpt>
      <trkpt lat="46.18214" lon="6.17328">
        <ele>416</ele>
        <time>2019-09-04T09:18:51Z</time>
      </trkpt>
      <trkpt lat="46.18211" lon="6.17329">
        <ele>416</ele>
        <time>2019-09-04T09:18:53Z</time>
      </trkpt>
      <trkpt lat="46.18209" lon="6.1733">
        <ele>416</ele>
        <time>2019-09-04T09:18:55Z</time>
      </trkpt>
      <trkpt lat="46.18205" lon="6.17332">
        <ele>416</ele>
        <time>2019-09-04T09:18:57Z</time>
      </trkpt>
      <trkpt lat="46.18202" lon="6.17334">
        <ele>416</ele>
        <time>2019-09-04T09:18:59Z</time>
      </trkpt>
      <trkpt lat="46.18199" lon="6.17336">
        <ele>416</ele>
        <time>2019-09-04T09:19:01Z</time>
      </trkpt>
      <trkpt lat="46.18195" lon="6.17338">
        <ele>416</ele>
        <time>2019-09-04T09:19:03Z</time>
      </trkpt>
      <trkpt lat="46.18191" lon="6.17339">
        <ele>416</ele>
        <time>2019-09-04T09:19:05Z</time>
      </trkpt>
      <trkpt lat="46.18186" lon="6.17341">
        <ele>416</ele>
        <time>2019-09-04T09:19:07Z</time>
      </trkpt>
      <trkpt lat="46.18182" lon="6.17343">
        <ele>416</ele>
        <time>2019-09-04T09:19:09Z</time>
      </trkpt>
      <trkpt lat="46.18178" lon="6.17346">
        <ele>417</ele>
        <time>2019-09-04T09:19:11Z</time>
      </trkpt>
      <trkpt lat="46.18174" lon="6.1735">
        <ele>417</ele>
        <time>2019-09-04T09:19:13Z</time>
      </trkpt>
      <trkpt lat="46.18169" lon="6.17353">
        <ele>417</ele>
        <time>2019-09-04T09:19:15Z</time>
      </trkpt>
      <trkpt lat="46.18165" lon="6.17355">
        <ele>417</ele>
        <time>2019-09-04T09:19:17Z</time>
      </trkpt>
      <trkpt lat="46.18161" lon="6.17356">
        <ele>417</ele>
        <time>2019-09-04T09:19:19Z</time>
      </trkpt>
      <trkpt lat="46.18157" lon="6.17358">
        <ele>417</ele>
        <time>2019-09-04T09:19:21Z</time>
      </trkpt>
      <trkpt lat="46.18153" lon="6.17359">
        <ele>417</ele>
        <time>2019-09-04T09:19:23Z</time>
      </trkpt>
      <trkpt lat="46.18149" lon="6.1736">
        <ele>417</ele>
        <time>2019-09-04T09:19:25Z</time>
      </trkpt>
      <trkpt lat="46.18144" lon="6.1736">
        <ele>417</ele>
        <time>2019-09-04T09:19:27Z</time>
      </trkpt>
      <trkpt lat="46.18139" lon="6.1736">
        <ele>417</ele>
        <time>2019-09-04T09:19:29Z</time>
      </trkpt>
      <trkpt lat="46.18135" lon="6.17359">
        <ele>417</ele>
        <time>2019-09-04T09:19:31Z</time>
      </trkpt>
      <trkpt lat="46.18131" lon="6.17359">
        <ele>417</ele>
        <time>2019-09-04T09:19:33Z</time>
      </trkpt>
      <trkpt lat="46.18127" lon="6.17359">
        <ele>417</ele>
        <time>2019-09-04T09:19:35Z</time>
      </trkpt>
      <trkpt lat="46.18123" lon="6.17358">
        <ele>417</ele>
        <time>2019-09-04T09:19:37Z</time>
      </trkpt>
      <trkpt lat="46.18119" lon="6.17358">
        <ele>417</ele>
        <time>2019-09-04T09:19:39Z</time>
      </trkpt>
      <trkpt lat="46.18116" lon="6.17358">
        <ele>417</ele>
        <time>2019-09-04T09:19:41Z</time>
      </trkpt>
      <trkpt lat="46.18112" lon="6.17357">
        <ele>417</ele>
        <time>2019-09-04T09:19:43Z</time>
      </trkpt>
      <trkpt lat="46.18108" lon="6.17357">
        <ele>417</ele>
        <time>2019-09-04T09:19:45Z</time>
      </trkpt>
      <trkpt lat="46.18104" lon="6.17357">
        <ele>416</ele>
        <time>2019-09-04T09:19:47Z</time>
      </trkpt>
      <trkpt lat="46.181" lon="6.17357">
        <ele>416</ele>
        <time>2019-09-04T09:19:49Z</time>
      </trkpt>
      <trkpt lat="46.18096" lon="6.17357">
        <ele>416</ele>
        <time>2019-09-04T09:19:51Z</time>
      </trkpt>
      <trkpt lat="46.18091" lon="6.17356">
        <ele>416</ele>
        <time>2019-09-04T09:19:53Z</time>
      </trkpt>
      <trkpt lat="46.18087" lon="6.17356">
        <ele>416</ele>
        <time>2019-09-04T09:19:55Z</time>
      </trkpt>
      <trkpt lat="46.18083" lon="6.17355">
        <ele>416</ele>
        <time>2019-09-04T09:19:57Z</time>
      </trkpt>
      <trkpt lat="46.18079" lon="6.17354">
        <ele>416</ele>
        <time>2019-09-04T09:19:59Z</time>
      </trkpt>
      <trkpt lat="46.18075" lon="6.17354">
        <ele>416</ele>
        <time>2019-09-04T09:20:01Z</time>
      </trkpt>
      <trkpt lat="46.18072" lon="6.17353">
        <ele>416</ele>
        <time>2019-09-04T09:20:03Z</time>
      </trkpt>
      <trkpt lat="46.18068" lon="6.17353">
        <ele>416</ele>
        <time>2019-09-04T09:20:05Z</time>
      </trkpt>
      <trkpt lat="46.18064" lon="6.17352">
        <ele>415</ele>
        <time>2019-09-04T09:20:07Z</time>
      </trkpt>
      <trkpt lat="46.1806" lon="6.17352">
        <ele>415</ele>
        <time>2019-09-04T09:20:09Z</time>
      </trkpt>
      <trkpt lat="46.18055" lon="6.17351">
        <ele>415</ele>
        <time>2019-09-04T09:20:11Z</time>
      </trkpt>
      <trkpt lat="46.18051" lon="6.17351">
        <ele>415</ele>
        <time>2019-09-04T09:20:13Z</time>
      </trkpt>
      <trkpt lat="46.18047" lon="6.1735">
        <ele>415</ele>
        <time>2019-09-04T09:20:15Z</time>
      </trkpt>
      <trkpt lat="46.18042" lon="6.1735">
        <ele>415</ele>
        <time>2019-09-04T09:20:17Z</time>
      </trkpt>
      <trkpt lat="46.18037" lon="6.1735">
        <ele>415</ele>
        <time>2019-09-04T09:20:19Z</time>
      </trkpt>
      <trkpt lat="46.18032" lon="6.17349">
        <ele>415</ele>
        <time>2019-09-04T09:20:21Z</time>
      </trkpt>
      <trkpt lat="46.18028" lon="6.17348">
        <ele>415</ele>
        <time>2019-09-04T09:20:23Z</time>
      </trkpt>
      <trkpt lat="46.18024" lon="6.17347">
        <ele>415</ele>
        <time>2019-09-04T09:20:25Z</time>
      </trkpt>
      <trkpt lat="46.18019" lon="6.17345">
        <ele>415</ele>
        <time>2019-09-04T09:20:27Z</time>
      </trkpt>
      <trkpt lat="46.18014" lon="6.17344">
        <ele>415</ele>
        <time>2019-09-04T09:20:29Z</time>
      </trkpt>
      <trkpt lat="46.18009" lon="6.17343">
        <ele>415</ele>
        <time>2019-09-04T09:20:31Z</time>
      </trkpt>
      <trkpt lat="46.18004" lon="6.17342">
        <ele>415</ele>
        <time>2019-09-04T09:20:33Z</time>
      </trkpt>
      <trkpt lat="46.17999" lon="6.17342">
        <ele>415</ele>
        <time>2019-09-04T09:20:35Z</time>
      </trkpt>
      <trkpt lat="46.17993" lon="6.17343">
        <ele>415</ele>
        <time>2019-09-04T09:20:37Z</time>
      </trkpt>
      <trkpt lat="46.17988" lon="6.17342">
        <ele>415</ele>
        <time>2019-09-04T09:20:39Z</time>
      </trkpt>
      <trkpt lat="46.17983" lon="6.17342">
        <ele>415</ele>
        <time>2019-09-04T09:20:41Z</time>
      </trkpt>
      <trkpt lat="46.17979" lon="6.17341">
        <ele>414</ele>
        <time>2019-09-04T09:20:43Z</time>
      </trkpt>
      <trkpt lat="46.17975" lon="6.1734">
        <ele>414</ele>
        <time>2019-09-04T09:20:45Z</time>
      </trkpt>
      <trkpt lat="46.1797" lon="6.17339">
        <ele>414</ele>
        <time>2019-09-04T09:20:47Z</time>
      </trkpt>
      <trkpt lat="46.17966" lon="6.17338">
        <ele>414</ele>
        <time>2019-09-04T09:20:49Z</time>
      </trkpt>
      <trkpt lat="46.17961" lon="6.17337">
        <ele>414</ele>
        <time>2019-09-04T09:20:51Z</time>
      </trkpt>
      <trkpt lat="46.17957" lon="6.17337">
        <ele>413</ele>
        <time>2019-09-04T09:20:53Z</time>
      </trkpt>
      <trkpt lat="46.17953" lon="6.17336">
        <ele>413</ele>
        <time>2019-09-04T09:20:55Z</time>
      </trkpt>
      <trkpt lat="46.17949" lon="6.17336">
        <ele>413</ele>
        <time>2019-09-04T09:20:57Z</time>
      </trkpt>
      <trkpt lat="46.17945" lon="6.17335">
        <ele>413</ele>
        <time>2019-09-04T09:20:59Z</time>
      </trkpt>
      <trkpt lat="46.17941" lon="6.17335">
        <ele>413</ele>
        <time>2019-09-04T09:21:01Z</time>
      </trkpt>
      <trkpt lat="46.17937" lon="6.17333">
        <ele>412</ele>
        <time>2019-09-04T09:21:03Z</time>
      </trkpt>
      <trkpt lat="46.17932" lon="6.17332">
        <ele>412</ele>
        <time>2019-09-04T09:21:05Z</time>
      </trkpt>
      <trkpt lat="46.17927" lon="6.17331">
        <ele>412</ele>
        <time>2019-09-04T09:21:07Z</time>
      </trkpt>
      <trkpt lat="46.17921" lon="6.1733">
        <ele>412</ele>
        <time>2019-09-04T09:21:09Z</time>
      </trkpt>
      <trkpt lat="46.17916" lon="6.1733">
        <ele>412</ele>
        <time>2019-09-04T09:21:11Z</time>
      </trkpt>
      <trkpt lat="46.17912" lon="6.17329">
        <ele>411</ele>
        <time>2019-09-04T09:21:13Z</time>
      </trkpt>
      <trkpt lat="46.17907" lon="6.17329">
        <ele>411</ele>
        <time>2019-09-04T09:21:15Z</time>
      </trkpt>
      <trkpt lat="46.17902" lon="6.17328">
        <ele>410</ele>
        <time>2019-09-04T09:21:17Z</time>
      </trkpt>
      <trkpt lat="46.17898" lon="6.17327">
        <ele>410</ele>
        <time>2019-09-04T09:21:19Z</time>
      </trkpt>
      <trkpt lat="46.17893" lon="6.17326">
        <ele>410</ele>
        <time>2019-09-04T09:21:21Z</time>
      </trkpt>
      <trkpt lat="46.17889" lon="6.17325">
        <ele>409</ele>
        <time>2019-09-04T09:21:23Z</time>
      </trkpt>
      <trkpt lat="46.17884" lon="6.17323">
        <ele>409</ele>
        <time>2019-09-04T09:21:25Z</time>
      </trkpt>
      <trkpt lat="46.17879" lon="6.17321">
        <ele>408</ele>
        <time>2019-09-04T09:21:27Z</time>
      </trkpt>
      <trkpt lat="46.17875" lon="6.1732">
        <ele>408</ele>
        <time>2019-09-04T09:21:29Z</time>
      </trkpt>
      <trkpt lat="46.17871" lon="6.17319">
        <ele>408</ele>
        <time>2019-09-04T09:21:31Z</time>
      </trkpt>
      <trkpt lat="46.17866" lon="6.17318">
        <ele>407</ele>
        <time>2019-09-04T09:21:33Z</time>
      </trkpt>
      <trkpt lat="46.17862" lon="6.17317">
        <ele>407</ele>
        <time>2019-09-04T09:21:35Z</time>
      </trkpt>
      <trkpt lat="46.17857" lon="6.17316">
        <ele>407</ele>
        <time>2019-09-04T09:21:37Z</time>
      </trkpt>
      <trkpt lat="46.17852" lon="6.17315">
        <ele>407</ele>
        <time>2019-09-04T09:21:39Z</time>
      </trkpt>
      <trkpt lat="46.17848" lon="6.17314">
        <ele>407</ele>
        <time>2019-09-04T09:21:41Z</time>
      </trkpt>
      <trkpt lat="46.17843" lon="6.17312">
        <ele>406</ele>
        <time>2019-09-04T09:21:43Z</time>
      </trkpt>
      <trkpt lat="46.17839" lon="6.17309">
        <ele>406</ele>
        <time>2019-09-04T09:21:45Z</time>
      </trkpt>
      <trkpt lat="46.17834" lon="6.17306">
        <ele>405</ele>
        <time>2019-09-04T09:21:47Z</time>
      </trkpt>
      <trkpt lat="46.1783" lon="6.17304">
        <ele>405</ele>
        <time>2019-09-04T09:21:49Z</time>
      </trkpt>
      <trkpt lat="46.17826" lon="6.17302">
        <ele>405</ele>
        <time>2019-09-04T09:21:51Z</time>
      </trkpt>
      <trkpt lat="46.17823" lon="6.17299">
        <ele>405</ele>
        <time>2019-09-04T09:21:53Z</time>
      </trkpt>
      <trkpt lat="46.17819" lon="6.17296">
        <ele>405</ele>
        <time>2019-09-04T09:21:55Z</time>
      </trkpt>
      <trkpt lat="46.17815" lon="6.17294">
        <ele>404</ele>
        <time>2019-09-04T09:21:57Z</time>
      </trkpt>
      <trkpt lat="46.17811" lon="6.17291">
        <ele>404</ele>
        <time>2019-09-04T09:21:59Z</time>
      </trkpt>
      <trkpt lat="46.17808" lon="6.17287">
        <ele>404</ele>
        <time>2019-09-04T09:22:01Z</time>
      </trkpt>
      <trkpt lat="46.17805" lon="6.17281">
        <ele>403</ele>
        <time>2019-09-04T09:22:03Z</time>
      </trkpt>
      <trkpt lat="46.17804" lon="6.17274">
        <ele>402</ele>
        <time>2019-09-04T09:22:05Z</time>
      </trkpt>
      <trkpt lat="46.17803" lon="6.17267">
        <ele>401</ele>
        <time>2019-09-04T09:22:07Z</time>
      </trkpt>
      <trkpt lat="46.17802" lon="6.17261">
        <ele>401</ele>
        <time>2019-09-04T09:22:09Z</time>
      </trkpt>
      <trkpt lat="46.17803" lon="6.17255">
        <ele>401</ele>
        <time>2019-09-04T09:22:11Z</time>
      </trkpt>
      <trkpt lat="46.17803" lon="6.17248">
        <ele>400</ele>
        <time>2019-09-04T09:22:13Z</time>
      </trkpt>
      <trkpt lat="46.17805" lon="6.17242">
        <ele>400</ele>
        <time>2019-09-04T09:22:15Z</time>
      </trkpt>
      <trkpt lat="46.17807" lon="6.17236">
        <ele>399</ele>
        <time>2019-09-04T09:22:17Z</time>
      </trkpt>
      <trkpt lat="46.17808" lon="6.1723">
        <ele>398</ele>
        <time>2019-09-04T09:22:19Z</time>
      </trkpt>
      <trkpt lat="46.1781" lon="6.17224">
        <ele>398</ele>
        <time>2019-09-04T09:22:21Z</time>
      </trkpt>
      <trkpt lat="46.17812" lon="6.1722">
        <ele>397</ele>
        <time>2019-09-04T09:22:23Z</time>
      </trkpt>
      <trkpt lat="46.17814" lon="6.17215">
        <ele>397</ele>
        <time>2019-09-04T09:22:25Z</time>
      </trkpt>
      <trkpt lat="46.17817" lon="6.17209">
        <ele>396</ele>
        <time>2019-09-04T09:22:27Z</time>
      </trkpt>
      <trkpt lat="46.1782" lon="6.17204">
        <ele>395</ele>
        <time>2019-09-04T09:22:29Z</time>
      </trkpt>
      <trkpt lat="46.17822" lon="6.17199">
        <ele>395</ele>
        <time>2019-09-04T09:22:31Z</time>
      </trkpt>
      <trkpt lat="46.17824" lon="6.17194">
        <ele>395</ele>
        <time>2019-09-04T09:22:33Z</time>
      </trkpt>
      <trkpt lat="46.17827" lon="6.17191">
        <ele>395</ele>
        <time>2019-09-04T09:22:35Z</time>
      </trkpt>
      <trkpt lat="46.17829" lon="6.17187">
        <ele>394</ele>
        <time>2019-09-04T09:22:37Z</time>
      </trkpt>
      <trkpt lat="46.17832" lon="6.17184">
        <ele>394</ele>
        <time>2019-09-04T09:22:39Z</time>
      </trkpt>
      <trkpt lat="46.17834" lon="6.1718">
        <ele>394</ele>
        <time>2019-09-04T09:22:41Z</time>
      </trkpt>
      <trkpt lat="46.17836" lon="6.17176">
        <ele>393</ele>
        <time>2019-09-04T09:22:43Z</time>
      </trkpt>
      <trkpt lat="46.17837" lon="6.17172">
        <ele>393</ele>
        <time>2019-09-04T09:22:45Z</time>
      </trkpt>
      <trkpt lat="46.17838" lon="6.17169">
        <ele>393</ele>
        <time>2019-09-04T09:22:47Z</time>
      </trkpt>
      <trkpt lat="46.1784" lon="6.17166">
        <ele>393</ele>
        <time>2019-09-04T09:22:49Z</time>
      </trkpt>
      <trkpt lat="46.17841" lon="6.17163">
        <ele>393</ele>
        <time>2019-09-04T09:22:51Z</time>
      </trkpt>
      <trkpt lat="46.17843" lon="6.17162">
        <ele>392</ele>
        <time>2019-09-04T09:22:53Z</time>
      </trkpt>
      <trkpt lat="46.17843" lon="6.17162">
        <ele>392</ele>
        <time>2019-09-04T09:23:06Z</time>
      </trkpt>
      <trkpt lat="46.17843" lon="6.17163">
        <ele>392</ele>
        <time>2019-09-04T09:23:08Z</time>
      </trkpt>
      <trkpt lat="46.17843" lon="6.17162">
        <ele>392</ele>
        <time>2019-09-04T09:23:10Z</time>
      </trkpt>
      <trkpt lat="46.17843" lon="6.1716">
        <ele>392</ele>
        <time>2019-09-04T09:23:12Z</time>
      </trkpt>
      <trkpt lat="46.17844" lon="6.17158">
        <ele>392</ele>
        <time>2019-09-04T09:23:14Z</time>
      </trkpt>
      <trkpt lat="46.17845" lon="6.17155">
        <ele>392</ele>
        <time>2019-09-04T09:23:16Z</time>
      </trkpt>
      <trkpt lat="46.17846" lon="6.17153">
        <ele>392</ele>
        <time>2019-09-04T09:23:18Z</time>
      </trkpt>
      <trkpt lat="46.17848" lon="6.17151">
        <ele>392</ele>
        <time>2019-09-04T09:23:20Z</time>
      </trkpt>
      <trkpt lat="46.17849" lon="6.17148">
        <ele>392</ele>
        <time>2019-09-04T09:23:22Z</time>
      </trkpt>
      <trkpt lat="46.1785" lon="6.17147">
        <ele>392</ele>
        <time>2019-09-04T09:23:24Z</time>
      </trkpt>
      <trkpt lat="46.17851" lon="6.17144">
        <ele>392</ele>
        <time>2019-09-04T09:23:26Z</time>
      </trkpt>
      <trkpt lat="46.17853" lon="6.17141">
        <ele>392</ele>
        <time>2019-09-04T09:23:28Z</time>
      </trkpt>
      <trkpt lat="46.17855" lon="6.17138">
        <ele>392</ele>
        <time>2019-09-04T09:23:30Z</time>
      </trkpt>
      <trkpt lat="46.17856" lon="6.17134">
        <ele>392</ele>
        <time>2019-09-04T09:23:32Z</time>
      </trkpt>
      <trkpt lat="46.17857" lon="6.1713">
        <ele>392</ele>
        <time>2019-09-04T09:23:34Z</time>
      </trkpt>
      <trkpt lat="46.17859" lon="6.17127">
        <ele>392</ele>
        <time>2019-09-04T09:23:36Z</time>
      </trkpt>
      <trkpt lat="46.17861" lon="6.17123">
        <ele>391</ele>
        <time>2019-09-04T09:23:38Z</time>
      </trkpt>
      <trkpt lat="46.17863" lon="6.17119">
        <ele>391</ele>
        <time>2019-09-04T09:23:40Z</time>
      </trkpt>
      <trkpt lat="46.17865" lon="6.17115">
        <ele>391</ele>
        <time>2019-09-04T09:23:42Z</time>
      </trkpt>
      <trkpt lat="46.17867" lon="6.17111">
        <ele>391</ele>
        <time>2019-09-04T09:23:44Z</time>
      </trkpt>
      <trkpt lat="46.17869" lon="6.17107">
        <ele>391</ele>
        <time>2019-09-04T09:23:46Z</time>
      </trkpt>
      <trkpt lat="46.1787" lon="6.17102">
        <ele>391</ele>
        <time>2019-09-04T09:23:48Z</time>
      </trkpt>
      <trkpt lat="46.17872" lon="6.17098">
        <ele>391</ele>
        <time>2019-09-04T09:23:50Z</time>
      </trkpt>
      <trkpt lat="46.17874" lon="6.17095">
        <ele>391</ele>
        <time>2019-09-04T09:23:52Z</time>
      </trkpt>
      <trkpt lat="46.17875" lon="6.17091">
        <ele>391</ele>
        <time>2019-09-04T09:23:54Z</time>
      </trkpt>
      <trkpt lat="46.17876" lon="6.17087">
        <ele>391</ele>
        <time>2019-09-04T09:23:56Z</time>
      </trkpt>
      <trkpt lat="46.17877" lon="6.17083">
        <ele>391</ele>
        <time>2019-09-04T09:23:58Z</time>
      </trkpt>
      <trkpt lat="46.17878" lon="6.17079">
        <ele>391</ele>
        <time>2019-09-04T09:24:00Z</time>
      </trkpt>
      <trkpt lat="46.17879" lon="6.17075">
        <ele>391</ele>
        <time>2019-09-04T09:24:02Z</time>
      </trkpt>
      <trkpt lat="46.1788" lon="6.17071">
        <ele>391</ele>
        <time>2019-09-04T09:24:04Z</time>
      </trkpt>
      <trkpt lat="46.1788" lon="6.17067">
        <ele>391</ele>
        <time>2019-09-04T09:24:06Z</time>
      </trkpt>
      <trkpt lat="46.17881" lon="6.17064">
        <ele>391</ele>
        <time>2019-09-04T09:24:08Z</time>
      </trkpt>
      <trkpt lat="46.17882" lon="6.1706">
        <ele>391</ele>
        <time>2019-09-04T09:24:10Z</time>
      </trkpt>
      <trkpt lat="46.17882" lon="6.17056">
        <ele>391</ele>
        <time>2019-09-04T09:24:12Z</time>
      </trkpt>
      <trkpt lat="46.17882" lon="6.17053">
        <ele>391</ele>
        <time>2019-09-04T09:24:14Z</time>
      </trkpt>
      <trkpt lat="46.17881" lon="6.17049">
        <ele>391</ele>
        <time>2019-09-04T09:24:16Z</time>
      </trkpt>
      <trkpt lat="46.17881" lon="6.17046">
        <ele>391</ele>
        <time>2019-09-04T09:24:18Z</time>
      </trkpt>
      <trkpt lat="46.1788" lon="6.17043">
        <ele>391</ele>
        <time>2019-09-04T09:24:20Z</time>
      </trkpt>
      <trkpt lat="46.17879" lon="6.17039">
        <ele>390</ele>
        <time>2019-09-04T09:24:22Z</time>
      </trkpt>
      <trkpt lat="46.17878" lon="6.17036">
        <ele>390</ele>
        <time>2019-09-04T09:24:24Z</time>
      </trkpt>
      <trkpt lat="46.17877" lon="6.17031">
        <ele>390</ele>
        <time>2019-09-04T09:24:26Z</time>
      </trkpt>
      <trkpt lat="46.17876" lon="6.17027">
        <ele>390</ele>
        <time>2019-09-04T09:24:28Z</time>
      </trkpt>
      <trkpt lat="46.17876" lon="6.17021">
        <ele>390</ele>
        <time>2019-09-04T09:24:30Z</time>
      </trkpt>
      <trkpt lat="46.17877" lon="6.17016">
        <ele>390</ele>
        <time>2019-09-04T09:24:32Z</time>
      </trkpt>
      <trkpt lat="46.17878" lon="6.17011">
        <ele>390</ele>
        <time>2019-09-04T09:24:34Z</time>
      </trkpt>
      <trkpt lat="46.1788" lon="6.17007">
        <ele>390</ele>
        <time>2019-09-04T09:24:36Z</time>
      </trkpt>
      <trkpt lat="46.17883" lon="6.17003">
        <ele>390</ele>
        <time>2019-09-04T09:24:38Z</time>
      </trkpt>
      <trkpt lat="46.17886" lon="6.17">
        <ele>390</ele>
        <time>2019-09-04T09:24:40Z</time>
      </trkpt>
      <trkpt lat="46.17888" lon="6.16997">
        <ele>390</ele>
        <time>2019-09-04T09:24:42Z</time>
      </trkpt>
      <trkpt lat="46.17891" lon="6.16996">
        <ele>390</ele>
        <time>2019-09-04T09:24:44Z</time>
      </trkpt>
      <trkpt lat="46.17894" lon="6.16995">
        <ele>391</ele>
        <time>2019-09-04T09:24:46Z</time>
      </trkpt>
      <trkpt lat="46.17896" lon="6.16995">
        <ele>391</ele>
        <time>2019-09-04T09:24:48Z</time>
      </trkpt>
      <trkpt lat="46.17899" lon="6.16995">
        <ele>391</ele>
        <time>2019-09-04T09:24:50Z</time>
      </trkpt>
      <trkpt lat="46.17901" lon="6.16995">
        <ele>391</ele>
        <time>2019-09-04T09:24:52Z</time>
      </trkpt>
      <trkpt lat="46.17904" lon="6.16995">
        <ele>391</ele>
        <time>2019-09-04T09:24:54Z</time>
      </trkpt>
      <trkpt lat="46.17907" lon="6.16994">
        <ele>391</ele>
        <time>2019-09-04T09:24:56Z</time>
      </trkpt>
      <trkpt lat="46.1791" lon="6.16994">
        <ele>391</ele>
        <time>2019-09-04T09:24:58Z</time>
      </trkpt>
      <trkpt lat="46.17913" lon="6.16994">
        <ele>391</ele>
        <time>2019-09-04T09:25:00Z</time>
      </trkpt>
      <trkpt lat="46.17915" lon="6.16994">
        <ele>391</ele>
        <time>2019-09-04T09:25:02Z</time>
      </trkpt>
      <trkpt lat="46.17917" lon="6.16996">
        <ele>391</ele>
        <time>2019-09-04T09:25:04Z</time>
      </trkpt>
      <trkpt lat="46.1792" lon="6.16996">
        <ele>391</ele>
        <time>2019-09-04T09:25:06Z</time>
      </trkpt>
      <trkpt lat="46.17923" lon="6.16997">
        <ele>391</ele>
        <time>2019-09-04T09:25:08Z</time>
      </trkpt>
      <trkpt lat="46.17925" lon="6.16998">
        <ele>391</ele>
        <time>2019-09-04T09:25:10Z</time>
      </trkpt>
      <trkpt lat="46.17927" lon="6.17001">
        <ele>391</ele>
        <time>2019-09-04T09:25:12Z</time>
      </trkpt>
      <trkpt lat="46.17929" lon="6.17004">
        <ele>391</ele>
        <time>2019-09-04T09:25:14Z</time>
      </trkpt>
      <trkpt lat="46.1793" lon="6.17007">
        <ele>391</ele>
        <time>2019-09-04T09:25:16Z</time>
      </trkpt>
      <trkpt lat="46.17932" lon="6.1701">
        <ele>391</ele>
        <time>2019-09-04T09:25:18Z</time>
      </trkpt>
      <trkpt lat="46.17933" lon="6.17014">
        <ele>391</ele>
        <time>2019-09-04T09:25:20Z</time>
      </trkpt>
      <trkpt lat="46.17935" lon="6.17017">
        <ele>391</ele>
        <time>2019-09-04T09:25:22Z</time>
      </trkpt>
      <trkpt lat="46.17938" lon="6.17017">
        <ele>391</ele>
        <time>2019-09-04T09:25:24Z</time>
      </trkpt>
      <trkpt lat="46.17941" lon="6.17017">
        <ele>391</ele>
        <time>2019-09-04T09:25:26Z</time>
      </trkpt>
      <trkpt lat="46.17944" lon="6.17018">
        <ele>391</ele>
        <time>2019-09-04T09:25:28Z</time>
      </trkpt>
      <trkpt lat="46.17946" lon="6.17021">
        <ele>391</ele>
        <time>2019-09-04T09:25:30Z</time>
      </trkpt>
      <trkpt lat="46.17947" lon="6.17023">
        <ele>391</ele>
        <time>2019-09-04T09:25:32Z</time>
      </trkpt>
      <trkpt lat="46.17949" lon="6.17026">
        <ele>391</ele>
        <time>2019-09-04T09:25:34Z</time>
      </trkpt>
      <trkpt lat="46.1795" lon="6.17028">
        <ele>391</ele>
        <time>2019-09-04T09:25:36Z</time>
      </trkpt>
      <trkpt lat="46.17952" lon="6.1703">
        <ele>390</ele>
        <time>2019-09-04T09:25:38Z</time>
      </trkpt>
      <trkpt lat="46.17955" lon="6.17031">
        <ele>390</ele>
        <time>2019-09-04T09:25:40Z</time>
      </trkpt>
      <trkpt lat="46.17957" lon="6.17033">
        <ele>390</ele>
        <time>2019-09-04T09:25:42Z</time>
      </trkpt>
      <trkpt lat="46.17959" lon="6.17036">
        <ele>390</ele>
        <time>2019-09-04T09:25:44Z</time>
      </trkpt>
      <trkpt lat="46.17961" lon="6.17038">
        <ele>390</ele>
        <time>2019-09-04T09:25:46Z</time>
      </trkpt>
      <trkpt lat="46.17962" lon="6.17041">
        <ele>390</ele>
        <time>2019-09-04T09:25:48Z</time>
      </trkpt>
      <trkpt lat="46.17964" lon="6.17044">
        <ele>390</ele>
        <time>2019-09-04T09:25:50Z</time>
      </trkpt>
      <trkpt lat="46.17966" lon="6.17046">
        <ele>390</ele>
        <time>2019-09-04T09:25:52Z</time>
      </trkpt>
      <trkpt lat="46.17968" lon="6.17048">
        <ele>390</ele>
        <time>2019-09-04T09:25:54Z</time>
      </trkpt>
      <trkpt lat="46.1797" lon="6.1705">
        <ele>390</ele>
        <time>2019-09-04T09:25:56Z</time>
      </trkpt>
      <trkpt lat="46.17972" lon="6.17052">
        <ele>390</ele>
        <time>2019-09-04T09:25:58Z</time>
      </trkpt>
      <trkpt lat="46.17974" lon="6.17055">
        <ele>390</ele>
        <time>2019-09-04T09:26:00Z</time>
      </trkpt>
      <trkpt lat="46.17976" lon="6.17058">
        <ele>390</ele>
        <time>2019-09-04T09:26:02Z</time>
      </trkpt>
      <trkpt lat="46.17977" lon="6.17061">
        <ele>390</ele>
        <time>2019-09-04T09:26:04Z</time>
      </trkpt>
      <trkpt lat="46.17978" lon="6.17064">
        <ele>390</ele>
        <time>2019-09-04T09:26:06Z</time>
      </trkpt>
      <trkpt lat="46.17979" lon="6.17068">
        <ele>390</ele>
        <time>2019-09-04T09:26:08Z</time>
      </trkpt>
      <trkpt lat="46.1798" lon="6.17071">
        <ele>390</ele>
        <time>2019-09-04T09:26:10Z</time>
      </trkpt>
      <trkpt lat="46.17981" lon="6.17075">
        <ele>390</ele>
        <time>2019-09-04T09:26:12Z</time>
      </trkpt>
      <trkpt lat="46.17982" lon="6.17078">
        <ele>390</ele>
        <time>2019-09-04T09:26:14Z</time>
      </trkpt>
      <trkpt lat="46.17983" lon="6.17081">
        <ele>390</ele>
        <time>2019-09-04T09:26:16Z</time>
      </trkpt>
      <trkpt lat="46.17984" lon="6.17084">
        <ele>390</ele>
        <time>2019-09-04T09:26:18Z</time>
      </trkpt>
      <trkpt lat="46.17985" lon="6.17086">
        <ele>390</ele>
        <time>2019-09-04T09:26:20Z</time>
      </trkpt>
      <trkpt lat="46.17988" lon="6.17086">
        <ele>390</ele>
        <time>2019-09-04T09:26:22Z</time>
      </trkpt>
      <trkpt lat="46.1799" lon="6.17086">
        <ele>390</ele>
        <time>2019-09-04T09:26:24Z</time>
      </trkpt>
      <trkpt lat="46.17993" lon="6.17086">
        <ele>390</ele>
        <time>2019-09-04T09:26:26Z</time>
      </trkpt>
      <trkpt lat="46.17997" lon="6.17085">
        <ele>390</ele>
        <time>2019-09-04T09:26:28Z</time>
      </trkpt>
      <trkpt lat="46.18" lon="6.17085">
        <ele>390</ele>
        <time>2019-09-04T09:26:30Z</time>
      </trkpt>
      <trkpt lat="46.18004" lon="6.17085">
        <ele>391</ele>
        <time>2019-09-04T09:26:32Z</time>
      </trkpt>
      <trkpt lat="46.18008" lon="6.17085">
        <ele>391</ele>
        <time>2019-09-04T09:26:34Z</time>
      </trkpt>
      <trkpt lat="46.18011" lon="6.17085">
        <ele>391</ele>
        <time>2019-09-04T09:26:36Z</time>
      </trkpt>
      <trkpt lat="46.18014" lon="6.17086">
        <ele>391</ele>
        <time>2019-09-04T09:26:38Z</time>
      </trkpt>
      <trkpt lat="46.18018" lon="6.17088">
        <ele>391</ele>
        <time>2019-09-04T09:26:40Z</time>
      </trkpt>
      <trkpt lat="46.18023" lon="6.17089">
        <ele>391</ele>
        <time>2019-09-04T09:26:42Z</time>
      </trkpt>
      <trkpt lat="46.18027" lon="6.1709">
        <ele>391</ele>
        <time>2019-09-04T09:26:44Z</time>
      </trkpt>
      <trkpt lat="46.18031" lon="6.17091">
        <ele>391</ele>
        <time>2019-09-04T09:26:46Z</time>
      </trkpt>
      <trkpt lat="46.18035" lon="6.17091">
        <ele>391</ele>
        <time>2019-09-04T09:26:48Z</time>
      </trkpt>
      <trkpt lat="46.18038" lon="6.17091">
        <ele>391</ele>
        <time>2019-09-04T09:26:50Z</time>
      </trkpt>
      <trkpt lat="46.18042" lon="6.17091">
        <ele>391</ele>
        <time>2019-09-04T09:26:52Z</time>
      </trkpt>
      <trkpt lat="46.18046" lon="6.17092">
        <ele>391</ele>
        <time>2019-09-04T09:26:54Z</time>
      </trkpt>
      <trkpt lat="46.1805" lon="6.17093">
        <ele>391</ele>
        <time>2019-09-04T09:26:56Z</time>
      </trkpt>
      <trkpt lat="46.18054" lon="6.17094">
        <ele>391</ele>
        <time>2019-09-04T09:26:58Z</time>
      </trkpt>
      <trkpt lat="46.18058" lon="6.17094">
        <ele>391</ele>
        <time>2019-09-04T09:27:00Z</time>
      </trkpt>
      <trkpt lat="46.18062" lon="6.17094">
        <ele>390</ele>
        <time>2019-09-04T09:27:02Z</time>
      </trkpt>
      <trkpt lat="46.18066" lon="6.17094">
        <ele>390</ele>
        <time>2019-09-04T09:27:04Z</time>
      </trkpt>
      <trkpt lat="46.18069" lon="6.17093">
        <ele>390</ele>
        <time>2019-09-04T09:27:06Z</time>
      </trkpt>
      <trkpt lat="46.18074" lon="6.17093">
        <ele>390</ele>
        <time>2019-09-04T09:27:08Z</time>
      </trkpt>
      <trkpt lat="46.18079" lon="6.17093">
        <ele>390</ele>
        <time>2019-09-04T09:27:10Z</time>
      </trkpt>
      <trkpt lat="46.18084" lon="6.17093">
        <ele>390</ele>
        <time>2019-09-04T09:27:12Z</time>
      </trkpt>
      <trkpt lat="46.18089" lon="6.17092">
        <ele>390</ele>
        <time>2019-09-04T09:27:14Z</time>
      </trkpt>
      <trkpt lat="46.18093" lon="6.17092">
        <ele>390</ele>
        <time>2019-09-04T09:27:16Z</time>
      </trkpt>
      <trkpt lat="46.18097" lon="6.17092">
        <ele>390</ele>
        <time>2019-09-04T09:27:18Z</time>
      </trkpt>
      <trkpt lat="46.18101" lon="6.17093">
        <ele>390</ele>
        <time>2019-09-04T09:27:20Z</time>
      </trkpt>
      <trkpt lat="46.18105" lon="6.17093">
        <ele>390</ele>
        <time>2019-09-04T09:27:22Z</time>
      </trkpt>
      <trkpt lat="46.18109" lon="6.17094">
        <ele>390</ele>
        <time>2019-09-04T09:27:24Z</time>
      </trkpt>
      <trkpt lat="46.18112" lon="6.17095">
        <ele>390</ele>
        <time>2019-09-04T09:27:26Z</time>
      </trkpt>
      <trkpt lat="46.18115" lon="6.17095">
        <ele>390</ele>
        <time>2019-09-04T09:27:28Z</time>
      </trkpt>
      <trkpt lat="46.18118" lon="6.17095">
        <ele>390</ele>
        <time>2019-09-04T09:27:30Z</time>
      </trkpt>
      <trkpt lat="46.1812" lon="6.17095">
        <ele>390</ele>
        <time>2019-09-04T09:27:32Z</time>
      </trkpt>
      <trkpt lat="46.18123" lon="6.17095">
        <ele>390</ele>
        <time>2019-09-04T09:27:34Z</time>
      </trkpt>
      <trkpt lat="46.18126" lon="6.17094">
        <ele>390</ele>
        <time>2019-09-04T09:27:36Z</time>
      </trkpt>
      <trkpt lat="46.18128" lon="6.17094">
        <ele>390</ele>
        <time>2019-09-04T09:27:38Z</time>
      </trkpt>
      <trkpt lat="46.18131" lon="6.17093">
        <ele>390</ele>
        <time>2019-09-04T09:27:40Z</time>
      </trkpt>
      <trkpt lat="46.18133" lon="6.17092">
        <ele>390</ele>
        <time>2019-09-04T09:27:42Z</time>
      </trkpt>
      <trkpt lat="46.18135" lon="6.17091">
        <ele>390</ele>
        <time>2019-09-04T09:27:44Z</time>
      </trkpt>
      <trkpt lat="46.18137" lon="6.1709">
        <ele>390</ele>
        <time>2019-09-04T09:27:46Z</time>
      </trkpt>
      <trkpt lat="46.18139" lon="6.17089">
        <ele>390</ele>
        <time>2019-09-04T09:27:48Z</time>
      </trkpt>
      <trkpt lat="46.18141" lon="6.17089">
        <ele>390</ele>
        <time>2019-09-04T09:27:50Z</time>
      </trkpt>
      <trkpt lat="46.18143" lon="6.17088">
        <ele>390</ele>
        <time>2019-09-04T09:27:52Z</time>
      </trkpt>
      <trkpt lat="46.18146" lon="6.17087">
        <ele>390</ele>
        <time>2019-09-04T09:27:54Z</time>
      </trkpt>
      <trkpt lat="46.18148" lon="6.17086">
        <ele>390</ele>
        <time>2019-09-04T09:27:56Z</time>
      </trkpt>
      <trkpt lat="46.18151" lon="6.17085">
        <ele>390</ele>
        <time>2019-09-04T09:27:58Z</time>
      </trkpt>
      <trkpt lat="46.18154" lon="6.17084">
        <ele>390</ele>
        <time>2019-09-04T09:28:00Z</time>
      </trkpt>
      <trkpt lat="46.18157" lon="6.17083">
        <ele>390</ele>
        <time>2019-09-04T09:28:02Z</time>
      </trkpt>
      <trkpt lat="46.18161" lon="6.17081">
        <ele>390</ele>
        <time>2019-09-04T09:28:04Z</time>
      </trkpt>
      <trkpt lat="46.18165" lon="6.1708">
        <ele>390</ele>
        <time>2019-09-04T09:28:06Z</time>
      </trkpt>
      <trkpt lat="46.1817" lon="6.17078">
        <ele>390</ele>
        <time>2019-09-04T09:28:08Z</time>
      </trkpt>
      <trkpt lat="46.18174" lon="6.17077">
        <ele>390</ele>
        <time>2019-09-04T09:28:10Z</time>
      </trkpt>
      <trkpt lat="46.18178" lon="6.17075">
        <ele>390</ele>
        <time>2019-09-04T09:28:12Z</time>
      </trkpt>
      <trkpt lat="46.18182" lon="6.17073">
        <ele>390</ele>
        <time>2019-09-04T09:28:14Z</time>
      </trkpt>
      <trkpt lat="46.18185" lon="6.17071">
        <ele>390</ele>
        <time>2019-09-04T09:28:16Z</time>
      </trkpt>
      <trkpt lat="46.18189" lon="6.17069">
        <ele>390</ele>
        <time>2019-09-04T09:28:18Z</time>
      </trkpt>
      <trkpt lat="46.18193" lon="6.17068">
        <ele>390</ele>
        <time>2019-09-04T09:28:20Z</time>
      </trkpt>
      <trkpt lat="46.18196" lon="6.17067">
        <ele>390</ele>
        <time>2019-09-04T09:28:22Z</time>
      </trkpt>
      <trkpt lat="46.18199" lon="6.17066">
        <ele>390</ele>
        <time>2019-09-04T09:28:24Z</time>
      </trkpt>
      <trkpt lat="46.18203" lon="6.17065">
        <ele>390</ele>
        <time>2019-09-04T09:28:26Z</time>
      </trkpt>
      <trkpt lat="46.18206" lon="6.17064">
        <ele>390</ele>
        <time>2019-09-04T09:28:28Z</time>
      </trkpt>
      <trkpt lat="46.18209" lon="6.17063">
        <ele>390</ele>
        <time>2019-09-04T09:28:30Z</time>
      </trkpt>
      <trkpt lat="46.18212" lon="6.17062">
        <ele>389</ele>
        <time>2019-09-04T09:28:32Z</time>
      </trkpt>
      <trkpt lat="46.18215" lon="6.17061">
        <ele>389</ele>
        <time>2019-09-04T09:28:34Z</time>
      </trkpt>
      <trkpt lat="46.18218" lon="6.1706">
        <ele>389</ele>
        <time>2019-09-04T09:28:36Z</time>
      </trkpt>
      <trkpt lat="46.18221" lon="6.17058">
        <ele>389</ele>
        <time>2019-09-04T09:28:38Z</time>
      </trkpt>
      <trkpt lat="46.18224" lon="6.17056">
        <ele>389</ele>
        <time>2019-09-04T09:28:40Z</time>
      </trkpt>
      <trkpt lat="46.18227" lon="6.17054">
        <ele>389</ele>
        <time>2019-09-04T09:28:42Z</time>
      </trkpt>
      <trkpt lat="46.1823" lon="6.17053">
        <ele>389</ele>
        <time>2019-09-04T09:28:44Z</time>
      </trkpt>
      <trkpt lat="46.18232" lon="6.17052">
        <ele>389</ele>
        <time>2019-09-04T09:28:46Z</time>
      </trkpt>
      <trkpt lat="46.18235" lon="6.1705">
        <ele>389</ele>
        <time>2019-09-04T09:28:48Z</time>
      </trkpt>
      <trkpt lat="46.18238" lon="6.17049">
        <ele>389</ele>
        <time>2019-09-04T09:28:50Z</time>
      </trkpt>
      <trkpt lat="46.18241" lon="6.17048">
        <ele>389</ele>
        <time>2019-09-04T09:28:52Z</time>
      </trkpt>
      <trkpt lat="46.18245" lon="6.17047">
        <ele>389</ele>
        <time>2019-09-04T09:28:54Z</time>
      </trkpt>
      <trkpt lat="46.18249" lon="6.17046">
        <ele>389</ele>
        <time>2019-09-04T09:28:56Z</time>
      </trkpt>
      <trkpt lat="46.18252" lon="6.17046">
        <ele>389</ele>
        <time>2019-09-04T09:28:58Z</time>
      </trkpt>
      <trkpt lat="46.18255" lon="6.17045">
        <ele>389</ele>
        <time>2019-09-04T09:29:00Z</time>
      </trkpt>
      <trkpt lat="46.18258" lon="6.17045">
        <ele>389</ele>
        <time>2019-09-04T09:29:02Z</time>
      </trkpt>
      <trkpt lat="46.1826" lon="6.17045">
        <ele>389</ele>
        <time>2019-09-04T09:29:04Z</time>
      </trkpt>
      <trkpt lat="46.18263" lon="6.17044">
        <ele>389</ele>
        <time>2019-09-04T09:29:06Z</time>
      </trkpt>
      <trkpt lat="46.18266" lon="6.17043">
        <ele>389</ele>
        <time>2019-09-04T09:29:08Z</time>
      </trkpt>
      <trkpt lat="46.18269" lon="6.17042">
        <ele>389</ele>
        <time>2019-09-04T09:29:10Z</time>
      </trkpt>
      <trkpt lat="46.18272" lon="6.17042">
        <ele>389</ele>
        <time>2019-09-04T09:29:12Z</time>
      </trkpt>
      <trkpt lat="46.18274" lon="6.17042">
        <ele>389</ele>
        <time>2019-09-04T09:29:14Z</time>
      </trkpt>
      <trkpt lat="46.18277" lon="6.17041">
        <ele>389</ele>
        <time>2019-09-04T09:29:16Z</time>
      </trkpt>
      <trkpt lat="46.1828" lon="6.1704">
        <ele>389</ele>
        <time>2019-09-04T09:29:18Z</time>
      </trkpt>
      <trkpt lat="46.18282" lon="6.17039">
        <ele>389</ele>
        <time>2019-09-04T09:29:20Z</time>
      </trkpt>
      <trkpt lat="46.18285" lon="6.17039">
        <ele>389</ele>
        <time>2019-09-04T09:29:22Z</time>
      </trkpt>
      <trkpt lat="46.18288" lon="6.17038">
        <ele>389</ele>
        <time>2019-09-04T09:29:24Z</time>
      </trkpt>
      <trkpt lat="46.18291" lon="6.17036">
        <ele>389</ele>
        <time>2019-09-04T09:29:26Z</time>
      </trkpt>
      <trkpt lat="46.18295" lon="6.17034">
        <ele>389</ele>
        <time>2019-09-04T09:29:28Z</time>
      </trkpt>
      <trkpt lat="46.18298" lon="6.17032">
        <ele>389</ele>
        <time>2019-09-04T09:29:30Z</time>
      </trkpt>
      <trkpt lat="46.18302" lon="6.17029">
        <ele>389</ele>
        <time>2019-09-04T09:29:32Z</time>
      </trkpt>
      <trkpt lat="46.18305" lon="6.17027">
        <ele>389</ele>
        <time>2019-09-04T09:29:34Z</time>
      </trkpt>
      <trkpt lat="46.18309" lon="6.17025">
        <ele>389</ele>
        <time>2019-09-04T09:29:36Z</time>
      </trkpt>
      <trkpt lat="46.18313" lon="6.17024">
        <ele>388</ele>
        <time>2019-09-04T09:29:38Z</time>
      </trkpt>
      <trkpt lat="46.18316" lon="6.17023">
        <ele>388</ele>
        <time>2019-09-04T09:29:40Z</time>
      </trkpt>
      <trkpt lat="46.18319" lon="6.17022">
        <ele>388</ele>
        <time>2019-09-04T09:29:42Z</time>
      </trkpt>
      <trkpt lat="46.18322" lon="6.17019">
        <ele>388</ele>
        <time>2019-09-04T09:29:44Z</time>
      </trkpt>
      <trkpt lat="46.18325" lon="6.17017">
        <ele>388</ele>
        <time>2019-09-04T09:29:46Z</time>
      </trkpt>
      <trkpt lat="46.18328" lon="6.17015">
        <ele>388</ele>
        <time>2019-09-04T09:29:48Z</time>
      </trkpt>
      <trkpt lat="46.18331" lon="6.17013">
        <ele>388</ele>
        <time>2019-09-04T09:29:50Z</time>
      </trkpt>
      <trkpt lat="46.18335" lon="6.1701">
        <ele>388</ele>
        <time>2019-09-04T09:29:52Z</time>
      </trkpt>
      <trkpt lat="46.18339" lon="6.17008">
        <ele>388</ele>
        <time>2019-09-04T09:29:54Z</time>
      </trkpt>
      <trkpt lat="46.18343" lon="6.17006">
        <ele>388</ele>
        <time>2019-09-04T09:29:56Z</time>
      </trkpt>
      <trkpt lat="46.18347" lon="6.17003">
        <ele>388</ele>
        <time>2019-09-04T09:29:58Z</time>
      </trkpt>
      <trkpt lat="46.18351" lon="6.16998">
        <ele>388</ele>
        <time>2019-09-04T09:30:00Z</time>
      </trkpt>
      <trkpt lat="46.18353" lon="6.16994">
        <ele>388</ele>
        <time>2019-09-04T09:30:02Z</time>
      </trkpt>
      <trkpt lat="46.18355" lon="6.1699">
        <ele>388</ele>
        <time>2019-09-04T09:30:04Z</time>
      </trkpt>
      <trkpt lat="46.18357" lon="6.16987">
        <ele>389</ele>
        <time>2019-09-04T09:30:06Z</time>
      </trkpt>
      <trkpt lat="46.18358" lon="6.16985">
        <ele>389</ele>
        <time>2019-09-04T09:30:08Z</time>
      </trkpt>
      <trkpt lat="46.1836" lon="6.16982">
        <ele>389</ele>
        <time>2019-09-04T09:30:10Z</time>
      </trkpt>
      <trkpt lat="46.18361" lon="6.16979">
        <ele>389</ele>
        <time>2019-09-04T09:30:12Z</time>
      </trkpt>
      <trkpt lat="46.18362" lon="6.16977">
        <ele>389</ele>
        <time>2019-09-04T09:30:14Z</time>
      </trkpt>
      <trkpt lat="46.18363" lon="6.16975">
        <ele>390</ele>
        <time>2019-09-04T09:30:16Z</time>
      </trkpt>
      <trkpt lat="46.18364" lon="6.16973">
        <ele>390</ele>
        <time>2019-09-04T09:30:18Z</time>
      </trkpt>
      <trkpt lat="46.18366" lon="6.16971">
        <ele>390</ele>
        <time>2019-09-04T09:30:20Z</time>
      </trkpt>
      <trkpt lat="46.18367" lon="6.16971">
        <ele>391</ele>
        <time>2019-09-04T09:30:22Z</time>
      </trkpt>
      <trkpt lat="46.18367" lon="6.1697">
        <ele>391</ele>
        <time>2019-09-04T09:30:24Z</time>
      </trkpt>
      <trkpt lat="46.18366" lon="6.16969">
        <ele>391</ele>
        <time>2019-09-04T09:30:26Z</time>
      </trkpt>
      <trkpt lat="46.18366" lon="6.16966">
        <ele>391</ele>
        <time>2019-09-04T09:30:28Z</time>
      </trkpt>
      <trkpt lat="46.18365" lon="6.16963">
        <ele>391</ele>
        <time>2019-09-04T09:30:30Z</time>
      </trkpt>
      <trkpt lat="46.18365" lon="6.16959">
        <ele>391</ele>
        <time>2019-09-04T09:30:32Z</time>
      </trkpt>
      <trkpt lat="46.18365" lon="6.16956">
        <ele>391</ele>
        <time>2019-09-04T09:30:34Z</time>
      </trkpt>
      <trkpt lat="46.18365" lon="6.16953">
        <ele>392</ele>
        <time>2019-09-04T09:30:36Z</time>
      </trkpt>
      <trkpt lat="46.18365" lon="6.1695">
        <ele>392</ele>
        <time>2019-09-04T09:30:38Z</time>
      </trkpt>
      <trkpt lat="46.18365" lon="6.16947">
        <ele>392</ele>
        <time>2019-09-04T09:30:40Z</time>
      </trkpt>
      <trkpt lat="46.18365" lon="6.16943">
        <ele>392</ele>
        <time>2019-09-04T09:30:42Z</time>
      </trkpt>
      <trkpt lat="46.18366" lon="6.16938">
        <ele>392</ele>
        <time>2019-09-04T09:30:44Z</time>
      </trkpt>
      <trkpt lat="46.18366" lon="6.16934">
        <ele>392</ele>
        <time>2019-09-04T09:30:46Z</time>
      </trkpt>
      <trkpt lat="46.18366" lon="6.16929">
        <ele>392</ele>
        <time>2019-09-04T09:30:48Z</time>
      </trkpt>
      <trkpt lat="46.18366" lon="6.16926">
        <ele>392</ele>
        <time>2019-09-04T09:30:50Z</time>
      </trkpt>
      <trkpt lat="46.18366" lon="6.16922">
        <ele>392</ele>
        <time>2019-09-04T09:30:52Z</time>
      </trkpt>
      <trkpt lat="46.18366" lon="6.16919">
        <ele>392</ele>
        <time>2019-09-04T09:30:54Z</time>
      </trkpt>
      <trkpt lat="46.18366" lon="6.16915">
        <ele>392</ele>
        <time>2019-09-04T09:30:56Z</time>
      </trkpt>
      <trkpt lat="46.18366" lon="6.16911">
        <ele>392</ele>
        <time>2019-09-04T09:30:58Z</time>
      </trkpt>
      <trkpt lat="46.18366" lon="6.16908">
        <ele>392</ele>
        <time>2019-09-04T09:31:00Z</time>
      </trkpt>
      <trkpt lat="46.18366" lon="6.16904">
        <ele>392</ele>
        <time>2019-09-04T09:31:02Z</time>
      </trkpt>
      <trkpt lat="46.18366" lon="6.169">
        <ele>392</ele>
        <time>2019-09-04T09:31:04Z</time>
      </trkpt>
      <trkpt lat="46.18366" lon="6.16895">
        <ele>393</ele>
        <time>2019-09-04T09:31:06Z</time>
      </trkpt>
      <trkpt lat="46.18366" lon="6.1689">
        <ele>393</ele>
        <time>2019-09-04T09:31:08Z</time>
      </trkpt>
      <trkpt lat="46.18367" lon="6.16885">
        <ele>393</ele>
        <time>2019-09-04T09:31:10Z</time>
      </trkpt>
      <trkpt lat="46.18367" lon="6.1688">
        <ele>393</ele>
        <time>2019-09-04T09:31:12Z</time>
      </trkpt>
      <trkpt lat="46.18368" lon="6.16876">
        <ele>393</ele>
        <time>2019-09-04T09:31:14Z</time>
      </trkpt>
      <trkpt lat="46.18368" lon="6.16872">
        <ele>393</ele>
        <time>2019-09-04T09:31:16Z</time>
      </trkpt>
      <trkpt lat="46.18368" lon="6.16868">
        <ele>393</ele>
        <time>2019-09-04T09:31:18Z</time>
      </trkpt>
      <trkpt lat="46.18368" lon="6.16865">
        <ele>393</ele>
        <time>2019-09-04T09:31:20Z</time>
      </trkpt>
      <trkpt lat="46.18368" lon="6.16861">
        <ele>393</ele>
        <time>2019-09-04T09:31:22Z</time>
      </trkpt>
      <trkpt lat="46.18368" lon="6.16858">
        <ele>393</ele>
        <time>2019-09-04T09:31:24Z</time>
      </trkpt>
      <trkpt lat="46.18369" lon="6.16854">
        <ele>393</ele>
        <time>2019-09-04T09:31:26Z</time>
      </trkpt>
      <trkpt lat="46.1837" lon="6.16851">
        <ele>393</ele>
        <time>2019-09-04T09:31:28Z</time>
      </trkpt>
      <trkpt lat="46.18372" lon="6.16848">
        <ele>393</ele>
        <time>2019-09-04T09:31:30Z</time>
      </trkpt>
      <trkpt lat="46.18374" lon="6.16845">
        <ele>394</ele>
        <time>2019-09-04T09:31:32Z</time>
      </trkpt>
      <trkpt lat="46.18376" lon="6.16843">
        <ele>394</ele>
        <time>2019-09-04T09:31:34Z</time>
      </trkpt>
      <trkpt lat="46.18378" lon="6.1684">
        <ele>394</ele>
        <time>2019-09-04T09:31:36Z</time>
      </trkpt>
      <trkpt lat="46.1838" lon="6.16838">
        <ele>394</ele>
        <time>2019-09-04T09:31:38Z</time>
      </trkpt>
      <trkpt lat="46.18382" lon="6.16835">
        <ele>394</ele>
        <time>2019-09-04T09:31:40Z</time>
      </trkpt>
      <trkpt lat="46.18385" lon="6.16832">
        <ele>394</ele>
        <time>2019-09-04T09:31:42Z</time>
      </trkpt>
      <trkpt lat="46.18388" lon="6.16829">
        <ele>394</ele>
        <time>2019-09-04T09:31:44Z</time>
      </trkpt>
      <trkpt lat="46.18391" lon="6.16827">
        <ele>394</ele>
        <time>2019-09-04T09:31:46Z</time>
      </trkpt>
      <trkpt lat="46.18394" lon="6.16824">
        <ele>394</ele>
        <time>2019-09-04T09:31:48Z</time>
      </trkpt>
      <trkpt lat="46.18397" lon="6.16821">
        <ele>394</ele>
        <time>2019-09-04T09:31:50Z</time>
      </trkpt>
      <trkpt lat="46.184" lon="6.16818">
        <ele>394</ele>
        <time>2019-09-04T09:31:52Z</time>
      </trkpt>
      <trkpt lat="46.18404" lon="6.16814">
        <ele>394</ele>
        <time>2019-09-04T09:31:54Z</time>
      </trkpt>
      <trkpt lat="46.18408" lon="6.16811">
        <ele>394</ele>
        <time>2019-09-04T09:31:56Z</time>
      </trkpt>
      <trkpt lat="46.18412" lon="6.16809">
        <ele>394</ele>
        <time>2019-09-04T09:31:58Z</time>
      </trkpt>
      <trkpt lat="46.18415" lon="6.16808">
        <ele>394</ele>
        <time>2019-09-04T09:32:00Z</time>
      </trkpt>
      <trkpt lat="46.18419" lon="6.16808">
        <ele>393</ele>
        <time>2019-09-04T09:32:02Z</time>
      </trkpt>
      <trkpt lat="46.18423" lon="6.16808">
        <ele>393</ele>
        <time>2019-09-04T09:32:04Z</time>
      </trkpt>
      <trkpt lat="46.18427" lon="6.16808">
        <ele>393</ele>
        <time>2019-09-04T09:32:06Z</time>
      </trkpt>
      <trkpt lat="46.1843" lon="6.16808">
        <ele>393</ele>
        <time>2019-09-04T09:32:08Z</time>
      </trkpt>
      <trkpt lat="46.18434" lon="6.16807">
        <ele>393</ele>
        <time>2019-09-04T09:32:10Z</time>
      </trkpt>
      <trkpt lat="46.18437" lon="6.16806">
        <ele>392</ele>
        <time>2019-09-04T09:32:12Z</time>
      </trkpt>
      <trkpt lat="46.18438" lon="6.16802">
        <ele>392</ele>
        <time>2019-09-04T09:32:14Z</time>
      </trkpt>
      <trkpt lat="46.18439" lon="6.16796">
        <ele>392</ele>
        <time>2019-09-04T09:32:16Z</time>
      </trkpt>
      <trkpt lat="46.1844" lon="6.1679">
        <ele>392</ele>
        <time>2019-09-04T09:32:18Z</time>
      </trkpt>
      <trkpt lat="46.1844" lon="6.16784">
        <ele>392</ele>
        <time>2019-09-04T09:32:20Z</time>
      </trkpt>
      <trkpt lat="46.1844" lon="6.16778">
        <ele>392</ele>
        <time>2019-09-04T09:32:22Z</time>
      </trkpt>
      <trkpt lat="46.1844" lon="6.16773">
        <ele>392</ele>
        <time>2019-09-04T09:32:24Z</time>
      </trkpt>
      <trkpt lat="46.1844" lon="6.16768">
        <ele>392</ele>
        <time>2019-09-04T09:32:26Z</time>
      </trkpt>
      <trkpt lat="46.1844" lon="6.16762">
        <ele>391</ele>
        <time>2019-09-04T09:32:28Z</time>
      </trkpt>
      <trkpt lat="46.1844" lon="6.16757">
        <ele>391</ele>
        <time>2019-09-04T09:32:30Z</time>
      </trkpt>
      <trkpt lat="46.1844" lon="6.16751">
        <ele>391</ele>
        <time>2019-09-04T09:32:32Z</time>
      </trkpt>
      <trkpt lat="46.1844" lon="6.16745">
        <ele>391</ele>
        <time>2019-09-04T09:32:34Z</time>
      </trkpt>
      <trkpt lat="46.18441" lon="6.16739">
        <ele>391</ele>
        <time>2019-09-04T09:32:36Z</time>
      </trkpt>
      <trkpt lat="46.18441" lon="6.16734">
        <ele>391</ele>
        <time>2019-09-04T09:32:38Z</time>
      </trkpt>
      <trkpt lat="46.18441" lon="6.16728">
        <ele>391</ele>
        <time>2019-09-04T09:32:40Z</time>
      </trkpt>
      <trkpt lat="46.18441" lon="6.16723">
        <ele>392</ele>
        <time>2019-09-04T09:32:42Z</time>
      </trkpt>
      <trkpt lat="46.18442" lon="6.16717">
        <ele>392</ele>
        <time>2019-09-04T09:32:44Z</time>
      </trkpt>
      <trkpt lat="46.18444" lon="6.16712">
        <ele>392</ele>
        <time>2019-09-04T09:32:46Z</time>
      </trkpt>
      <trkpt lat="46.18447" lon="6.16708">
        <ele>391</ele>
        <time>2019-09-04T09:32:48Z</time>
      </trkpt>
      <trkpt lat="46.1845" lon="6.16704">
        <ele>391</ele>
        <time>2019-09-04T09:32:50Z</time>
      </trkpt>
      <trkpt lat="46.18453" lon="6.16701">
        <ele>391</ele>
        <time>2019-09-04T09:32:52Z</time>
      </trkpt>
      <trkpt lat="46.18456" lon="6.16699">
        <ele>391</ele>
        <time>2019-09-04T09:32:54Z</time>
      </trkpt>
      <trkpt lat="46.18459" lon="6.16696">
        <ele>391</ele>
        <time>2019-09-04T09:32:56Z</time>
      </trkpt>
      <trkpt lat="46.18462" lon="6.16694">
        <ele>391</ele>
        <time>2019-09-04T09:32:58Z</time>
      </trkpt>
      <trkpt lat="46.18464" lon="6.16691">
        <ele>391</ele>
        <time>2019-09-04T09:33:00Z</time>
      </trkpt>
      <trkpt lat="46.18466" lon="6.16689">
        <ele>391</ele>
        <time>2019-09-04T09:33:02Z</time>
      </trkpt>
      <trkpt lat="46.18468" lon="6.16687">
        <ele>391</ele>
        <time>2019-09-04T09:33:04Z</time>
      </trkpt>
      <trkpt lat="46.1847" lon="6.16685">
        <ele>391</ele>
        <time>2019-09-04T09:33:06Z</time>
      </trkpt>
      <trkpt lat="46.18472" lon="6.16683">
        <ele>391</ele>
        <time>2019-09-04T09:33:08Z</time>
      </trkpt>
      <trkpt lat="46.18475" lon="6.16681">
        <ele>391</ele>
        <time>2019-09-04T09:33:10Z</time>
      </trkpt>
      <trkpt lat="46.18478" lon="6.16679">
        <ele>391</ele>
        <time>2019-09-04T09:33:12Z</time>
      </trkpt>
      <trkpt lat="46.18482" lon="6.16678">
        <ele>391</ele>
        <time>2019-09-04T09:33:14Z</time>
      </trkpt>
      <trkpt lat="46.18486" lon="6.16677">
        <ele>391</ele>
        <time>2019-09-04T09:33:16Z</time>
      </trkpt>
      <trkpt lat="46.18491" lon="6.16675">
        <ele>391</ele>
        <time>2019-09-04T09:33:18Z</time>
      </trkpt>
      <trkpt lat="46.18494" lon="6.16674">
        <ele>391</ele>
        <time>2019-09-04T09:33:20Z</time>
      </trkpt>
      <trkpt lat="46.18498" lon="6.16672">
        <ele>391</ele>
        <time>2019-09-04T09:33:22Z</time>
      </trkpt>
      <trkpt lat="46.18501" lon="6.16668">
        <ele>391</ele>
        <time>2019-09-04T09:33:24Z</time>
      </trkpt>
      <trkpt lat="46.18505" lon="6.16665">
        <ele>391</ele>
        <time>2019-09-04T09:33:26Z</time>
      </trkpt>
      <trkpt lat="46.18508" lon="6.1666">
        <ele>391</ele>
        <time>2019-09-04T09:33:28Z</time>
      </trkpt>
      <trkpt lat="46.1851" lon="6.16655">
        <ele>391</ele>
        <time>2019-09-04T09:33:30Z</time>
      </trkpt>
      <trkpt lat="46.18512" lon="6.16651">
        <ele>392</ele>
        <time>2019-09-04T09:33:32Z</time>
      </trkpt>
      <trkpt lat="46.18513" lon="6.16645">
        <ele>392</ele>
        <time>2019-09-04T09:33:34Z</time>
      </trkpt>
      <trkpt lat="46.18513" lon="6.1664">
        <ele>392</ele>
        <time>2019-09-04T09:33:36Z</time>
      </trkpt>
      <trkpt lat="46.18511" lon="6.16627">
        <ele>392</ele>
        <time>2019-09-04T09:33:39Z</time>
      </trkpt>
    </trkseg>
  </trk>
</gpx>